<?xml version='1.0' encoding='UTF-8'?>
<gpx version="1.1" creator="https://www.komoot.de" xmlns="http://www.topografix.com/GPX/1/1" xmlns:xsi="http://www.w3.org/2001/XMLSchema-instance" xsi:schemaLocation="http://www.topografix.com/GPX/1/1 http://www.topografix.com/GPX/1/1/gpx.xsd">
  <metadata>
    <name>Zu den Flüssen Herfords-2026-10-53Km-Samstag</name>
    <author>
      <link href="https://www.komoot.de">
        <text>komoot</text>
        <type>text/html</type>
      </link>
    </author>
  </metadata>
  <trk>
    <name>Zu den Flüssen Herfords-2026-10-53Km-Samstag</name>
    <trkseg>
      <trkpt lat="52.024446" lon="8.907343">
        <ele>97.547996</ele>
        <time>2025-09-30T15:59:05.514Z</time>
      </trkpt>
      <trkpt lat="52.024459" lon="8.907294">
        <ele>97.547996</ele>
        <time>2025-09-30T15:59:06.329Z</time>
      </trkpt>
      <trkpt lat="52.024501" lon="8.907135">
        <ele>97.547996</ele>
        <time>2025-09-30T15:59:08.956Z</time>
      </trkpt>
      <trkpt lat="52.024630" lon="8.907230">
        <ele>97.547996</ele>
        <time>2025-09-30T15:59:12.460Z</time>
      </trkpt>
      <trkpt lat="52.024761" lon="8.907326">
        <ele>97.547996</ele>
        <time>2025-09-30T15:59:16.017Z</time>
      </trkpt>
      <trkpt lat="52.024891" lon="8.907415">
        <ele>97.547996</ele>
        <time>2025-09-30T15:59:19.529Z</time>
      </trkpt>
      <trkpt lat="52.025044" lon="8.907447">
        <ele>97.547996</ele>
        <time>2025-09-30T15:59:23.465Z</time>
      </trkpt>
      <trkpt lat="52.025134" lon="8.907465">
        <ele>97.547996</ele>
        <time>2025-09-30T15:59:25.795Z</time>
      </trkpt>
      <trkpt lat="52.025148" lon="8.907466">
        <ele>97.547996</ele>
        <time>2025-09-30T15:59:26.261Z</time>
      </trkpt>
      <trkpt lat="52.025203" lon="8.907453">
        <ele>97.547996</ele>
        <time>2025-09-30T15:59:28.113Z</time>
      </trkpt>
      <trkpt lat="52.025188" lon="8.907045">
        <ele>97.853304</ele>
        <time>2025-09-30T15:59:34.964Z</time>
      </trkpt>
      <trkpt lat="52.025302" lon="8.907075">
        <ele>98.005015</ele>
        <time>2025-09-30T15:59:38.791Z</time>
      </trkpt>
      <trkpt lat="52.025432" lon="8.907109">
        <ele>98.177991</ele>
        <time>2025-09-30T15:59:43.180Z</time>
      </trkpt>
      <trkpt lat="52.025662" lon="8.907155">
        <ele>98.482419</ele>
        <time>2025-09-30T15:59:50.856Z</time>
      </trkpt>
      <trkpt lat="52.026131" lon="8.907287">
        <ele>99.107709</ele>
        <time>2025-09-30T16:00:06.672Z</time>
      </trkpt>
      <trkpt lat="52.026216" lon="8.907306">
        <ele>99.220423</ele>
        <time>2025-09-30T16:00:09.536Z</time>
      </trkpt>
      <trkpt lat="52.026500" lon="8.907242">
        <ele>99.597080</ele>
        <time>2025-09-30T16:00:19.090Z</time>
      </trkpt>
      <trkpt lat="52.026827" lon="8.907323">
        <ele>99.989443</ele>
        <time>2025-09-30T16:00:30.072Z</time>
      </trkpt>
      <trkpt lat="52.027007" lon="8.907368">
        <ele>100.145140</ele>
        <time>2025-09-30T16:00:36.125Z</time>
      </trkpt>
      <trkpt lat="52.027239" lon="8.907425">
        <ele>100.345737</ele>
        <time>2025-09-30T16:00:43.893Z</time>
      </trkpt>
      <trkpt lat="52.027507" lon="8.907483">
        <ele>100.576880</ele>
        <time>2025-09-30T16:00:52.850Z</time>
      </trkpt>
      <trkpt lat="52.027564" lon="8.907495">
        <ele>100.626018</ele>
        <time>2025-09-30T16:00:54.744Z</time>
      </trkpt>
      <trkpt lat="52.027650" lon="8.907516">
        <ele>100.700367</ele>
        <time>2025-09-30T16:00:57.622Z</time>
      </trkpt>
      <trkpt lat="52.027743" lon="8.907323">
        <ele>100.829318</ele>
        <time>2025-09-30T16:01:02.620Z</time>
      </trkpt>
      <trkpt lat="52.027780" lon="8.907224">
        <ele>100.890248</ele>
        <time>2025-09-30T16:01:04.480Z</time>
      </trkpt>
      <trkpt lat="52.027834" lon="8.907258">
        <ele>100.939757</ele>
        <time>2025-09-30T16:01:05.986Z</time>
      </trkpt>
      <trkpt lat="52.027882" lon="8.907279">
        <ele>100.982254</ele>
        <time>2025-09-30T16:01:07.287Z</time>
      </trkpt>
      <trkpt lat="52.027933" lon="8.907311">
        <ele>101.028992</ele>
        <time>2025-09-30T16:01:08.695Z</time>
      </trkpt>
      <trkpt lat="52.028044" lon="8.907319">
        <ele>101.123982</ele>
        <time>2025-09-30T16:01:11.569Z</time>
      </trkpt>
      <trkpt lat="52.028209" lon="8.907286">
        <ele>101.266109</ele>
        <time>2025-09-30T16:01:15.866Z</time>
      </trkpt>
      <trkpt lat="52.028443" lon="8.907157">
        <ele>101.456373</ele>
        <time>2025-09-30T16:01:22.300Z</time>
      </trkpt>
      <trkpt lat="52.028924" lon="8.906683">
        <ele>101.586838</ele>
        <time>2025-09-30T16:01:36.907Z</time>
      </trkpt>
      <trkpt lat="52.029069" lon="8.906541">
        <ele>101.626102</ele>
        <time>2025-09-30T16:01:41.341Z</time>
      </trkpt>
      <trkpt lat="52.029168" lon="8.906557">
        <ele>101.649176</ele>
        <time>2025-09-30T16:01:43.926Z</time>
      </trkpt>
      <trkpt lat="52.029305" lon="8.906906">
        <ele>101.708252</ele>
        <time>2025-09-30T16:01:50.488Z</time>
      </trkpt>
      <trkpt lat="52.029366" lon="8.906996">
        <ele>101.727360</ele>
        <time>2025-09-30T16:01:52.580Z</time>
      </trkpt>
      <trkpt lat="52.029450" lon="8.907348">
        <ele>101.781236</ele>
        <time>2025-09-30T16:01:58.450Z</time>
      </trkpt>
      <trkpt lat="52.029486" lon="8.908718">
        <ele>101.839597</ele>
        <time>2025-09-30T16:02:19.381Z</time>
      </trkpt>
      <trkpt lat="52.029515" lon="8.909155">
        <ele>101.824855</ele>
        <time>2025-09-30T16:02:25.957Z</time>
      </trkpt>
      <trkpt lat="52.029599" lon="8.909792">
        <ele>101.803004</ele>
        <time>2025-09-30T16:02:35.841Z</time>
      </trkpt>
      <trkpt lat="52.029608" lon="8.909858">
        <ele>101.800737</ele>
        <time>2025-09-30T16:02:36.891Z</time>
      </trkpt>
      <trkpt lat="52.029599" lon="8.909792">
        <ele>101.798469</ele>
        <time>2025-09-30T16:02:37.936Z</time>
      </trkpt>
      <trkpt lat="52.029515" lon="8.909155">
        <ele>101.776619</ele>
        <time>2025-09-30T16:02:48.227Z</time>
      </trkpt>
      <trkpt lat="52.029486" lon="8.908718">
        <ele>101.774530</ele>
        <time>2025-09-30T16:02:55.244Z</time>
      </trkpt>
      <trkpt lat="52.029450" lon="8.907348">
        <ele>101.828868</ele>
        <time>2025-09-30T16:03:16.905Z</time>
      </trkpt>
      <trkpt lat="52.029366" lon="8.906996">
        <ele>101.843829</ele>
        <time>2025-09-30T16:03:22.774Z</time>
      </trkpt>
      <trkpt lat="52.029305" lon="8.906906">
        <ele>101.849135</ele>
        <time>2025-09-30T16:03:24.871Z</time>
      </trkpt>
      <trkpt lat="52.029168" lon="8.906557">
        <ele>101.865540</ele>
        <time>2025-09-30T16:03:31.250Z</time>
      </trkpt>
      <trkpt lat="52.029384" lon="8.906277">
        <ele>101.883335</ele>
        <time>2025-09-30T16:03:38.078Z</time>
      </trkpt>
      <trkpt lat="52.029351" lon="8.906151">
        <ele>101.867472</ele>
        <time>2025-09-30T16:03:40.154Z</time>
      </trkpt>
      <trkpt lat="52.029338" lon="8.905883">
        <ele>101.834838</ele>
        <time>2025-09-30T16:03:44.187Z</time>
      </trkpt>
      <trkpt lat="52.029354" lon="8.905418">
        <ele>101.778302</ele>
        <time>2025-09-30T16:03:51.120Z</time>
      </trkpt>
      <trkpt lat="52.029432" lon="8.904405">
        <ele>101.654374</ele>
        <time>2025-09-30T16:04:06.478Z</time>
      </trkpt>
      <trkpt lat="52.029492" lon="8.903834">
        <ele>101.584056</ele>
        <time>2025-09-30T16:04:15.310Z</time>
      </trkpt>
      <trkpt lat="52.029518" lon="8.903578">
        <ele>101.552559</ele>
        <time>2025-09-30T16:04:19.351Z</time>
      </trkpt>
      <trkpt lat="52.029681" lon="8.902592">
        <ele>101.551087</ele>
        <time>2025-09-30T16:04:35.556Z</time>
      </trkpt>
      <trkpt lat="52.029721" lon="8.902362">
        <ele>101.557597</ele>
        <time>2025-09-30T16:04:39.350Z</time>
      </trkpt>
      <trkpt lat="52.030007" lon="8.900931">
        <ele>101.598574</ele>
        <time>2025-09-30T16:05:02.791Z</time>
      </trkpt>
      <trkpt lat="52.030086" lon="8.900443">
        <ele>101.568814</ele>
        <time>2025-09-30T16:05:10.476Z</time>
      </trkpt>
      <trkpt lat="52.030250" lon="8.899045">
        <ele>101.191469</ele>
        <time>2025-09-30T16:05:31.450Z</time>
      </trkpt>
      <trkpt lat="52.030298" lon="8.897334">
        <ele>100.840849</ele>
        <time>2025-09-30T16:05:57.173Z</time>
      </trkpt>
      <trkpt lat="52.030300" lon="8.897246">
        <ele>100.842729</ele>
        <time>2025-09-30T16:05:58.489Z</time>
      </trkpt>
      <trkpt lat="52.030302" lon="8.896595">
        <ele>100.856624</ele>
        <time>2025-09-30T16:06:08.520Z</time>
      </trkpt>
      <trkpt lat="52.030249" lon="8.896319">
        <ele>100.862795</ele>
        <time>2025-09-30T16:06:13.025Z</time>
      </trkpt>
      <trkpt lat="52.030217" lon="8.896223">
        <ele>100.865126</ele>
        <time>2025-09-30T16:06:14.729Z</time>
      </trkpt>
      <trkpt lat="52.030151" lon="8.896031">
        <ele>100.869820</ele>
        <time>2025-09-30T16:06:18.163Z</time>
      </trkpt>
      <trkpt lat="52.029938" lon="8.895541">
        <ele>100.882626</ele>
        <time>2025-09-30T16:06:27.612Z</time>
      </trkpt>
      <trkpt lat="52.029766" lon="8.895070">
        <ele>100.894317</ele>
        <time>2025-09-30T16:06:36.259Z</time>
      </trkpt>
      <trkpt lat="52.029669" lon="8.894729">
        <ele>101.009438</ele>
        <time>2025-09-30T16:06:42.146Z</time>
      </trkpt>
      <trkpt lat="52.029891" lon="8.894449">
        <ele>101.172753</ele>
        <time>2025-09-30T16:06:49.624Z</time>
      </trkpt>
      <trkpt lat="52.029985" lon="8.894140">
        <ele>101.296014</ele>
        <time>2025-09-30T16:06:55.102Z</time>
      </trkpt>
      <trkpt lat="52.030110" lon="8.893732">
        <ele>101.458993</ele>
        <time>2025-09-30T16:07:02.450Z</time>
      </trkpt>
      <trkpt lat="52.030207" lon="8.893527">
        <ele>101.551468</ele>
        <time>2025-09-30T16:07:06.682Z</time>
      </trkpt>
      <trkpt lat="52.030183" lon="8.893227">
        <ele>101.659644</ele>
        <time>2025-09-30T16:07:11.627Z</time>
      </trkpt>
      <trkpt lat="52.030205" lon="8.892870">
        <ele>101.787938</ele>
        <time>2025-09-30T16:07:17.491Z</time>
      </trkpt>
      <trkpt lat="52.030225" lon="8.892339">
        <ele>101.947725</ele>
        <time>2025-09-30T16:07:26.189Z</time>
      </trkpt>
      <trkpt lat="52.030206" lon="8.891766">
        <ele>101.985319</ele>
        <time>2025-09-30T16:07:35.437Z</time>
      </trkpt>
      <trkpt lat="52.030205" lon="8.891734">
        <ele>101.987418</ele>
        <time>2025-09-30T16:07:35.955Z</time>
      </trkpt>
      <trkpt lat="52.030059" lon="8.890998">
        <ele>102.038081</ele>
        <time>2025-09-30T16:07:48.183Z</time>
      </trkpt>
      <trkpt lat="52.030019" lon="8.890825">
        <ele>102.050189</ele>
        <time>2025-09-30T16:07:51.034Z</time>
      </trkpt>
      <trkpt lat="52.029891" lon="8.890270">
        <ele>102.089021</ele>
        <time>2025-09-30T16:08:00.099Z</time>
      </trkpt>
      <trkpt lat="52.029842" lon="8.890063">
        <ele>102.103551</ele>
        <time>2025-09-30T16:08:03.433Z</time>
      </trkpt>
      <trkpt lat="52.029785" lon="8.889816">
        <ele>102.120835</ele>
        <time>2025-09-30T16:08:07.350Z</time>
      </trkpt>
      <trkpt lat="52.029818" lon="8.889553">
        <ele>102.107859</ele>
        <time>2025-09-30T16:08:11.347Z</time>
      </trkpt>
      <trkpt lat="52.029607" lon="8.889407">
        <ele>102.007791</ele>
        <time>2025-09-30T16:08:16.825Z</time>
      </trkpt>
      <trkpt lat="52.029359" lon="8.889126">
        <ele>101.875875</ele>
        <time>2025-09-30T16:08:24.097Z</time>
      </trkpt>
      <trkpt lat="52.029381" lon="8.888948">
        <ele>101.827133</ele>
        <time>2025-09-30T16:08:26.815Z</time>
      </trkpt>
      <trkpt lat="52.029386" lon="8.888633">
        <ele>101.742536</ele>
        <time>2025-09-30T16:08:31.557Z</time>
      </trkpt>
      <trkpt lat="52.029366" lon="8.888415">
        <ele>101.683363</ele>
        <time>2025-09-30T16:08:34.904Z</time>
      </trkpt>
      <trkpt lat="52.029288" lon="8.888022">
        <ele>101.572500</ele>
        <time>2025-09-30T16:08:41.111Z</time>
      </trkpt>
      <trkpt lat="52.029052" lon="8.886811">
        <ele>101.118200</ele>
        <time>2025-09-30T16:09:00.305Z</time>
      </trkpt>
      <trkpt lat="52.028900" lon="8.885897">
        <ele>100.616073</ele>
        <time>2025-09-30T16:09:13.974Z</time>
      </trkpt>
      <trkpt lat="52.028840" lon="8.885360">
        <ele>100.326621</ele>
        <time>2025-09-30T16:09:21.646Z</time>
      </trkpt>
      <trkpt lat="52.028730" lon="8.884044">
        <ele>99.613727</ele>
        <time>2025-09-30T16:09:40.475Z</time>
      </trkpt>
      <trkpt lat="52.028678" lon="8.883422">
        <ele>99.264548</ele>
        <time>2025-09-30T16:09:49.463Z</time>
      </trkpt>
      <trkpt lat="52.028666" lon="8.883259">
        <ele>99.173229</ele>
        <time>2025-09-30T16:09:51.910Z</time>
      </trkpt>
      <trkpt lat="52.028647" lon="8.882928">
        <ele>98.988304</ele>
        <time>2025-09-30T16:09:56.662Z</time>
      </trkpt>
      <trkpt lat="52.028641" lon="8.882830">
        <ele>98.933520</ele>
        <time>2025-09-30T16:09:58.080Z</time>
      </trkpt>
      <trkpt lat="52.028490" lon="8.882729">
        <ele>98.785891</ele>
        <time>2025-09-30T16:10:01.908Z</time>
      </trkpt>
      <trkpt lat="52.028408" lon="8.882632">
        <ele>98.694196</ele>
        <time>2025-09-30T16:10:04.293Z</time>
      </trkpt>
      <trkpt lat="52.028278" lon="8.882408">
        <ele>98.522905</ele>
        <time>2025-09-30T16:10:08.792Z</time>
      </trkpt>
      <trkpt lat="52.028159" lon="8.882181">
        <ele>98.357011</ele>
        <time>2025-09-30T16:10:13.149Z</time>
      </trkpt>
      <trkpt lat="52.027903" lon="8.881696">
        <ele>98.026193</ele>
        <time>2025-09-30T16:10:22.514Z</time>
      </trkpt>
      <trkpt lat="52.027854" lon="8.881604">
        <ele>97.968350</ele>
        <time>2025-09-30T16:10:24.266Z</time>
      </trkpt>
      <trkpt lat="52.027378" lon="8.879972">
        <ele>97.109806</ele>
        <time>2025-09-30T16:10:50.727Z</time>
      </trkpt>
      <trkpt lat="52.027232" lon="8.879252">
        <ele>96.731222</ele>
        <time>2025-09-30T16:11:01.733Z</time>
      </trkpt>
      <trkpt lat="52.027243" lon="8.879005">
        <ele>96.546415</ele>
        <time>2025-09-30T16:11:05.304Z</time>
      </trkpt>
      <trkpt lat="52.027057" lon="8.878844">
        <ele>96.290823</ele>
        <time>2025-09-30T16:11:10.231Z</time>
      </trkpt>
      <trkpt lat="52.026969" lon="8.878706">
        <ele>96.142509</ele>
        <time>2025-09-30T16:11:13.048Z</time>
      </trkpt>
      <trkpt lat="52.026874" lon="8.878462">
        <ele>95.927029</ele>
        <time>2025-09-30T16:11:17.154Z</time>
      </trkpt>
      <trkpt lat="52.026821" lon="8.878179">
        <ele>95.706271</ele>
        <time>2025-09-30T16:11:21.286Z</time>
      </trkpt>
      <trkpt lat="52.026790" lon="8.877512">
        <ele>95.207096</ele>
        <time>2025-09-30T16:11:30.429Z</time>
      </trkpt>
      <trkpt lat="52.026733" lon="8.877046">
        <ele>94.852533</ele>
        <time>2025-09-30T16:11:36.797Z</time>
      </trkpt>
      <trkpt lat="52.026627" lon="8.876513">
        <ele>94.496179</ele>
        <time>2025-09-30T16:11:44.370Z</time>
      </trkpt>
      <trkpt lat="52.026539" lon="8.876079">
        <ele>94.282315</ele>
        <time>2025-09-30T16:11:50.654Z</time>
      </trkpt>
      <trkpt lat="52.026520" lon="8.875982">
        <ele>94.234673</ele>
        <time>2025-09-30T16:11:52.071Z</time>
      </trkpt>
      <trkpt lat="52.026444" lon="8.875478">
        <ele>93.991813</ele>
        <time>2025-09-30T16:11:59.489Z</time>
      </trkpt>
      <trkpt lat="52.026370" lon="8.874910">
        <ele>93.720085</ele>
        <time>2025-09-30T16:12:08.077Z</time>
      </trkpt>
      <trkpt lat="52.026355" lon="8.874746">
        <ele>93.642487</ele>
        <time>2025-09-30T16:12:10.590Z</time>
      </trkpt>
      <trkpt lat="52.026337" lon="8.874564">
        <ele>93.556215</ele>
        <time>2025-09-30T16:12:13.396Z</time>
      </trkpt>
      <trkpt lat="52.026292" lon="8.873848">
        <ele>93.228276</ele>
        <time>2025-09-30T16:12:24.393Z</time>
      </trkpt>
      <trkpt lat="52.026298" lon="8.872981">
        <ele>93.113446</ele>
        <time>2025-09-30T16:12:37.580Z</time>
      </trkpt>
      <trkpt lat="52.026302" lon="8.872708">
        <ele>93.077280</ele>
        <time>2025-09-30T16:12:41.830Z</time>
      </trkpt>
      <trkpt lat="52.026306" lon="8.872399">
        <ele>93.036349</ele>
        <time>2025-09-30T16:12:46.567Z</time>
      </trkpt>
      <trkpt lat="52.026305" lon="8.871672">
        <ele>92.940067</ele>
        <time>2025-09-30T16:12:57.583Z</time>
      </trkpt>
      <trkpt lat="52.026314" lon="8.871341">
        <ele>92.896188</ele>
        <time>2025-09-30T16:13:02.565Z</time>
      </trkpt>
      <trkpt lat="52.026327" lon="8.870969">
        <ele>92.846842</ele>
        <time>2025-09-30T16:13:08.166Z</time>
      </trkpt>
      <trkpt lat="52.026331" lon="8.870844">
        <ele>92.856580</ele>
        <time>2025-09-30T16:13:10.057Z</time>
      </trkpt>
      <trkpt lat="52.026339" lon="8.870633">
        <ele>92.879794</ele>
        <time>2025-09-30T16:13:13.240Z</time>
      </trkpt>
      <trkpt lat="52.026345" lon="8.870484">
        <ele>92.896191</ele>
        <time>2025-09-30T16:13:15.497Z</time>
      </trkpt>
      <trkpt lat="52.026390" lon="8.869591">
        <ele>92.994579</ele>
        <time>2025-09-30T16:13:29.409Z</time>
      </trkpt>
      <trkpt lat="52.026414" lon="8.869093">
        <ele>93.049432</ele>
        <time>2025-09-30T16:13:37.260Z</time>
      </trkpt>
      <trkpt lat="52.026435" lon="8.868677">
        <ele>93.095266</ele>
        <time>2025-09-30T16:13:43.900Z</time>
      </trkpt>
      <trkpt lat="52.026444" lon="8.868506">
        <ele>93.114112</ele>
        <time>2025-09-30T16:13:46.668Z</time>
      </trkpt>
      <trkpt lat="52.026474" lon="8.867902">
        <ele>93.191915</ele>
        <time>2025-09-30T16:13:56.525Z</time>
      </trkpt>
      <trkpt lat="52.026499" lon="8.867399">
        <ele>93.288921</ele>
        <time>2025-09-30T16:14:04.674Z</time>
      </trkpt>
      <trkpt lat="52.026501" lon="8.867356">
        <ele>93.297210</ele>
        <time>2025-09-30T16:14:05.353Z</time>
      </trkpt>
      <trkpt lat="52.026530" lon="8.866926">
        <ele>93.380363</ele>
        <time>2025-09-30T16:14:12.277Z</time>
      </trkpt>
      <trkpt lat="52.026582" lon="8.866146">
        <ele>93.531178</ele>
        <time>2025-09-30T16:14:24.781Z</time>
      </trkpt>
      <trkpt lat="52.026592" lon="8.865806">
        <ele>93.596610</ele>
        <time>2025-09-30T16:14:30.142Z</time>
      </trkpt>
      <trkpt lat="52.026601" lon="8.865171">
        <ele>93.718707</ele>
        <time>2025-09-30T16:14:40.052Z</time>
      </trkpt>
      <trkpt lat="52.026519" lon="8.864529">
        <ele>93.622540</ele>
        <time>2025-09-30T16:14:49.959Z</time>
      </trkpt>
      <trkpt lat="52.026410" lon="8.863734">
        <ele>93.482200</ele>
        <time>2025-09-30T16:15:01.990Z</time>
      </trkpt>
      <trkpt lat="52.026306" lon="8.862981">
        <ele>93.349228</ele>
        <time>2025-09-30T16:15:13.615Z</time>
      </trkpt>
      <trkpt lat="52.026258" lon="8.862304">
        <ele>93.231808</ele>
        <time>2025-09-30T16:15:24.024Z</time>
      </trkpt>
      <trkpt lat="52.026291" lon="8.859989">
        <ele>93.053120</ele>
        <time>2025-09-30T16:16:00.034Z</time>
      </trkpt>
      <trkpt lat="52.026263" lon="8.859241">
        <ele>92.975667</ele>
        <time>2025-09-30T16:16:11.342Z</time>
      </trkpt>
      <trkpt lat="52.026170" lon="8.857847">
        <ele>92.562106</ele>
        <time>2025-09-30T16:16:31.985Z</time>
      </trkpt>
      <trkpt lat="52.026086" lon="8.857528">
        <ele>92.459765</ele>
        <time>2025-09-30T16:16:37.071Z</time>
      </trkpt>
      <trkpt lat="52.026123" lon="8.857417">
        <ele>92.422531</ele>
        <time>2025-09-30T16:16:38.949Z</time>
      </trkpt>
      <trkpt lat="52.026108" lon="8.857217">
        <ele>92.363105</ele>
        <time>2025-09-30T16:16:41.929Z</time>
      </trkpt>
      <trkpt lat="52.025776" lon="8.853553">
        <ele>91.353573</ele>
        <time>2025-09-30T16:17:37.828Z</time>
      </trkpt>
      <trkpt lat="52.025486" lon="8.851092">
        <ele>89.783296</ele>
        <time>2025-09-30T16:18:13.775Z</time>
      </trkpt>
      <trkpt lat="52.025278" lon="8.850057">
        <ele>89.126290</ele>
        <time>2025-09-30T16:18:28.246Z</time>
      </trkpt>
      <trkpt lat="52.025194" lon="8.849753">
        <ele>88.929485</ele>
        <time>2025-09-30T16:18:32.755Z</time>
      </trkpt>
      <trkpt lat="52.024965" lon="8.849130">
        <ele>88.500909</ele>
        <time>2025-09-30T16:18:42.810Z</time>
      </trkpt>
      <trkpt lat="52.024926" lon="8.848910">
        <ele>88.365698</ele>
        <time>2025-09-30T16:18:46.085Z</time>
      </trkpt>
      <trkpt lat="52.024941" lon="8.847520">
        <ele>87.979972</ele>
        <time>2025-09-30T16:19:07.030Z</time>
      </trkpt>
      <trkpt lat="52.024956" lon="8.846124">
        <ele>88.487402</ele>
        <time>2025-09-30T16:19:29.589Z</time>
      </trkpt>
      <trkpt lat="52.024965" lon="8.845906">
        <ele>88.566808</ele>
        <time>2025-09-30T16:19:33.141Z</time>
      </trkpt>
      <trkpt lat="52.024980" lon="8.845804">
        <ele>88.604922</ele>
        <time>2025-09-30T16:19:34.860Z</time>
      </trkpt>
      <trkpt lat="52.025172" lon="8.844526">
        <ele>89.241095</ele>
        <time>2025-09-30T16:19:56.537Z</time>
      </trkpt>
      <trkpt lat="52.025181" lon="8.844191">
        <ele>89.456226</ele>
        <time>2025-09-30T16:20:02.117Z</time>
      </trkpt>
      <trkpt lat="52.025147" lon="8.843702">
        <ele>89.771950</ele>
        <time>2025-09-30T16:20:10.347Z</time>
      </trkpt>
      <trkpt lat="52.025052" lon="8.842919">
        <ele>90.283973</ele>
        <time>2025-09-30T16:20:23.520Z</time>
      </trkpt>
      <trkpt lat="52.025566" lon="8.842747">
        <ele>90.717547</ele>
        <time>2025-09-30T16:20:37.804Z</time>
      </trkpt>
      <trkpt lat="52.025052" lon="8.842919">
        <ele>90.480483</ele>
        <time>2025-09-30T16:20:51.608Z</time>
      </trkpt>
      <trkpt lat="52.024865" lon="8.841586">
        <ele>90.100451</ele>
        <time>2025-09-30T16:21:11.316Z</time>
      </trkpt>
      <trkpt lat="52.024735" lon="8.840683">
        <ele>89.916586</ele>
        <time>2025-09-30T16:21:24.611Z</time>
      </trkpt>
      <trkpt lat="52.024658" lon="8.839927">
        <ele>89.866397</ele>
        <time>2025-09-30T16:21:35.646Z</time>
      </trkpt>
      <trkpt lat="52.024627" lon="8.839108">
        <ele>89.812653</ele>
        <time>2025-09-30T16:21:48.024Z</time>
      </trkpt>
      <trkpt lat="52.024604" lon="8.838496">
        <ele>89.772495</ele>
        <time>2025-09-30T16:21:57.869Z</time>
      </trkpt>
      <trkpt lat="52.024579" lon="8.838291">
        <ele>89.758806</ele>
        <time>2025-09-30T16:22:01.295Z</time>
      </trkpt>
      <trkpt lat="52.025624" lon="8.838233">
        <ele>91.267608</ele>
        <time>2025-09-30T16:22:29.493Z</time>
      </trkpt>
      <trkpt lat="52.025720" lon="8.838258">
        <ele>91.424237</ele>
        <time>2025-09-30T16:22:32.194Z</time>
      </trkpt>
      <trkpt lat="52.025759" lon="8.837955">
        <ele>91.731091</ele>
        <time>2025-09-30T16:22:37.482Z</time>
      </trkpt>
      <trkpt lat="52.025717" lon="8.837558">
        <ele>92.130398</ele>
        <time>2025-09-30T16:22:44.347Z</time>
      </trkpt>
      <trkpt lat="52.025723" lon="8.837420">
        <ele>92.267533</ele>
        <time>2025-09-30T16:22:46.688Z</time>
      </trkpt>
      <trkpt lat="52.025750" lon="8.837420">
        <ele>92.311031</ele>
        <time>2025-09-30T16:22:47.439Z</time>
      </trkpt>
      <trkpt lat="52.026561" lon="8.837322">
        <ele>93.534961</ele>
        <time>2025-09-30T16:23:09.727Z</time>
      </trkpt>
      <trkpt lat="52.026998" lon="8.837299">
        <ele>94.177103</ele>
        <time>2025-09-30T16:23:21.828Z</time>
      </trkpt>
      <trkpt lat="52.027193" lon="8.837323">
        <ele>94.464313</ele>
        <time>2025-09-30T16:23:27.132Z</time>
      </trkpt>
      <trkpt lat="52.027840" lon="8.837368">
        <ele>95.304440</ele>
        <time>2025-09-30T16:23:44.117Z</time>
      </trkpt>
      <trkpt lat="52.027193" lon="8.837323">
        <ele>95.432680</ele>
        <time>2025-09-30T16:24:00.563Z</time>
      </trkpt>
      <trkpt lat="52.026998" lon="8.837299">
        <ele>95.471406</ele>
        <time>2025-09-30T16:24:05.373Z</time>
      </trkpt>
      <trkpt lat="52.026978" lon="8.836263">
        <ele>95.597698</ele>
        <time>2025-09-30T16:24:21.775Z</time>
      </trkpt>
      <trkpt lat="52.026997" lon="8.836143">
        <ele>95.612796</ele>
        <time>2025-09-30T16:24:23.818Z</time>
      </trkpt>
      <trkpt lat="52.026971" lon="8.836017">
        <ele>95.628988</ele>
        <time>2025-09-30T16:24:25.986Z</time>
      </trkpt>
      <trkpt lat="52.026946" lon="8.835262">
        <ele>95.991110</ele>
        <time>2025-09-30T16:24:38.759Z</time>
      </trkpt>
      <trkpt lat="52.026943" lon="8.835112">
        <ele>96.072866</ele>
        <time>2025-09-30T16:24:41.321Z</time>
      </trkpt>
      <trkpt lat="52.026917" lon="8.834162">
        <ele>96.590891</ele>
        <time>2025-09-30T16:24:57.607Z</time>
      </trkpt>
      <trkpt lat="52.027185" lon="8.834147">
        <ele>96.828306</ele>
        <time>2025-09-30T16:25:04.863Z</time>
      </trkpt>
      <trkpt lat="52.027141" lon="8.832631">
        <ele>97.032344</ele>
        <time>2025-09-30T16:25:30.096Z</time>
      </trkpt>
      <trkpt lat="52.027125" lon="8.832098">
        <ele>96.891318</ele>
        <time>2025-09-30T16:25:37.880Z</time>
      </trkpt>
      <trkpt lat="52.027116" lon="8.831780">
        <ele>96.807190</ele>
        <time>2025-09-30T16:25:42.367Z</time>
      </trkpt>
      <trkpt lat="52.026795" lon="8.831736">
        <ele>96.668827</ele>
        <time>2025-09-30T16:25:49.714Z</time>
      </trkpt>
      <trkpt lat="52.026386" lon="8.831710">
        <ele>96.493021</ele>
        <time>2025-09-30T16:25:59.456Z</time>
      </trkpt>
      <trkpt lat="52.026337" lon="8.831708">
        <ele>96.471968</ele>
        <time>2025-09-30T16:26:00.680Z</time>
      </trkpt>
      <trkpt lat="52.026159" lon="8.831689">
        <ele>96.622186</ele>
        <time>2025-09-30T16:26:05.097Z</time>
      </trkpt>
      <trkpt lat="52.026337" lon="8.831708">
        <ele>96.801647</ele>
        <time>2025-09-30T16:26:09.631Z</time>
      </trkpt>
      <trkpt lat="52.026386" lon="8.831710">
        <ele>96.850959</ele>
        <time>2025-09-30T16:26:10.856Z</time>
      </trkpt>
      <trkpt lat="52.026795" lon="8.831736">
        <ele>97.262744</ele>
        <time>2025-09-30T16:26:21.547Z</time>
      </trkpt>
      <trkpt lat="52.027116" lon="8.831780">
        <ele>97.586830</ele>
        <time>2025-09-30T16:26:30.285Z</time>
      </trkpt>
      <trkpt lat="52.027524" lon="8.831842">
        <ele>97.999085</ele>
        <time>2025-09-30T16:26:41.649Z</time>
      </trkpt>
      <trkpt lat="52.028006" lon="8.832022">
        <ele>98.523612</ele>
        <time>2025-09-30T16:26:55.180Z</time>
      </trkpt>
      <trkpt lat="52.028778" lon="8.832399">
        <ele>99.432294</ele>
        <time>2025-09-30T16:27:16.812Z</time>
      </trkpt>
      <trkpt lat="52.029055" lon="8.832463">
        <ele>99.747686</ele>
        <time>2025-09-30T16:27:24.266Z</time>
      </trkpt>
      <trkpt lat="52.029335" lon="8.832517">
        <ele>100.065534</ele>
        <time>2025-09-30T16:27:31.712Z</time>
      </trkpt>
      <trkpt lat="52.029631" lon="8.832532">
        <ele>100.335622</ele>
        <time>2025-09-30T16:27:39.482Z</time>
      </trkpt>
      <trkpt lat="52.029713" lon="8.832527">
        <ele>100.368618</ele>
        <time>2025-09-30T16:27:41.620Z</time>
      </trkpt>
      <trkpt lat="52.031941" lon="8.833071">
        <ele>101.443936</ele>
        <time>2025-09-30T16:28:39.743Z</time>
      </trkpt>
      <trkpt lat="52.032018" lon="8.833046">
        <ele>101.496812</ele>
        <time>2025-09-30T16:28:41.804Z</time>
      </trkpt>
      <trkpt lat="52.032106" lon="8.833092">
        <ele>101.559059</ele>
        <time>2025-09-30T16:28:44.244Z</time>
      </trkpt>
      <trkpt lat="52.032688" lon="8.833203">
        <ele>101.953663</ele>
        <time>2025-09-30T16:28:59.774Z</time>
      </trkpt>
      <trkpt lat="52.032764" lon="8.833220">
        <ele>102.005323</ele>
        <time>2025-09-30T16:29:01.818Z</time>
      </trkpt>
      <trkpt lat="52.033050" lon="8.833276">
        <ele>102.199306</ele>
        <time>2025-09-30T16:29:09.546Z</time>
      </trkpt>
      <trkpt lat="52.034154" lon="8.833489">
        <ele>102.485459</ele>
        <time>2025-09-30T16:29:38.562Z</time>
      </trkpt>
      <trkpt lat="52.034237" lon="8.832255">
        <ele>102.646292</ele>
        <time>2025-09-30T16:29:57.525Z</time>
      </trkpt>
      <trkpt lat="52.034279" lon="8.831635">
        <ele>102.420565</ele>
        <time>2025-09-30T16:30:06.698Z</time>
      </trkpt>
      <trkpt lat="52.034305" lon="8.831247">
        <ele>102.279322</ele>
        <time>2025-09-30T16:30:12.376Z</time>
      </trkpt>
      <trkpt lat="52.034469" lon="8.828817">
        <ele>101.382895</ele>
        <time>2025-09-30T16:30:48.372Z</time>
      </trkpt>
      <trkpt lat="52.034531" lon="8.827902">
        <ele>101.030905</ele>
        <time>2025-09-30T16:31:01.905Z</time>
      </trkpt>
      <trkpt lat="52.034566" lon="8.827330">
        <ele>100.811107</ele>
        <time>2025-09-30T16:31:10.349Z</time>
      </trkpt>
      <trkpt lat="52.034585" lon="8.827022">
        <ele>100.692744</ele>
        <time>2025-09-30T16:31:14.947Z</time>
      </trkpt>
      <trkpt lat="52.034617" lon="8.826497">
        <ele>100.491014</ele>
        <time>2025-09-30T16:31:22.816Z</time>
      </trkpt>
      <trkpt lat="52.034634" lon="8.826221">
        <ele>100.396023</ele>
        <time>2025-09-30T16:31:26.945Z</time>
      </trkpt>
      <trkpt lat="52.034659" lon="8.825808">
        <ele>100.254989</ele>
        <time>2025-09-30T16:31:33.108Z</time>
      </trkpt>
      <trkpt lat="52.034685" lon="8.825380">
        <ele>100.108829</ele>
        <time>2025-09-30T16:31:39.378Z</time>
      </trkpt>
      <trkpt lat="52.034709" lon="8.824991">
        <ele>99.975966</ele>
        <time>2025-09-30T16:31:45.069Z</time>
      </trkpt>
      <trkpt lat="52.034726" lon="8.824718">
        <ele>99.882715</ele>
        <time>2025-09-30T16:31:49.083Z</time>
      </trkpt>
      <trkpt lat="52.034740" lon="8.824502">
        <ele>99.808902</ele>
        <time>2025-09-30T16:31:52.287Z</time>
      </trkpt>
      <trkpt lat="52.034787" lon="8.823815">
        <ele>99.573991</ele>
        <time>2025-09-30T16:32:02.644Z</time>
      </trkpt>
      <trkpt lat="52.034824" lon="8.823254">
        <ele>99.551596</ele>
        <time>2025-09-30T16:32:11.161Z</time>
      </trkpt>
      <trkpt lat="52.035034" lon="8.823327">
        <ele>99.617908</ele>
        <time>2025-09-30T16:32:16.477Z</time>
      </trkpt>
      <trkpt lat="52.035228" lon="8.823395">
        <ele>99.679190</ele>
        <time>2025-09-30T16:32:21.434Z</time>
      </trkpt>
      <trkpt lat="52.035435" lon="8.823467">
        <ele>99.744556</ele>
        <time>2025-09-30T16:32:26.813Z</time>
      </trkpt>
      <trkpt lat="52.036246" lon="8.823774">
        <ele>100.001683</ele>
        <time>2025-09-30T16:32:48.632Z</time>
      </trkpt>
      <trkpt lat="52.036499" lon="8.823869">
        <ele>100.114501</ele>
        <time>2025-09-30T16:32:55.545Z</time>
      </trkpt>
      <trkpt lat="52.036767" lon="8.823971">
        <ele>100.277439</ele>
        <time>2025-09-30T16:33:02.892Z</time>
      </trkpt>
      <trkpt lat="52.037592" lon="8.824283">
        <ele>100.778855</ele>
        <time>2025-09-30T16:33:25.220Z</time>
      </trkpt>
      <trkpt lat="52.037893" lon="8.824307">
        <ele>100.957252</ele>
        <time>2025-09-30T16:33:33.085Z</time>
      </trkpt>
      <trkpt lat="52.038050" lon="8.824270">
        <ele>101.051163</ele>
        <time>2025-09-30T16:33:37.157Z</time>
      </trkpt>
      <trkpt lat="52.038251" lon="8.824151">
        <ele>101.060049</ele>
        <time>2025-09-30T16:33:42.567Z</time>
      </trkpt>
      <trkpt lat="52.038407" lon="8.823981">
        <ele>100.975193</ele>
        <time>2025-09-30T16:33:47.262Z</time>
      </trkpt>
      <trkpt lat="52.038559" lon="8.823757">
        <ele>100.882496</ele>
        <time>2025-09-30T16:33:52.280Z</time>
      </trkpt>
      <trkpt lat="52.038702" lon="8.823419">
        <ele>100.768479</ele>
        <time>2025-09-30T16:33:58.327Z</time>
      </trkpt>
      <trkpt lat="52.038779" lon="8.822973">
        <ele>100.639731</ele>
        <time>2025-09-30T16:34:05.089Z</time>
      </trkpt>
      <trkpt lat="52.038791" lon="8.822707">
        <ele>100.565602</ele>
        <time>2025-09-30T16:34:09.008Z</time>
      </trkpt>
      <trkpt lat="52.038795" lon="8.822630">
        <ele>100.544125</ele>
        <time>2025-09-30T16:34:10.153Z</time>
      </trkpt>
      <trkpt lat="52.038770" lon="8.822317">
        <ele>100.456402</ele>
        <time>2025-09-30T16:34:14.796Z</time>
      </trkpt>
      <trkpt lat="52.038635" lon="8.821846">
        <ele>100.311981</ele>
        <time>2025-09-30T16:34:22.401Z</time>
      </trkpt>
      <trkpt lat="52.038437" lon="8.821490">
        <ele>100.141811</ele>
        <time>2025-09-30T16:34:29.452Z</time>
      </trkpt>
      <trkpt lat="52.038497" lon="8.821378">
        <ele>100.087854</ele>
        <time>2025-09-30T16:34:31.645Z</time>
      </trkpt>
      <trkpt lat="52.038540" lon="8.821349">
        <ele>100.060359</ele>
        <time>2025-09-30T16:34:32.782Z</time>
      </trkpt>
      <trkpt lat="52.038806" lon="8.821440">
        <ele>99.899819</ele>
        <time>2025-09-30T16:34:39.319Z</time>
      </trkpt>
      <trkpt lat="52.040221" lon="8.821980">
        <ele>98.818485</ele>
        <time>2025-09-30T16:35:14.508Z</time>
      </trkpt>
      <trkpt lat="52.040278" lon="8.821965">
        <ele>98.745328</ele>
        <time>2025-09-30T16:35:15.865Z</time>
      </trkpt>
      <trkpt lat="52.040358" lon="8.821850">
        <ele>98.610032</ele>
        <time>2025-09-30T16:35:18.344Z</time>
      </trkpt>
      <trkpt lat="52.040872" lon="8.820120">
        <ele>97.112789</ele>
        <time>2025-09-30T16:35:44.466Z</time>
      </trkpt>
      <trkpt lat="52.041507" lon="8.817987">
        <ele>94.981701</ele>
        <time>2025-09-30T16:36:15.940Z</time>
      </trkpt>
      <trkpt lat="52.042243" lon="8.815364">
        <ele>93.209102</ele>
        <time>2025-09-30T16:36:57.268Z</time>
      </trkpt>
      <trkpt lat="52.042509" lon="8.814344">
        <ele>92.733632</ele>
        <time>2025-09-30T16:37:13.753Z</time>
      </trkpt>
      <trkpt lat="52.042697" lon="8.813768">
        <ele>92.588140</ele>
        <time>2025-09-30T16:37:23.499Z</time>
      </trkpt>
      <trkpt lat="52.042702" lon="8.813380">
        <ele>92.501550</ele>
        <time>2025-09-30T16:37:29.341Z</time>
      </trkpt>
      <trkpt lat="52.042728" lon="8.813174">
        <ele>92.454629</ele>
        <time>2025-09-30T16:37:32.487Z</time>
      </trkpt>
      <trkpt lat="52.042813" lon="8.812980">
        <ele>92.401484</ele>
        <time>2025-09-30T16:37:36.068Z</time>
      </trkpt>
      <trkpt lat="52.042930" lon="8.812799">
        <ele>92.342898</ele>
        <time>2025-09-30T16:37:40.001Z</time>
      </trkpt>
      <trkpt lat="52.042994" lon="8.812611">
        <ele>92.294955</ele>
        <time>2025-09-30T16:37:43.221Z</time>
      </trkpt>
      <trkpt lat="52.043775" lon="8.809745">
        <ele>92.042128</ele>
        <time>2025-09-30T16:38:31.137Z</time>
      </trkpt>
      <trkpt lat="52.044167" lon="8.808118">
        <ele>92.196041</ele>
        <time>2025-09-30T16:38:58.813Z</time>
      </trkpt>
      <trkpt lat="52.044428" lon="8.806320">
        <ele>92.241209</ele>
        <time>2025-09-30T16:39:28.175Z</time>
      </trkpt>
      <trkpt lat="52.044522" lon="8.806362">
        <ele>92.128484</ele>
        <time>2025-09-30T16:39:30.604Z</time>
      </trkpt>
      <trkpt lat="52.044869" lon="8.806549">
        <ele>91.705768</ele>
        <time>2025-09-30T16:39:39.403Z</time>
      </trkpt>
      <trkpt lat="52.045362" lon="8.806795">
        <ele>91.109452</ele>
        <time>2025-09-30T16:39:51.030Z</time>
      </trkpt>
      <trkpt lat="52.046062" lon="8.807300">
        <ele>90.223357</ele>
        <time>2025-09-30T16:40:19.727Z</time>
      </trkpt>
      <trkpt lat="52.046817" lon="8.807844">
        <ele>89.263347</ele>
        <time>2025-09-30T16:40:51.256Z</time>
      </trkpt>
      <trkpt lat="52.046945" lon="8.807861">
        <ele>89.114051</ele>
        <time>2025-09-30T16:40:56.399Z</time>
      </trkpt>
      <trkpt lat="52.047248" lon="8.807559">
        <ele>88.700901</ele>
        <time>2025-09-30T16:41:11.031Z</time>
      </trkpt>
      <trkpt lat="52.048120" lon="8.806689">
        <ele>88.688635</ele>
        <time>2025-09-30T16:41:53.238Z</time>
      </trkpt>
      <trkpt lat="52.049206" lon="8.806978">
        <ele>89.482988</ele>
        <time>2025-09-30T16:42:37.552Z</time>
      </trkpt>
      <trkpt lat="52.049315" lon="8.806988">
        <ele>89.572169</ele>
        <time>2025-09-30T16:42:41.886Z</time>
      </trkpt>
      <trkpt lat="52.049522" lon="8.806851">
        <ele>89.798576</ele>
        <time>2025-09-30T16:42:50.782Z</time>
      </trkpt>
      <trkpt lat="52.049538" lon="8.806626">
        <ele>89.939686</ele>
        <time>2025-09-30T16:42:55.400Z</time>
      </trkpt>
      <trkpt lat="52.049584" lon="8.806435">
        <ele>90.067480</ele>
        <time>2025-09-30T16:42:59.587Z</time>
      </trkpt>
      <trkpt lat="52.049837" lon="8.806385">
        <ele>90.325669</ele>
        <time>2025-09-30T16:43:08.047Z</time>
      </trkpt>
      <trkpt lat="52.050010" lon="8.806258">
        <ele>90.517959</ele>
        <time>2025-09-30T16:43:14.322Z</time>
      </trkpt>
      <trkpt lat="52.050119" lon="8.805895">
        <ele>90.769627</ele>
        <time>2025-09-30T16:43:22.571Z</time>
      </trkpt>
      <trkpt lat="52.050287" lon="8.805393">
        <ele>91.125682</ele>
        <time>2025-09-30T16:43:34.197Z</time>
      </trkpt>
      <trkpt lat="52.050383" lon="8.805312">
        <ele>91.235248</ele>
        <time>2025-09-30T16:43:37.782Z</time>
      </trkpt>
      <trkpt lat="52.050415" lon="8.805467">
        <ele>91.337108</ele>
        <time>2025-09-30T16:43:40.375Z</time>
      </trkpt>
      <trkpt lat="52.050611" lon="8.805405">
        <ele>91.506577</ele>
        <time>2025-09-30T16:43:45.620Z</time>
      </trkpt>
      <trkpt lat="52.051115" lon="8.805426">
        <ele>91.924833</ele>
        <time>2025-09-30T16:43:58.606Z</time>
      </trkpt>
      <trkpt lat="52.051162" lon="8.805459">
        <ele>91.967304</ele>
        <time>2025-09-30T16:43:59.966Z</time>
      </trkpt>
      <trkpt lat="52.051402" lon="8.805474">
        <ele>92.166555</ele>
        <time>2025-09-30T16:44:06.369Z</time>
      </trkpt>
      <trkpt lat="52.051461" lon="8.805448">
        <ele>92.217267</ele>
        <time>2025-09-30T16:44:08.039Z</time>
      </trkpt>
      <trkpt lat="52.051556" lon="8.805460">
        <ele>92.296316</ele>
        <time>2025-09-30T16:44:10.622Z</time>
      </trkpt>
      <trkpt lat="52.052116" lon="8.805534">
        <ele>92.762424</ele>
        <time>2025-09-30T16:44:26.244Z</time>
      </trkpt>
      <trkpt lat="52.052810" lon="8.805624">
        <ele>93.987478</ele>
        <time>2025-09-30T16:44:46.231Z</time>
      </trkpt>
      <trkpt lat="52.053199" lon="8.805685">
        <ele>94.740416</ele>
        <time>2025-09-30T16:44:57.550Z</time>
      </trkpt>
      <trkpt lat="52.053426" lon="8.804095">
        <ele>96.309527</ele>
        <time>2025-09-30T16:45:25.012Z</time>
      </trkpt>
      <trkpt lat="52.053447" lon="8.803956">
        <ele>96.306613</ele>
        <time>2025-09-30T16:45:27.295Z</time>
      </trkpt>
      <trkpt lat="52.053490" lon="8.803665">
        <ele>96.300521</ele>
        <time>2025-09-30T16:45:31.962Z</time>
      </trkpt>
      <trkpt lat="52.053616" lon="8.802886">
        <ele>96.284123</ele>
        <time>2025-09-30T16:45:43.948Z</time>
      </trkpt>
      <trkpt lat="52.053678" lon="8.802459">
        <ele>96.275192</ele>
        <time>2025-09-30T16:45:50.372Z</time>
      </trkpt>
      <trkpt lat="52.053810" lon="8.801561">
        <ele>96.256396</ele>
        <time>2025-09-30T16:46:03.867Z</time>
      </trkpt>
      <trkpt lat="52.053782" lon="8.800770">
        <ele>96.162989</ele>
        <time>2025-09-30T16:46:15.882Z</time>
      </trkpt>
      <trkpt lat="52.053819" lon="8.800166">
        <ele>96.090491</ele>
        <time>2025-09-30T16:46:25.370Z</time>
      </trkpt>
      <trkpt lat="52.053935" lon="8.799051">
        <ele>95.955424</ele>
        <time>2025-09-30T16:46:43.113Z</time>
      </trkpt>
      <trkpt lat="52.053951" lon="8.798359">
        <ele>95.709253</ele>
        <time>2025-09-30T16:46:53.430Z</time>
      </trkpt>
      <trkpt lat="52.053919" lon="8.797678">
        <ele>95.236316</ele>
        <time>2025-09-30T16:47:03.177Z</time>
      </trkpt>
      <trkpt lat="52.053817" lon="8.796696">
        <ele>94.546692</ele>
        <time>2025-09-30T16:47:16.977Z</time>
      </trkpt>
      <trkpt lat="52.053747" lon="8.795985">
        <ele>94.048085</ele>
        <time>2025-09-30T16:47:26.747Z</time>
      </trkpt>
      <trkpt lat="52.053649" lon="8.794991">
        <ele>93.107725</ele>
        <time>2025-09-30T16:47:40.315Z</time>
      </trkpt>
      <trkpt lat="52.053550" lon="8.793941">
        <ele>92.034749</ele>
        <time>2025-09-30T16:47:54.526Z</time>
      </trkpt>
      <trkpt lat="52.053337" lon="8.792808">
        <ele>90.835494</ele>
        <time>2025-09-30T16:48:10.215Z</time>
      </trkpt>
      <trkpt lat="52.053330" lon="8.792743">
        <ele>90.766930</ele>
        <time>2025-09-30T16:48:11.091Z</time>
      </trkpt>
      <trkpt lat="52.053275" lon="8.792217">
        <ele>90.212558</ele>
        <time>2025-09-30T16:48:18.167Z</time>
      </trkpt>
      <trkpt lat="52.053177" lon="8.790717">
        <ele>88.645247</ele>
        <time>2025-09-30T16:48:38.220Z</time>
      </trkpt>
      <trkpt lat="52.053108" lon="8.789995">
        <ele>87.886401</ele>
        <time>2025-09-30T16:48:47.970Z</time>
      </trkpt>
      <trkpt lat="52.053044" lon="8.789579">
        <ele>87.528480</ele>
        <time>2025-09-30T16:48:53.714Z</time>
      </trkpt>
      <trkpt lat="52.052819" lon="8.788744">
        <ele>86.767558</ele>
        <time>2025-09-30T16:49:06.033Z</time>
      </trkpt>
      <trkpt lat="52.052535" lon="8.787908">
        <ele>85.970375</ele>
        <time>2025-09-30T16:49:19.273Z</time>
      </trkpt>
      <trkpt lat="52.052219" lon="8.787250">
        <ele>85.355354</ele>
        <time>2025-09-30T16:49:31.156Z</time>
      </trkpt>
      <trkpt lat="52.051945" lon="8.786594">
        <ele>85.006707</ele>
        <time>2025-09-30T16:49:42.440Z</time>
      </trkpt>
      <trkpt lat="52.051902" lon="8.786402">
        <ele>84.916870</ele>
        <time>2025-09-30T16:49:45.332Z</time>
      </trkpt>
      <trkpt lat="52.051889" lon="8.786128">
        <ele>84.796047</ele>
        <time>2025-09-30T16:49:49.316Z</time>
      </trkpt>
      <trkpt lat="52.051874" lon="8.786050">
        <ele>84.760117</ele>
        <time>2025-09-30T16:49:50.518Z</time>
      </trkpt>
      <trkpt lat="52.051971" lon="8.785860">
        <ele>84.651548</ele>
        <time>2025-09-30T16:49:54.332Z</time>
      </trkpt>
      <trkpt lat="52.052265" lon="8.785266">
        <ele>84.316314</ele>
        <time>2025-09-30T16:50:06.294Z</time>
      </trkpt>
      <trkpt lat="52.052417" lon="8.785033">
        <ele>84.166973</ele>
        <time>2025-09-30T16:50:11.600Z</time>
      </trkpt>
      <trkpt lat="52.052921" lon="8.784547">
        <ele>83.946403</ele>
        <time>2025-09-30T16:50:26.619Z</time>
      </trkpt>
      <trkpt lat="52.053324" lon="8.784190">
        <ele>83.776087</ele>
        <time>2025-09-30T16:50:38.008Z</time>
      </trkpt>
      <trkpt lat="52.053889" lon="8.783713">
        <ele>83.539827</ele>
        <time>2025-09-30T16:50:53.643Z</time>
      </trkpt>
      <trkpt lat="52.054689" lon="8.783040">
        <ele>83.007821</ele>
        <time>2025-09-30T16:51:14.879Z</time>
      </trkpt>
      <trkpt lat="52.055490" lon="8.782367">
        <ele>82.443034</ele>
        <time>2025-09-30T16:51:36.317Z</time>
      </trkpt>
      <trkpt lat="52.055768" lon="8.782136">
        <ele>82.412483</ele>
        <time>2025-09-30T16:51:43.973Z</time>
      </trkpt>
      <trkpt lat="52.055813" lon="8.782254">
        <ele>82.433304</ele>
        <time>2025-09-30T16:51:46.103Z</time>
      </trkpt>
      <trkpt lat="52.055819" lon="8.782295">
        <ele>82.439624</ele>
        <time>2025-09-30T16:51:46.750Z</time>
      </trkpt>
      <trkpt lat="52.055937" lon="8.782308">
        <ele>82.468467</ele>
        <time>2025-09-30T16:51:50.036Z</time>
      </trkpt>
      <trkpt lat="52.059384" lon="8.781127">
        <ele>83.777609</ele>
        <time>2025-09-30T16:53:30.533Z</time>
      </trkpt>
      <trkpt lat="52.062461" lon="8.780069">
        <ele>84.406139</ele>
        <time>2025-09-30T16:54:58.990Z</time>
      </trkpt>
      <trkpt lat="52.063115" lon="8.779844">
        <ele>84.824924</ele>
        <time>2025-09-30T16:55:17.816Z</time>
      </trkpt>
      <trkpt lat="52.063318" lon="8.779675">
        <ele>84.988116</ele>
        <time>2025-09-30T16:55:24.304Z</time>
      </trkpt>
      <trkpt lat="52.063474" lon="8.779393">
        <ele>85.155015</ele>
        <time>2025-09-30T16:55:30.962Z</time>
      </trkpt>
      <trkpt lat="52.063580" lon="8.779271">
        <ele>85.247939</ele>
        <time>2025-09-30T16:55:34.693Z</time>
      </trkpt>
      <trkpt lat="52.064813" lon="8.778292">
        <ele>86.533016</ele>
        <time>2025-09-30T16:56:14.741Z</time>
      </trkpt>
      <trkpt lat="52.065337" lon="8.778268">
        <ele>87.127306</ele>
        <time>2025-09-30T16:56:30.088Z</time>
      </trkpt>
      <trkpt lat="52.066105" lon="8.778565">
        <ele>87.539427</ele>
        <time>2025-09-30T16:56:51.481Z</time>
      </trkpt>
      <trkpt lat="52.066080" lon="8.777621">
        <ele>87.030497</ele>
        <time>2025-09-30T16:57:05.389Z</time>
      </trkpt>
      <trkpt lat="52.066076" lon="8.777185">
        <ele>86.795631</ele>
        <time>2025-09-30T16:57:11.331Z</time>
      </trkpt>
      <trkpt lat="52.066057" lon="8.776717">
        <ele>86.543007</ele>
        <time>2025-09-30T16:57:17.515Z</time>
      </trkpt>
      <trkpt lat="52.066011" lon="8.776442">
        <ele>86.389500</ele>
        <time>2025-09-30T16:57:21.245Z</time>
      </trkpt>
      <trkpt lat="52.065732" lon="8.775798">
        <ele>86.158382</ele>
        <time>2025-09-30T16:57:31.876Z</time>
      </trkpt>
      <trkpt lat="52.065781" lon="8.775657">
        <ele>86.151857</ele>
        <time>2025-09-30T16:57:34.107Z</time>
      </trkpt>
      <trkpt lat="52.066062" lon="8.775372">
        <ele>86.130157</ele>
        <time>2025-09-30T16:57:41.860Z</time>
      </trkpt>
      <trkpt lat="52.066150" lon="8.775302">
        <ele>86.123738</ele>
        <time>2025-09-30T16:57:44.234Z</time>
      </trkpt>
      <trkpt lat="52.066827" lon="8.774759">
        <ele>86.074274</ele>
        <time>2025-09-30T16:58:03.812Z</time>
      </trkpt>
      <trkpt lat="52.066924" lon="8.774685">
        <ele>86.067253</ele>
        <time>2025-09-30T16:58:06.679Z</time>
      </trkpt>
      <trkpt lat="52.067423" lon="8.774272">
        <ele>86.580969</ele>
        <time>2025-09-30T16:58:21.823Z</time>
      </trkpt>
      <trkpt lat="52.068071" lon="8.773834">
        <ele>87.524686</ele>
        <time>2025-09-30T16:58:40.938Z</time>
      </trkpt>
      <trkpt lat="52.068704" lon="8.773377">
        <ele>88.456064</ele>
        <time>2025-09-30T16:58:59.559Z</time>
      </trkpt>
      <trkpt lat="52.069715" lon="8.772681">
        <ele>89.323685</ele>
        <time>2025-09-30T16:59:29.699Z</time>
      </trkpt>
      <trkpt lat="52.071311" lon="8.771593">
        <ele>90.429503</ele>
        <time>2025-09-30T17:00:16.106Z</time>
      </trkpt>
      <trkpt lat="52.071762" lon="8.771273">
        <ele>90.694018</ele>
        <time>2025-09-30T17:00:29.301Z</time>
      </trkpt>
      <trkpt lat="52.072683" lon="8.770641">
        <ele>91.434083</ele>
        <time>2025-09-30T17:00:56.951Z</time>
      </trkpt>
      <trkpt lat="52.073593" lon="8.770056">
        <ele>92.240061</ele>
        <time>2025-09-30T17:01:23.903Z</time>
      </trkpt>
      <trkpt lat="52.073688" lon="8.769996">
        <ele>92.324004</ele>
        <time>2025-09-30T17:01:26.599Z</time>
      </trkpt>
      <trkpt lat="52.073849" lon="8.769890">
        <ele>92.045849</ele>
        <time>2025-09-30T17:01:31.129Z</time>
      </trkpt>
      <trkpt lat="52.073859" lon="8.769850">
        <ele>91.999475</ele>
        <time>2025-09-30T17:01:31.814Z</time>
      </trkpt>
      <trkpt lat="52.073666" lon="8.768843">
        <ele>90.866680</ele>
        <time>2025-09-30T17:01:47.160Z</time>
      </trkpt>
      <trkpt lat="52.073284" lon="8.766883">
        <ele>88.535830</ele>
        <time>2025-09-30T17:02:13.648Z</time>
      </trkpt>
      <trkpt lat="52.073088" lon="8.766289">
        <ele>87.644548</ele>
        <time>2025-09-30T17:02:22.381Z</time>
      </trkpt>
      <trkpt lat="52.072891" lon="8.765864">
        <ele>86.940826</ele>
        <time>2025-09-30T17:02:29.495Z</time>
      </trkpt>
      <trkpt lat="52.072582" lon="8.765199">
        <ele>85.838729</ele>
        <time>2025-09-30T17:02:40.977Z</time>
      </trkpt>
      <trkpt lat="52.073034" lon="8.764648">
        <ele>85.104818</ele>
        <time>2025-09-30T17:02:54.162Z</time>
      </trkpt>
      <trkpt lat="52.073674" lon="8.763838">
        <ele>84.564144</ele>
        <time>2025-09-30T17:03:14.844Z</time>
      </trkpt>
      <trkpt lat="52.074204" lon="8.763148">
        <ele>84.112031</ele>
        <time>2025-09-30T17:03:32.057Z</time>
      </trkpt>
      <trkpt lat="52.074418" lon="8.762825">
        <ele>83.927297</ele>
        <time>2025-09-30T17:03:39.491Z</time>
      </trkpt>
      <trkpt lat="52.074588" lon="8.762569">
        <ele>83.780701</ele>
        <time>2025-09-30T17:03:45.465Z</time>
      </trkpt>
      <trkpt lat="52.075003" lon="8.761914">
        <ele>83.414793</ele>
        <time>2025-09-30T17:04:00.158Z</time>
      </trkpt>
      <trkpt lat="52.075525" lon="8.761197">
        <ele>82.981810</ele>
        <time>2025-09-30T17:04:16.805Z</time>
      </trkpt>
      <trkpt lat="52.075603" lon="8.761087">
        <ele>82.864212</ele>
        <time>2025-09-30T17:04:19.255Z</time>
      </trkpt>
      <trkpt lat="52.075146" lon="8.760155">
        <ele>82.029365</ele>
        <time>2025-09-30T17:04:36.129Z</time>
      </trkpt>
      <trkpt lat="52.074915" lon="8.759732">
        <ele>81.633143</ele>
        <time>2025-09-30T17:04:43.998Z</time>
      </trkpt>
      <trkpt lat="52.074702" lon="8.759395">
        <ele>81.294659</ele>
        <time>2025-09-30T17:04:50.666Z</time>
      </trkpt>
      <trkpt lat="52.074522" lon="8.758945">
        <ele>80.916785</ele>
        <time>2025-09-30T17:04:58.101Z</time>
      </trkpt>
      <trkpt lat="52.074488" lon="8.758769">
        <ele>80.771564</ele>
        <time>2025-09-30T17:05:00.661Z</time>
      </trkpt>
      <trkpt lat="52.074408" lon="8.758339">
        <ele>80.417922</ele>
        <time>2025-09-30T17:05:06.937Z</time>
      </trkpt>
      <trkpt lat="52.074258" lon="8.757722">
        <ele>79.895635</ele>
        <time>2025-09-30T17:05:16.312Z</time>
      </trkpt>
      <trkpt lat="52.074511" lon="8.757401">
        <ele>79.484747</ele>
        <time>2025-09-30T17:05:23.643Z</time>
      </trkpt>
      <trkpt lat="52.074794" lon="8.756840">
        <ele>78.913468</ele>
        <time>2025-09-30T17:05:33.578Z</time>
      </trkpt>
      <trkpt lat="52.074996" lon="8.756628">
        <ele>78.602237</ele>
        <time>2025-09-30T17:05:38.848Z</time>
      </trkpt>
      <trkpt lat="52.074880" lon="8.756430">
        <ele>78.357841</ele>
        <time>2025-09-30T17:05:42.511Z</time>
      </trkpt>
      <trkpt lat="52.074623" lon="8.756218">
        <ele>77.938979</ele>
        <time>2025-09-30T17:05:48.827Z</time>
      </trkpt>
      <trkpt lat="52.074433" lon="8.756059">
        <ele>77.628391</ele>
        <time>2025-09-30T17:05:53.540Z</time>
      </trkpt>
      <trkpt lat="52.073904" lon="8.755619">
        <ele>76.764746</ele>
        <time>2025-09-30T17:06:06.499Z</time>
      </trkpt>
      <trkpt lat="52.073952" lon="8.755184">
        <ele>76.369869</ele>
        <time>2025-09-30T17:06:14.461Z</time>
      </trkpt>
      <trkpt lat="52.073891" lon="8.755140">
        <ele>76.272872</ele>
        <time>2025-09-30T17:06:16.376Z</time>
      </trkpt>
      <trkpt lat="52.073932" lon="8.755079">
        <ele>76.192110</ele>
        <time>2025-09-30T17:06:17.585Z</time>
      </trkpt>
      <trkpt lat="52.073941" lon="8.754987">
        <ele>76.108875</ele>
        <time>2025-09-30T17:06:18.830Z</time>
      </trkpt>
      <trkpt lat="52.073915" lon="8.754447">
        <ele>75.861289</ele>
        <time>2025-09-30T17:06:26.579Z</time>
      </trkpt>
      <trkpt lat="52.073892" lon="8.753919">
        <ele>75.674162</ele>
        <time>2025-09-30T17:06:34.499Z</time>
      </trkpt>
      <trkpt lat="52.073888" lon="8.753845">
        <ele>75.647901</ele>
        <time>2025-09-30T17:06:35.638Z</time>
      </trkpt>
      <trkpt lat="52.073877" lon="8.753485">
        <ele>75.520476</ele>
        <time>2025-09-30T17:06:40.947Z</time>
      </trkpt>
      <trkpt lat="52.073883" lon="8.753404">
        <ele>75.491633</ele>
        <time>2025-09-30T17:06:42.157Z</time>
      </trkpt>
      <trkpt lat="52.073937" lon="8.753332">
        <ele>75.451477</ele>
        <time>2025-09-30T17:06:43.819Z</time>
      </trkpt>
      <trkpt lat="52.074083" lon="8.753304">
        <ele>75.366922</ele>
        <time>2025-09-30T17:06:47.406Z</time>
      </trkpt>
      <trkpt lat="52.074355" lon="8.753265">
        <ele>75.209871</ele>
        <time>2025-09-30T17:06:54.209Z</time>
      </trkpt>
      <trkpt lat="52.074509" lon="8.753270">
        <ele>75.121279</ele>
        <time>2025-09-30T17:06:58.004Z</time>
      </trkpt>
      <trkpt lat="52.074728" lon="8.753199">
        <ele>74.992841</ele>
        <time>2025-09-30T17:07:03.475Z</time>
      </trkpt>
      <trkpt lat="52.074746" lon="8.753281">
        <ele>74.964024</ele>
        <time>2025-09-30T17:07:05.226Z</time>
      </trkpt>
      <trkpt lat="52.074958" lon="8.753114">
        <ele>74.842216</ele>
        <time>2025-09-30T17:07:12.969Z</time>
      </trkpt>
      <trkpt lat="52.074746" lon="8.753281">
        <ele>74.720407</ele>
        <time>2025-09-30T17:07:20.697Z</time>
      </trkpt>
      <trkpt lat="52.074728" lon="8.753199">
        <ele>74.692731</ele>
        <time>2025-09-30T17:07:22.418Z</time>
      </trkpt>
      <trkpt lat="52.075104" lon="8.752904">
        <ele>74.476857</ele>
        <time>2025-09-30T17:07:32.208Z</time>
      </trkpt>
      <trkpt lat="52.075348" lon="8.752714">
        <ele>74.336967</ele>
        <time>2025-09-30T17:07:38.587Z</time>
      </trkpt>
      <trkpt lat="52.075520" lon="8.752585">
        <ele>74.239023</ele>
        <time>2025-09-30T17:07:43.114Z</time>
      </trkpt>
      <trkpt lat="52.075829" lon="8.752346">
        <ele>74.062088</ele>
        <time>2025-09-30T17:07:51.284Z</time>
      </trkpt>
      <trkpt lat="52.075903" lon="8.752289">
        <ele>74.072636</ele>
        <time>2025-09-30T17:07:53.270Z</time>
      </trkpt>
      <trkpt lat="52.076287" lon="8.751995">
        <ele>74.220155</ele>
        <time>2025-09-30T17:08:03.846Z</time>
      </trkpt>
      <trkpt lat="52.076526" lon="8.751813">
        <ele>74.311881</ele>
        <time>2025-09-30T17:08:10.598Z</time>
      </trkpt>
      <trkpt lat="52.076726" lon="8.751658">
        <ele>74.388886</ele>
        <time>2025-09-30T17:08:16.379Z</time>
      </trkpt>
      <trkpt lat="52.076767" lon="8.751632">
        <ele>74.404182</ele>
        <time>2025-09-30T17:08:17.507Z</time>
      </trkpt>
      <trkpt lat="52.076975" lon="8.751463">
        <ele>74.484997</ele>
        <time>2025-09-30T17:08:23.591Z</time>
      </trkpt>
      <trkpt lat="52.077030" lon="8.751420">
        <ele>74.506207</ele>
        <time>2025-09-30T17:08:25.180Z</time>
      </trkpt>
      <trkpt lat="52.077089" lon="8.751374">
        <ele>74.528949</ele>
        <time>2025-09-30T17:08:26.895Z</time>
      </trkpt>
      <trkpt lat="52.077562" lon="8.751014">
        <ele>74.777465</ele>
        <time>2025-09-30T17:08:40.732Z</time>
      </trkpt>
      <trkpt lat="52.077663" lon="8.750937">
        <ele>74.892923</ele>
        <time>2025-09-30T17:08:43.674Z</time>
      </trkpt>
      <trkpt lat="52.077702" lon="8.751001">
        <ele>74.950261</ele>
        <time>2025-09-30T17:08:45.154Z</time>
      </trkpt>
      <trkpt lat="52.077757" lon="8.750992">
        <ele>75.007482</ele>
        <time>2025-09-30T17:08:46.645Z</time>
      </trkpt>
      <trkpt lat="52.077787" lon="8.750928">
        <ele>75.058690</ele>
        <time>2025-09-30T17:08:47.967Z</time>
      </trkpt>
      <trkpt lat="52.077780" lon="8.750849">
        <ele>75.109469</ele>
        <time>2025-09-30T17:08:49.293Z</time>
      </trkpt>
      <trkpt lat="52.077854" lon="8.750791">
        <ele>75.194494</ele>
        <time>2025-09-30T17:08:51.484Z</time>
      </trkpt>
      <trkpt lat="52.077994" lon="8.750682">
        <ele>75.355153</ele>
        <time>2025-09-30T17:08:55.658Z</time>
      </trkpt>
      <trkpt lat="52.078271" lon="8.750482">
        <ele>75.668853</ele>
        <time>2025-09-30T17:09:03.786Z</time>
      </trkpt>
      <trkpt lat="52.078446" lon="8.750352">
        <ele>75.867992</ele>
        <time>2025-09-30T17:09:08.959Z</time>
      </trkpt>
      <trkpt lat="52.078697" lon="8.750152">
        <ele>76.157297</ele>
        <time>2025-09-30T17:09:16.405Z</time>
      </trkpt>
      <trkpt lat="52.078758" lon="8.750104">
        <ele>76.227438</ele>
        <time>2025-09-30T17:09:18.208Z</time>
      </trkpt>
      <trkpt lat="52.079098" lon="8.749835">
        <ele>76.582586</ele>
        <time>2025-09-30T17:09:28.237Z</time>
      </trkpt>
      <trkpt lat="52.079128" lon="8.749812">
        <ele>76.601443</ele>
        <time>2025-09-30T17:09:29.134Z</time>
      </trkpt>
      <trkpt lat="52.079177" lon="8.749772">
        <ele>76.632613</ele>
        <time>2025-09-30T17:09:30.579Z</time>
      </trkpt>
      <trkpt lat="52.079365" lon="8.749617">
        <ele>76.752448</ele>
        <time>2025-09-30T17:09:36.181Z</time>
      </trkpt>
      <trkpt lat="52.079614" lon="8.749421">
        <ele>76.909724</ele>
        <time>2025-09-30T17:09:43.537Z</time>
      </trkpt>
      <trkpt lat="52.079855" lon="8.749237">
        <ele>77.061089</ele>
        <time>2025-09-30T17:09:50.476Z</time>
      </trkpt>
      <trkpt lat="52.079882" lon="8.749216">
        <ele>77.078104</ele>
        <time>2025-09-30T17:09:51.268Z</time>
      </trkpt>
      <trkpt lat="52.080094" lon="8.749119">
        <ele>77.203321</ele>
        <time>2025-09-30T17:09:56.949Z</time>
      </trkpt>
      <trkpt lat="52.080276" lon="8.749115">
        <ele>77.306814</ele>
        <time>2025-09-30T17:10:01.761Z</time>
      </trkpt>
      <trkpt lat="52.080439" lon="8.749161">
        <ele>77.400878</ele>
        <time>2025-09-30T17:10:06.025Z</time>
      </trkpt>
      <trkpt lat="52.080592" lon="8.749303">
        <ele>77.501029</ele>
        <time>2025-09-30T17:10:10.672Z</time>
      </trkpt>
      <trkpt lat="52.080611" lon="8.749323">
        <ele>77.513896</ele>
        <time>2025-09-30T17:10:11.252Z</time>
      </trkpt>
      <trkpt lat="52.080810" lon="8.749558">
        <ele>77.447481</ele>
        <time>2025-09-30T17:10:17.763Z</time>
      </trkpt>
      <trkpt lat="52.080987" lon="8.749766">
        <ele>77.294988</ele>
        <time>2025-09-30T17:10:23.444Z</time>
      </trkpt>
      <trkpt lat="52.080911" lon="8.749979">
        <ele>77.189269</ele>
        <time>2025-09-30T17:10:27.165Z</time>
      </trkpt>
      <trkpt lat="52.081000" lon="8.750084">
        <ele>77.112487</ele>
        <time>2025-09-30T17:10:30.752Z</time>
      </trkpt>
      <trkpt lat="52.081073" lon="8.749846">
        <ele>76.998313</ele>
        <time>2025-09-30T17:10:34.655Z</time>
      </trkpt>
      <trkpt lat="52.081234" lon="8.749156">
        <ele>76.681515</ele>
        <time>2025-09-30T17:10:44.873Z</time>
      </trkpt>
      <trkpt lat="52.081312" lon="8.748665">
        <ele>76.463837</ele>
        <time>2025-09-30T17:10:52.205Z</time>
      </trkpt>
      <trkpt lat="52.081349" lon="8.748228">
        <ele>76.272205</ele>
        <time>2025-09-30T17:10:58.305Z</time>
      </trkpt>
      <trkpt lat="52.081325" lon="8.748019">
        <ele>76.174079</ele>
        <time>2025-09-30T17:11:01.250Z</time>
      </trkpt>
      <trkpt lat="52.081324" lon="8.747772">
        <ele>76.060082</ele>
        <time>2025-09-30T17:11:04.684Z</time>
      </trkpt>
      <trkpt lat="52.081321" lon="8.747598">
        <ele>75.979747</ele>
        <time>2025-09-30T17:11:07.149Z</time>
      </trkpt>
      <trkpt lat="52.081289" lon="8.747237">
        <ele>75.811415</ele>
        <time>2025-09-30T17:11:12.187Z</time>
      </trkpt>
      <trkpt lat="52.081275" lon="8.747081">
        <ele>75.738655</ele>
        <time>2025-09-30T17:11:14.385Z</time>
      </trkpt>
      <trkpt lat="52.081254" lon="8.746878">
        <ele>75.643649</ele>
        <time>2025-09-30T17:11:17.466Z</time>
      </trkpt>
      <trkpt lat="52.081209" lon="8.746471">
        <ele>75.452796</ele>
        <time>2025-09-30T17:11:23.751Z</time>
      </trkpt>
      <trkpt lat="52.081097" lon="8.745380">
        <ele>74.943850</ele>
        <time>2025-09-30T17:11:41.534Z</time>
      </trkpt>
      <trkpt lat="52.081082" lon="8.745234">
        <ele>74.884468</ele>
        <time>2025-09-30T17:11:43.862Z</time>
      </trkpt>
      <trkpt lat="52.081023" lon="8.744531">
        <ele>74.599834</ele>
        <time>2025-09-30T17:11:54.663Z</time>
      </trkpt>
      <trkpt lat="52.081013" lon="8.743960">
        <ele>74.370678</ele>
        <time>2025-09-30T17:12:03.307Z</time>
      </trkpt>
      <trkpt lat="52.081068" lon="8.743241">
        <ele>74.080018</ele>
        <time>2025-09-30T17:12:14.482Z</time>
      </trkpt>
      <trkpt lat="52.081136" lon="8.742835">
        <ele>73.911206</ele>
        <time>2025-09-30T17:12:20.955Z</time>
      </trkpt>
      <trkpt lat="52.081022" lon="8.742736">
        <ele>73.826855</ele>
        <time>2025-09-30T17:12:24.038Z</time>
      </trkpt>
      <trkpt lat="52.080961" lon="8.742683">
        <ele>73.781715</ele>
        <time>2025-09-30T17:12:25.678Z</time>
      </trkpt>
      <trkpt lat="52.080920" lon="8.742637">
        <ele>73.744787</ele>
        <time>2025-09-30T17:12:26.845Z</time>
      </trkpt>
      <trkpt lat="52.080877" lon="8.742591">
        <ele>73.706379</ele>
        <time>2025-09-30T17:12:28.046Z</time>
      </trkpt>
      <trkpt lat="52.080658" lon="8.742355">
        <ele>73.510327</ele>
        <time>2025-09-30T17:12:34.173Z</time>
      </trkpt>
      <trkpt lat="52.080833" lon="8.741859">
        <ele>73.247990</ele>
        <time>2025-09-30T17:12:42.426Z</time>
      </trkpt>
      <trkpt lat="52.080990" lon="8.741414">
        <ele>73.012630</ele>
        <time>2025-09-30T17:12:50.040Z</time>
      </trkpt>
      <trkpt lat="52.081046" lon="8.741179">
        <ele>72.897020</ele>
        <time>2025-09-30T17:12:53.802Z</time>
      </trkpt>
      <trkpt lat="52.081060" lon="8.741120">
        <ele>72.868010</ele>
        <time>2025-09-30T17:12:54.725Z</time>
      </trkpt>
      <trkpt lat="52.081893" lon="8.739043">
        <ele>71.947402</ele>
        <time>2025-09-30T17:13:30.754Z</time>
      </trkpt>
      <trkpt lat="52.082636" lon="8.737549">
        <ele>71.509699</ele>
        <time>2025-09-30T17:13:59.868Z</time>
      </trkpt>
      <trkpt lat="52.082949" lon="8.736799">
        <ele>71.514193</ele>
        <time>2025-09-30T17:14:13.975Z</time>
      </trkpt>
      <trkpt lat="52.083788" lon="8.734718">
        <ele>71.566527</ele>
        <time>2025-09-30T17:14:52.885Z</time>
      </trkpt>
      <trkpt lat="52.084020" lon="8.734144">
        <ele>71.597262</ele>
        <time>2025-09-30T17:15:03.648Z</time>
      </trkpt>
      <trkpt lat="52.084295" lon="8.733522">
        <ele>71.631542</ele>
        <time>2025-09-30T17:15:15.496Z</time>
      </trkpt>
      <trkpt lat="52.084374" lon="8.733410">
        <ele>71.639169</ele>
        <time>2025-09-30T17:15:18.126Z</time>
      </trkpt>
      <trkpt lat="52.084375" lon="8.733154">
        <ele>71.650622</ele>
        <time>2025-09-30T17:15:22.056Z</time>
      </trkpt>
      <trkpt lat="52.084478" lon="8.732882">
        <ele>71.637957</ele>
        <time>2025-09-30T17:15:26.975Z</time>
      </trkpt>
      <trkpt lat="52.084502" lon="8.732629">
        <ele>71.624560</ele>
        <time>2025-09-30T17:15:30.894Z</time>
      </trkpt>
      <trkpt lat="52.084632" lon="8.732553">
        <ele>71.612797</ele>
        <time>2025-09-30T17:15:34.370Z</time>
      </trkpt>
      <trkpt lat="52.084698" lon="8.732464">
        <ele>71.605497</ele>
        <time>2025-09-30T17:15:36.497Z</time>
      </trkpt>
      <trkpt lat="52.084733" lon="8.732022">
        <ele>71.582176</ele>
        <time>2025-09-30T17:15:43.298Z</time>
      </trkpt>
      <trkpt lat="52.084793" lon="8.730996">
        <ele>71.528242</ele>
        <time>2025-09-30T17:15:59.036Z</time>
      </trkpt>
      <trkpt lat="52.084864" lon="8.730451">
        <ele>71.499297</ele>
        <time>2025-09-30T17:16:07.612Z</time>
      </trkpt>
      <trkpt lat="52.084906" lon="8.730067">
        <ele>71.497461</ele>
        <time>2025-09-30T17:16:13.674Z</time>
      </trkpt>
      <trkpt lat="52.084931" lon="8.729615">
        <ele>71.495325</ele>
        <time>2025-09-30T17:16:20.747Z</time>
      </trkpt>
      <trkpt lat="52.084950" lon="8.729299">
        <ele>71.493830</ele>
        <time>2025-09-30T17:16:25.726Z</time>
      </trkpt>
      <trkpt lat="52.084873" lon="8.728441">
        <ele>71.489749</ele>
        <time>2025-09-30T17:16:39.318Z</time>
      </trkpt>
      <trkpt lat="52.084881" lon="8.728150">
        <ele>71.488377</ele>
        <time>2025-09-30T17:16:43.800Z</time>
      </trkpt>
      <trkpt lat="52.085081" lon="8.726901">
        <ele>71.338622</ele>
        <time>2025-09-30T17:17:03.438Z</time>
      </trkpt>
      <trkpt lat="52.085091" lon="8.726582">
        <ele>71.270396</ele>
        <time>2025-09-30T17:17:08.296Z</time>
      </trkpt>
      <trkpt lat="52.085033" lon="8.725941">
        <ele>71.132003</ele>
        <time>2025-09-30T17:17:18.019Z</time>
      </trkpt>
      <trkpt lat="52.085031" lon="8.725644">
        <ele>71.068561</ele>
        <time>2025-09-30T17:17:22.425Z</time>
      </trkpt>
      <trkpt lat="52.084947" lon="8.725509">
        <ele>71.027524</ele>
        <time>2025-09-30T17:17:25.270Z</time>
      </trkpt>
      <trkpt lat="52.084791" lon="8.725415">
        <ele>70.969700</ele>
        <time>2025-09-30T17:17:29.271Z</time>
      </trkpt>
      <trkpt lat="52.084956" lon="8.724802">
        <ele>70.829280</ele>
        <time>2025-09-30T17:17:39.222Z</time>
      </trkpt>
      <trkpt lat="52.085048" lon="8.724458">
        <ele>70.755175</ele>
        <time>2025-09-30T17:17:44.887Z</time>
      </trkpt>
      <trkpt lat="52.085304" lon="8.723590">
        <ele>70.564997</ele>
        <time>2025-09-30T17:17:59.450Z</time>
      </trkpt>
      <trkpt lat="52.085593" lon="8.722395">
        <ele>70.311333</ele>
        <time>2025-09-30T17:18:18.921Z</time>
      </trkpt>
      <trkpt lat="52.085749" lon="8.721686">
        <ele>70.180344</ele>
        <time>2025-09-30T17:18:30.344Z</time>
      </trkpt>
      <trkpt lat="52.085989" lon="8.720596">
        <ele>69.985610</ele>
        <time>2025-09-30T17:18:47.775Z</time>
      </trkpt>
      <trkpt lat="52.086061" lon="8.720223">
        <ele>69.919855</ele>
        <time>2025-09-30T17:18:53.675Z</time>
      </trkpt>
      <trkpt lat="52.086098" lon="8.720035">
        <ele>69.886654</ele>
        <time>2025-09-30T17:18:56.693Z</time>
      </trkpt>
      <trkpt lat="52.086264" lon="8.719482">
        <ele>69.775518</ele>
        <time>2025-09-30T17:19:06.082Z</time>
      </trkpt>
      <trkpt lat="52.086377" lon="8.719063">
        <ele>69.611307</ele>
        <time>2025-09-30T17:19:13.033Z</time>
      </trkpt>
      <trkpt lat="52.086507" lon="8.718542">
        <ele>69.409510</ele>
        <time>2025-09-30T17:19:21.491Z</time>
      </trkpt>
      <trkpt lat="52.086529" lon="8.718450">
        <ele>69.374083</ele>
        <time>2025-09-30T17:19:22.953Z</time>
      </trkpt>
      <trkpt lat="52.086644" lon="8.717985">
        <ele>69.194202</ele>
        <time>2025-09-30T17:19:30.323Z</time>
      </trkpt>
      <trkpt lat="52.086836" lon="8.717134">
        <ele>68.868873</ele>
        <time>2025-09-30T17:19:43.535Z</time>
      </trkpt>
      <trkpt lat="52.086974" lon="8.716514">
        <ele>68.643866</ele>
        <time>2025-09-30T17:19:53.022Z</time>
      </trkpt>
      <trkpt lat="52.087043" lon="8.716338">
        <ele>68.577078</ele>
        <time>2025-09-30T17:19:56.019Z</time>
      </trkpt>
      <trkpt lat="52.087348" lon="8.715563">
        <ele>68.282657</ele>
        <time>2025-09-30T17:20:09.371Z</time>
      </trkpt>
      <trkpt lat="52.087730" lon="8.714008">
        <ele>67.806356</ele>
        <time>2025-09-30T17:20:34.717Z</time>
      </trkpt>
      <trkpt lat="52.088310" lon="8.713025">
        <ele>67.832516</ele>
        <time>2025-09-30T17:20:55.992Z</time>
      </trkpt>
      <trkpt lat="52.088526" lon="8.712550">
        <ele>67.843859</ele>
        <time>2025-09-30T17:21:05.220Z</time>
      </trkpt>
      <trkpt lat="52.088759" lon="8.711638">
        <ele>67.845548</ele>
        <time>2025-09-30T17:21:20.544Z</time>
      </trkpt>
      <trkpt lat="52.088912" lon="8.709681">
        <ele>67.703608</ele>
        <time>2025-09-30T17:21:50.678Z</time>
      </trkpt>
      <trkpt lat="52.089084" lon="8.708772">
        <ele>67.647756</ele>
        <time>2025-09-30T17:22:05.208Z</time>
      </trkpt>
      <trkpt lat="52.089128" lon="8.708454">
        <ele>67.646341</ele>
        <time>2025-09-30T17:22:10.239Z</time>
      </trkpt>
      <trkpt lat="52.089102" lon="8.708326">
        <ele>67.645756</ele>
        <time>2025-09-30T17:22:12.311Z</time>
      </trkpt>
      <trkpt lat="52.089133" lon="8.708182">
        <ele>67.645094</ele>
        <time>2025-09-30T17:22:14.929Z</time>
      </trkpt>
      <trkpt lat="52.089508" lon="8.707228">
        <ele>67.640177</ele>
        <time>2025-09-30T17:22:34.419Z</time>
      </trkpt>
      <trkpt lat="52.089985" lon="8.706013">
        <ele>67.570845</ele>
        <time>2025-09-30T17:22:59.168Z</time>
      </trkpt>
      <trkpt lat="52.090207" lon="8.705327">
        <ele>67.457949</ele>
        <time>2025-09-30T17:23:12.364Z</time>
      </trkpt>
      <trkpt lat="52.090572" lon="8.703963">
        <ele>67.241320</ele>
        <time>2025-09-30T17:23:37.316Z</time>
      </trkpt>
      <trkpt lat="52.090948" lon="8.702400">
        <ele>67.040232</ele>
        <time>2025-09-30T17:24:05.299Z</time>
      </trkpt>
      <trkpt lat="52.090889" lon="8.702346">
        <ele>67.027458</ele>
        <time>2025-09-30T17:24:06.955Z</time>
      </trkpt>
      <trkpt lat="52.090768" lon="8.702238">
        <ele>67.001414</ele>
        <time>2025-09-30T17:24:10.334Z</time>
      </trkpt>
      <trkpt lat="52.090889" lon="8.702346">
        <ele>66.975371</ele>
        <time>2025-09-30T17:24:13.731Z</time>
      </trkpt>
      <trkpt lat="52.090948" lon="8.702400">
        <ele>66.962597</ele>
        <time>2025-09-30T17:24:15.413Z</time>
      </trkpt>
      <trkpt lat="52.091149" lon="8.701647">
        <ele>66.877480</ele>
        <time>2025-09-30T17:24:28.175Z</time>
      </trkpt>
      <trkpt lat="52.091322" lon="8.701147">
        <ele>67.053616</ele>
        <time>2025-09-30T17:24:37.453Z</time>
      </trkpt>
      <trkpt lat="52.091557" lon="8.700472">
        <ele>67.291756</ele>
        <time>2025-09-30T17:24:50.186Z</time>
      </trkpt>
      <trkpt lat="52.091573" lon="8.700426">
        <ele>67.307981</ele>
        <time>2025-09-30T17:24:51.038Z</time>
      </trkpt>
      <trkpt lat="52.092025" lon="8.699221">
        <ele>67.741333</ele>
        <time>2025-09-30T17:25:13.551Z</time>
      </trkpt>
      <trkpt lat="52.092306" lon="8.698427">
        <ele>67.765375</ele>
        <time>2025-09-30T17:25:27.872Z</time>
      </trkpt>
      <trkpt lat="52.092421" lon="8.697868">
        <ele>67.762976</ele>
        <time>2025-09-30T17:25:36.950Z</time>
      </trkpt>
      <trkpt lat="52.092458" lon="8.697496">
        <ele>67.761443</ele>
        <time>2025-09-30T17:25:42.617Z</time>
      </trkpt>
      <trkpt lat="52.092484" lon="8.696677">
        <ele>67.758107</ele>
        <time>2025-09-30T17:25:55.143Z</time>
      </trkpt>
      <trkpt lat="52.092505" lon="8.696471">
        <ele>67.757257</ele>
        <time>2025-09-30T17:25:58.399Z</time>
      </trkpt>
      <trkpt lat="52.092514" lon="8.696378">
        <ele>67.756874</ele>
        <time>2025-09-30T17:25:59.862Z</time>
      </trkpt>
      <trkpt lat="52.092606" lon="8.695869">
        <ele>67.536736</ele>
        <time>2025-09-30T17:26:08.140Z</time>
      </trkpt>
      <trkpt lat="52.092722" lon="8.695386">
        <ele>67.317014</ele>
        <time>2025-09-30T17:26:16.033Z</time>
      </trkpt>
      <trkpt lat="52.092875" lon="8.695030">
        <ele>67.132939</ele>
        <time>2025-09-30T17:26:23.195Z</time>
      </trkpt>
      <trkpt lat="52.093066" lon="8.694790">
        <ele>66.966538</ele>
        <time>2025-09-30T17:26:29.462Z</time>
      </trkpt>
      <trkpt lat="52.093220" lon="8.694676">
        <ele>66.849869</ele>
        <time>2025-09-30T17:26:33.780Z</time>
      </trkpt>
      <trkpt lat="52.093949" lon="8.694353">
        <ele>66.413326</ele>
        <time>2025-09-30T17:26:52.925Z</time>
      </trkpt>
      <trkpt lat="52.094270" lon="8.694176">
        <ele>66.284849</ele>
        <time>2025-09-30T17:27:01.866Z</time>
      </trkpt>
      <trkpt lat="52.094605" lon="8.693925">
        <ele>66.145051</ele>
        <time>2025-09-30T17:27:11.860Z</time>
      </trkpt>
      <trkpt lat="52.094979" lon="8.693541">
        <ele>65.977427</ele>
        <time>2025-09-30T17:27:24.114Z</time>
      </trkpt>
      <trkpt lat="52.096661" lon="8.691543">
        <ele>66.583188</ele>
        <time>2025-09-30T17:28:23.440Z</time>
      </trkpt>
      <trkpt lat="52.097246" lon="8.690848">
        <ele>66.775877</ele>
        <time>2025-09-30T17:28:44.033Z</time>
      </trkpt>
      <trkpt lat="52.097811" lon="8.690169">
        <ele>66.944823</ele>
        <time>2025-09-30T17:29:03.910Z</time>
      </trkpt>
      <trkpt lat="52.098015" lon="8.689973">
        <ele>67.001809</ele>
        <time>2025-09-30T17:29:10.572Z</time>
      </trkpt>
      <trkpt lat="52.099153" lon="8.689143">
        <ele>66.830525</ele>
        <time>2025-09-30T17:29:45.228Z</time>
      </trkpt>
      <trkpt lat="52.099426" lon="8.688943">
        <ele>66.764046</ele>
        <time>2025-09-30T17:29:53.394Z</time>
      </trkpt>
      <trkpt lat="52.100741" lon="8.688002">
        <ele>66.435479</ele>
        <time>2025-09-30T17:30:32.364Z</time>
      </trkpt>
      <trkpt lat="52.101211" lon="8.687582">
        <ele>66.311041</ele>
        <time>2025-09-30T17:30:47.241Z</time>
      </trkpt>
      <trkpt lat="52.101513" lon="8.687147">
        <ele>66.243100</ele>
        <time>2025-09-30T17:30:58.560Z</time>
      </trkpt>
      <trkpt lat="52.101638" lon="8.686921">
        <ele>66.249345</ele>
        <time>2025-09-30T17:31:03.828Z</time>
      </trkpt>
      <trkpt lat="52.101858" lon="8.686457">
        <ele>66.261382</ele>
        <time>2025-09-30T17:31:13.930Z</time>
      </trkpt>
      <trkpt lat="52.102024" lon="8.686105">
        <ele>66.270495</ele>
        <time>2025-09-30T17:31:21.539Z</time>
      </trkpt>
      <trkpt lat="52.102131" lon="8.685932">
        <ele>66.275537</ele>
        <time>2025-09-30T17:31:25.768Z</time>
      </trkpt>
      <trkpt lat="52.102380" lon="8.685618">
        <ele>66.286066</ele>
        <time>2025-09-30T17:31:34.519Z</time>
      </trkpt>
      <trkpt lat="52.102504" lon="8.685514">
        <ele>66.290730</ele>
        <time>2025-09-30T17:31:38.422Z</time>
      </trkpt>
      <trkpt lat="52.102763" lon="8.685384">
        <ele>66.299790</ele>
        <time>2025-09-30T17:31:45.966Z</time>
      </trkpt>
      <trkpt lat="52.102916" lon="8.685350">
        <ele>66.322525</ele>
        <time>2025-09-30T17:31:50.251Z</time>
      </trkpt>
      <trkpt lat="52.103434" lon="8.685349">
        <ele>66.401300</ele>
        <time>2025-09-30T17:32:04.640Z</time>
      </trkpt>
      <trkpt lat="52.103747" lon="8.685386">
        <ele>66.449026</ele>
        <time>2025-09-30T17:32:13.429Z</time>
      </trkpt>
      <trkpt lat="52.103959" lon="8.685279">
        <ele>66.482779</ele>
        <time>2025-09-30T17:32:20.744Z</time>
      </trkpt>
      <trkpt lat="52.104146" lon="8.685321">
        <ele>66.511487</ele>
        <time>2025-09-30T17:32:26.994Z</time>
      </trkpt>
      <trkpt lat="52.104481" lon="8.685446">
        <ele>66.563753</ele>
        <time>2025-09-30T17:32:38.337Z</time>
      </trkpt>
      <trkpt lat="52.104651" lon="8.685433">
        <ele>66.628332</ele>
        <time>2025-09-30T17:32:43.196Z</time>
      </trkpt>
      <trkpt lat="52.104895" lon="8.685413">
        <ele>66.754771</ele>
        <time>2025-09-30T17:32:50.141Z</time>
      </trkpt>
      <trkpt lat="52.105981" lon="8.685383">
        <ele>67.316899</ele>
        <time>2025-09-30T17:33:21.212Z</time>
      </trkpt>
      <trkpt lat="52.106571" lon="8.685347">
        <ele>67.539993</ele>
        <time>2025-09-30T17:33:38.105Z</time>
      </trkpt>
      <trkpt lat="52.106916" lon="8.685337">
        <ele>67.593829</ele>
        <time>2025-09-30T17:33:47.878Z</time>
      </trkpt>
      <trkpt lat="52.106915" lon="8.685308">
        <ele>67.596613</ele>
        <time>2025-09-30T17:33:48.346Z</time>
      </trkpt>
      <trkpt lat="52.106909" lon="8.684596">
        <ele>67.664849</ele>
        <time>2025-09-30T17:33:59.944Z</time>
      </trkpt>
      <trkpt lat="52.106909" lon="8.684558">
        <ele>67.668490</ele>
        <time>2025-09-30T17:34:00.568Z</time>
      </trkpt>
      <trkpt lat="52.106908" lon="8.684496">
        <ele>67.674434</ele>
        <time>2025-09-30T17:34:01.568Z</time>
      </trkpt>
      <trkpt lat="52.107389" lon="8.684488">
        <ele>67.749485</ele>
        <time>2025-09-30T17:34:13.519Z</time>
      </trkpt>
      <trkpt lat="52.107372" lon="8.684542">
        <ele>67.755300</ele>
        <time>2025-09-30T17:34:14.746Z</time>
      </trkpt>
      <trkpt lat="52.107556" lon="8.684529">
        <ele>67.784035</ele>
        <time>2025-09-30T17:34:27.539Z</time>
      </trkpt>
      <trkpt lat="52.107372" lon="8.684542">
        <ele>67.740569</ele>
        <time>2025-09-30T17:34:40.333Z</time>
      </trkpt>
      <trkpt lat="52.107389" lon="8.684488">
        <ele>67.731249</ele>
        <time>2025-09-30T17:34:41.561Z</time>
      </trkpt>
      <trkpt lat="52.107704" lon="8.684471">
        <ele>67.652429</ele>
        <time>2025-09-30T17:34:49.296Z</time>
      </trkpt>
      <trkpt lat="52.108144" lon="8.684428">
        <ele>67.542193</ele>
        <time>2025-09-30T17:35:00.098Z</time>
      </trkpt>
      <trkpt lat="52.108427" lon="8.684342">
        <ele>67.470197</ele>
        <time>2025-09-30T17:35:07.178Z</time>
      </trkpt>
      <trkpt lat="52.110237" lon="8.683159">
        <ele>67.011421</ele>
        <time>2025-09-30T17:35:55.142Z</time>
      </trkpt>
      <trkpt lat="52.110425" lon="8.682981">
        <ele>66.961503</ele>
        <time>2025-09-30T17:36:00.560Z</time>
      </trkpt>
      <trkpt lat="52.111384" lon="8.681841">
        <ele>67.106889</ele>
        <time>2025-09-30T17:36:30.606Z</time>
      </trkpt>
      <trkpt lat="52.112487" lon="8.680556">
        <ele>67.529336</ele>
        <time>2025-09-30T17:37:05.674Z</time>
      </trkpt>
      <trkpt lat="52.112518" lon="8.680632">
        <ele>67.556703</ele>
        <time>2025-09-30T17:37:07.924Z</time>
      </trkpt>
      <trkpt lat="52.113097" lon="8.679966">
        <ele>67.902950</ele>
        <time>2025-09-30T17:37:57.206Z</time>
      </trkpt>
      <trkpt lat="52.113698" lon="8.679275">
        <ele>68.177532</ele>
        <time>2025-09-30T17:38:48.341Z</time>
      </trkpt>
      <trkpt lat="52.113849" lon="8.679158">
        <ele>68.207927</ele>
        <time>2025-09-30T17:38:53.010Z</time>
      </trkpt>
      <trkpt lat="52.113736" lon="8.678916">
        <ele>68.241861</ele>
        <time>2025-09-30T17:38:59.154Z</time>
      </trkpt>
      <trkpt lat="52.113562" lon="8.678600">
        <ele>68.289236</ele>
        <time>2025-09-30T17:39:07.747Z</time>
      </trkpt>
      <trkpt lat="52.113351" lon="8.678216">
        <ele>68.346751</ele>
        <time>2025-09-30T17:39:18.122Z</time>
      </trkpt>
      <trkpt lat="52.113313" lon="8.678145">
        <ele>68.357264</ele>
        <time>2025-09-30T17:39:20.033Z</time>
      </trkpt>
      <trkpt lat="52.113117" lon="8.677795">
        <ele>68.410136</ele>
        <time>2025-09-30T17:39:29.569Z</time>
      </trkpt>
      <trkpt lat="52.112984" lon="8.677562">
        <ele>68.445644</ele>
        <time>2025-09-30T17:39:36.015Z</time>
      </trkpt>
      <trkpt lat="52.112850" lon="8.677367">
        <ele>68.530548</ele>
        <time>2025-09-30T17:39:41.952Z</time>
      </trkpt>
      <trkpt lat="52.112774" lon="8.677255">
        <ele>68.589579</ele>
        <time>2025-09-30T17:39:45.323Z</time>
      </trkpt>
      <trkpt lat="52.112656" lon="8.677080">
        <ele>68.681496</ele>
        <time>2025-09-30T17:39:50.609Z</time>
      </trkpt>
      <trkpt lat="52.112383" lon="8.676684">
        <ele>68.892052</ele>
        <time>2025-09-30T17:40:02.717Z</time>
      </trkpt>
      <trkpt lat="52.112362" lon="8.676608">
        <ele>68.921527</ele>
        <time>2025-09-30T17:40:04.420Z</time>
      </trkpt>
      <trkpt lat="52.112163" lon="8.676345">
        <ele>69.069128</ele>
        <time>2025-09-30T17:40:12.914Z</time>
      </trkpt>
      <trkpt lat="52.111825" lon="8.675710">
        <ele>69.366329</ele>
        <time>2025-09-30T17:40:29.973Z</time>
      </trkpt>
      <trkpt lat="52.111574" lon="8.675157">
        <ele>69.581152</ele>
        <time>2025-09-30T17:40:43.945Z</time>
      </trkpt>
      <trkpt lat="52.111498" lon="8.674989">
        <ele>69.637419</ele>
        <time>2025-09-30T17:40:48.176Z</time>
      </trkpt>
      <trkpt lat="52.111379" lon="8.674502">
        <ele>69.778756</ele>
        <time>2025-09-30T17:40:58.823Z</time>
      </trkpt>
      <trkpt lat="52.111441" lon="8.674433">
        <ele>69.811730</ele>
        <time>2025-09-30T17:41:01.276Z</time>
      </trkpt>
      <trkpt lat="52.111449" lon="8.674365">
        <ele>69.830400</ele>
        <time>2025-09-30T17:41:02.684Z</time>
      </trkpt>
      <trkpt lat="52.111432" lon="8.673903">
        <ele>69.955206</ele>
        <time>2025-09-30T17:41:10.030Z</time>
      </trkpt>
      <trkpt lat="52.111436" lon="8.673580">
        <ele>70.042323</ele>
        <time>2025-09-30T17:41:15.182Z</time>
      </trkpt>
      <trkpt lat="52.111432" lon="8.673489">
        <ele>70.066925</ele>
        <time>2025-09-30T17:41:16.630Z</time>
      </trkpt>
      <trkpt lat="52.111426" lon="8.673196">
        <ele>70.145978</ele>
        <time>2025-09-30T17:41:21.290Z</time>
      </trkpt>
      <trkpt lat="52.111437" lon="8.673094">
        <ele>70.173904</ele>
        <time>2025-09-30T17:41:23.379Z</time>
      </trkpt>
      <trkpt lat="52.111441" lon="8.673041">
        <ele>70.188304</ele>
        <time>2025-09-30T17:41:24.482Z</time>
      </trkpt>
      <trkpt lat="52.111451" lon="8.672671">
        <ele>70.284512</ele>
        <time>2025-09-30T17:41:32.004Z</time>
      </trkpt>
      <trkpt lat="52.111464" lon="8.672522">
        <ele>70.307274</ele>
        <time>2025-09-30T17:41:35.070Z</time>
      </trkpt>
      <trkpt lat="52.111532" lon="8.671774">
        <ele>70.421643</ele>
        <time>2025-09-30T17:41:50.429Z</time>
      </trkpt>
      <trkpt lat="52.111611" lon="8.671462">
        <ele>70.472686</ele>
        <time>2025-09-30T17:41:57.208Z</time>
      </trkpt>
      <trkpt lat="52.111782" lon="8.671004">
        <ele>70.553756</ele>
        <time>2025-09-30T17:42:07.988Z</time>
      </trkpt>
      <trkpt lat="52.111893" lon="8.670774">
        <ele>70.598000</ele>
        <time>2025-09-30T17:42:13.906Z</time>
      </trkpt>
      <trkpt lat="52.111947" lon="8.670742">
        <ele>70.612152</ele>
        <time>2025-09-30T17:42:15.792Z</time>
      </trkpt>
      <trkpt lat="52.112058" lon="8.670765">
        <ele>70.639711</ele>
        <time>2025-09-30T17:42:19.479Z</time>
      </trkpt>
      <trkpt lat="52.112121" lon="8.670810">
        <ele>70.656654</ele>
        <time>2025-09-30T17:42:21.733Z</time>
      </trkpt>
      <trkpt lat="52.112228" lon="8.670759">
        <ele>70.684112</ele>
        <time>2025-09-30T17:42:25.428Z</time>
      </trkpt>
      <trkpt lat="52.112286" lon="8.670675">
        <ele>70.703229</ele>
        <time>2025-09-30T17:42:27.988Z</time>
      </trkpt>
      <trkpt lat="52.112377" lon="8.670414">
        <ele>70.813386</ele>
        <time>2025-09-30T17:42:34.061Z</time>
      </trkpt>
      <trkpt lat="52.112284" lon="8.670328">
        <ele>70.905821</ele>
        <time>2025-09-30T17:42:37.575Z</time>
      </trkpt>
      <trkpt lat="52.112249" lon="8.670295">
        <ele>70.940775</ele>
        <time>2025-09-30T17:42:38.619Z</time>
      </trkpt>
      <trkpt lat="52.112057" lon="8.670103">
        <ele>71.135510</ele>
        <time>2025-09-30T17:42:44.497Z</time>
      </trkpt>
      <trkpt lat="52.111693" lon="8.669714">
        <ele>71.511808</ele>
        <time>2025-09-30T17:42:56.079Z</time>
      </trkpt>
      <trkpt lat="52.111515" lon="8.669536">
        <ele>71.692344</ele>
        <time>2025-09-30T17:43:01.786Z</time>
      </trkpt>
      <trkpt lat="52.111342" lon="8.669364">
        <ele>71.867532</ele>
        <time>2025-09-30T17:43:07.323Z</time>
      </trkpt>
      <trkpt lat="52.111088" lon="8.669092">
        <ele>72.130276</ele>
        <time>2025-09-30T17:43:15.526Z</time>
      </trkpt>
      <trkpt lat="52.110998" lon="8.668997">
        <ele>72.222975</ele>
        <time>2025-09-30T17:43:18.374Z</time>
      </trkpt>
      <trkpt lat="52.110925" lon="8.668917">
        <ele>72.250158</ele>
        <time>2025-09-30T17:43:20.703Z</time>
      </trkpt>
      <trkpt lat="52.110902" lon="8.668892">
        <ele>72.220208</ele>
        <time>2025-09-30T17:43:21.441Z</time>
      </trkpt>
      <trkpt lat="52.110619" lon="8.668591">
        <ele>71.854109</ele>
        <time>2025-09-30T17:43:30.192Z</time>
      </trkpt>
      <trkpt lat="52.110678" lon="8.668427">
        <ele>71.727687</ele>
        <time>2025-09-30T17:43:33.067Z</time>
      </trkpt>
      <trkpt lat="52.110837" lon="8.667747">
        <ele>71.243715</ele>
        <time>2025-09-30T17:43:43.422Z</time>
      </trkpt>
      <trkpt lat="52.110875" lon="8.667577">
        <ele>71.123384</ele>
        <time>2025-09-30T17:43:45.825Z</time>
      </trkpt>
      <trkpt lat="52.110837" lon="8.667747">
        <ele>71.003053</ele>
        <time>2025-09-30T17:43:48.225Z</time>
      </trkpt>
      <trkpt lat="52.110917" lon="8.667661">
        <ele>70.899229</ele>
        <time>2025-09-30T17:43:50.216Z</time>
      </trkpt>
      <trkpt lat="52.110991" lon="8.667399">
        <ele>70.707416</ele>
        <time>2025-09-30T17:43:53.889Z</time>
      </trkpt>
      <trkpt lat="52.111159" lon="8.666751">
        <ele>70.173794</ele>
        <time>2025-09-30T17:44:02.632Z</time>
      </trkpt>
      <trkpt lat="52.111201" lon="8.666690">
        <ele>70.068159</ele>
        <time>2025-09-30T17:44:03.790Z</time>
      </trkpt>
      <trkpt lat="52.111280" lon="8.666581">
        <ele>69.873804</ele>
        <time>2025-09-30T17:44:05.865Z</time>
      </trkpt>
      <trkpt lat="52.111351" lon="8.666353">
        <ele>69.579130</ele>
        <time>2025-09-30T17:44:09.042Z</time>
      </trkpt>
      <trkpt lat="52.111629" lon="8.665256">
        <ele>68.211188</ele>
        <time>2025-09-30T17:44:23.999Z</time>
      </trkpt>
      <trkpt lat="52.111667" lon="8.665116">
        <ele>68.034751</ele>
        <time>2025-09-30T17:44:26.039Z</time>
      </trkpt>
      <trkpt lat="52.111826" lon="8.664548">
        <ele>67.315211</ele>
        <time>2025-09-30T17:44:34.609Z</time>
      </trkpt>
      <trkpt lat="52.111757" lon="8.664460">
        <ele>67.150704</ele>
        <time>2025-09-30T17:44:37.421Z</time>
      </trkpt>
      <trkpt lat="52.111727" lon="8.664171">
        <ele>66.946194</ele>
        <time>2025-09-30T17:44:43.159Z</time>
      </trkpt>
      <trkpt lat="52.111693" lon="8.663928">
        <ele>66.931659</ele>
        <time>2025-09-30T17:44:48.153Z</time>
      </trkpt>
      <trkpt lat="52.111580" lon="8.663657">
        <ele>66.912556</ele>
        <time>2025-09-30T17:44:54.719Z</time>
      </trkpt>
      <trkpt lat="52.111446" lon="8.663378">
        <ele>66.891900</ele>
        <time>2025-09-30T17:45:01.834Z</time>
      </trkpt>
      <trkpt lat="52.111163" lon="8.662788">
        <ele>66.848240</ele>
        <time>2025-09-30T17:45:16.854Z</time>
      </trkpt>
      <trkpt lat="52.111015" lon="8.662570">
        <ele>66.829288</ele>
        <time>2025-09-30T17:45:23.406Z</time>
      </trkpt>
      <trkpt lat="52.110935" lon="8.662380">
        <ele>66.815853</ele>
        <time>2025-09-30T17:45:28.048Z</time>
      </trkpt>
      <trkpt lat="52.110573" lon="8.661747">
        <ele>66.991574</ele>
        <time>2025-09-30T17:45:45.631Z</time>
      </trkpt>
      <trkpt lat="52.110417" lon="8.661496">
        <ele>67.246426</ele>
        <time>2025-09-30T17:45:52.879Z</time>
      </trkpt>
      <trkpt lat="52.109852" lon="8.660704">
        <ele>68.112767</ele>
        <time>2025-09-30T17:46:17.624Z</time>
      </trkpt>
      <trkpt lat="52.109768" lon="8.660587">
        <ele>68.241221</ele>
        <time>2025-09-30T17:46:21.287Z</time>
      </trkpt>
      <trkpt lat="52.109588" lon="8.660224">
        <ele>68.574186</ele>
        <time>2025-09-30T17:46:30.790Z</time>
      </trkpt>
      <trkpt lat="52.109547" lon="8.660062">
        <ele>68.699234</ele>
        <time>2025-09-30T17:46:34.359Z</time>
      </trkpt>
      <trkpt lat="52.109445" lon="8.659940">
        <ele>68.846306</ele>
        <time>2025-09-30T17:46:38.569Z</time>
      </trkpt>
      <trkpt lat="52.109408" lon="8.659943">
        <ele>68.887204</ele>
        <time>2025-09-30T17:46:39.782Z</time>
      </trkpt>
      <trkpt lat="52.109201" lon="8.659730">
        <ele>69.135216</ele>
        <time>2025-09-30T17:46:47.922Z</time>
      </trkpt>
      <trkpt lat="52.108824" lon="8.659097">
        <ele>69.683702</ele>
        <time>2025-09-30T17:47:05.936Z</time>
      </trkpt>
      <trkpt lat="52.108802" lon="8.659105">
        <ele>69.706533</ele>
        <time>2025-09-30T17:47:06.691Z</time>
      </trkpt>
      <trkpt lat="52.108685" lon="8.659121">
        <ele>69.825451</ele>
        <time>2025-09-30T17:47:10.587Z</time>
      </trkpt>
      <trkpt lat="52.108182" lon="8.658966">
        <ele>70.343945</ele>
        <time>2025-09-30T17:47:27.508Z</time>
      </trkpt>
      <trkpt lat="52.108055" lon="8.659058">
        <ele>70.484730</ele>
        <time>2025-09-30T17:47:32.088Z</time>
      </trkpt>
      <trkpt lat="52.107867" lon="8.659001">
        <ele>70.678415</ele>
        <time>2025-09-30T17:47:37.046Z</time>
      </trkpt>
      <trkpt lat="52.107340" lon="8.658882">
        <ele>70.699036</ele>
        <time>2025-09-30T17:47:51.021Z</time>
      </trkpt>
      <trkpt lat="52.106949" lon="8.658895">
        <ele>70.702608</ele>
        <time>2025-09-30T17:48:00.796Z</time>
      </trkpt>
      <trkpt lat="52.106478" lon="8.659045">
        <ele>70.706992</ele>
        <time>2025-09-30T17:48:12.386Z</time>
      </trkpt>
      <trkpt lat="52.104948" lon="8.659533">
        <ele>71.013099</ele>
        <time>2025-09-30T17:48:51.326Z</time>
      </trkpt>
      <trkpt lat="52.104752" lon="8.659654">
        <ele>71.068316</ele>
        <time>2025-09-30T17:48:56.749Z</time>
      </trkpt>
      <trkpt lat="52.104613" lon="8.659829">
        <ele>71.114602</ele>
        <time>2025-09-30T17:49:01.330Z</time>
      </trkpt>
      <trkpt lat="52.104328" lon="8.659347">
        <ele>71.517710</ele>
        <time>2025-09-30T17:49:12.590Z</time>
      </trkpt>
      <trkpt lat="52.103892" lon="8.658858">
        <ele>72.730709</ele>
        <time>2025-09-30T17:49:27.495Z</time>
      </trkpt>
      <trkpt lat="52.103774" lon="8.658733">
        <ele>73.053247</ele>
        <time>2025-09-30T17:49:31.488Z</time>
      </trkpt>
      <trkpt lat="52.103713" lon="8.658672">
        <ele>73.217262</ele>
        <time>2025-09-30T17:49:33.536Z</time>
      </trkpt>
      <trkpt lat="52.103523" lon="8.658479">
        <ele>73.730349</ele>
        <time>2025-09-30T17:49:39.974Z</time>
      </trkpt>
      <trkpt lat="52.103257" lon="8.658229">
        <ele>74.434037</ele>
        <time>2025-09-30T17:49:48.975Z</time>
      </trkpt>
      <trkpt lat="52.102565" lon="8.657652">
        <ele>76.137060</ele>
        <time>2025-09-30T17:50:12.129Z</time>
      </trkpt>
      <trkpt lat="52.102183" lon="8.657375">
        <ele>77.012752</ele>
        <time>2025-09-30T17:50:24.235Z</time>
      </trkpt>
      <trkpt lat="52.102077" lon="8.657298">
        <ele>77.255817</ele>
        <time>2025-09-30T17:50:27.630Z</time>
      </trkpt>
      <trkpt lat="52.101891" lon="8.657178">
        <ele>77.674782</ele>
        <time>2025-09-30T17:50:33.205Z</time>
      </trkpt>
      <trkpt lat="52.101620" lon="8.656994">
        <ele>78.289649</ele>
        <time>2025-09-30T17:50:41.113Z</time>
      </trkpt>
      <trkpt lat="52.101508" lon="8.656918">
        <ele>78.543742</ele>
        <time>2025-09-30T17:50:44.341Z</time>
      </trkpt>
      <trkpt lat="52.101399" lon="8.656840">
        <ele>78.793072</ele>
        <time>2025-09-30T17:50:47.542Z</time>
      </trkpt>
      <trkpt lat="52.101319" lon="8.656784">
        <ele>78.975427</ele>
        <time>2025-09-30T17:50:49.864Z</time>
      </trkpt>
      <trkpt lat="52.101171" lon="8.656682">
        <ele>79.066577</ele>
        <time>2025-09-30T17:50:54.033Z</time>
      </trkpt>
      <trkpt lat="52.101107" lon="8.656623">
        <ele>79.063198</ele>
        <time>2025-09-30T17:50:55.872Z</time>
      </trkpt>
      <trkpt lat="52.101042" lon="8.656572">
        <ele>79.059883</ele>
        <time>2025-09-30T17:50:57.720Z</time>
      </trkpt>
      <trkpt lat="52.101022" lon="8.656632">
        <ele>79.057956</ele>
        <time>2025-09-30T17:50:59.064Z</time>
      </trkpt>
      <trkpt lat="52.101018" lon="8.656645">
        <ele>79.057546</ele>
        <time>2025-09-30T17:50:59.355Z</time>
      </trkpt>
      <trkpt lat="52.101059" lon="8.656682">
        <ele>79.055392</ele>
        <time>2025-09-30T17:51:00.850Z</time>
      </trkpt>
      <trkpt lat="52.101100" lon="8.656716">
        <ele>79.053278</ele>
        <time>2025-09-30T17:51:02.011Z</time>
      </trkpt>
      <trkpt lat="52.101191" lon="8.656786">
        <ele>79.048654</ele>
        <time>2025-09-30T17:51:04.395Z</time>
      </trkpt>
      <trkpt lat="52.101222" lon="8.656811">
        <ele>79.047064</ele>
        <time>2025-09-30T17:51:05.235Z</time>
      </trkpt>
      <trkpt lat="52.101342" lon="8.656902">
        <ele>79.040982</ele>
        <time>2025-09-30T17:51:09.428Z</time>
      </trkpt>
      <trkpt lat="52.101456" lon="8.656991">
        <ele>79.035173</ele>
        <time>2025-09-30T17:51:13.503Z</time>
      </trkpt>
      <trkpt lat="52.101468" lon="8.657032">
        <ele>79.033892</ele>
        <time>2025-09-30T17:51:14.389Z</time>
      </trkpt>
      <trkpt lat="52.101483" lon="8.657083">
        <ele>79.032296</ele>
        <time>2025-09-30T17:51:15.535Z</time>
      </trkpt>
      <trkpt lat="52.101492" lon="8.657115">
        <ele>79.031302</ele>
        <time>2025-09-30T17:51:16.236Z</time>
      </trkpt>
      <trkpt lat="52.101474" lon="8.657157">
        <ele>79.029857</ele>
        <time>2025-09-30T17:51:17.266Z</time>
      </trkpt>
      <trkpt lat="52.101382" lon="8.657431">
        <ele>79.021044</ele>
        <time>2025-09-30T17:51:23.522Z</time>
      </trkpt>
      <trkpt lat="52.101288" lon="8.657575">
        <ele>79.015114</ele>
        <time>2025-09-30T17:51:26.722Z</time>
      </trkpt>
      <trkpt lat="52.100787" lon="8.658124">
        <ele>78.988679</ele>
        <time>2025-09-30T17:51:41.573Z</time>
      </trkpt>
      <trkpt lat="52.100688" lon="8.658188">
        <ele>78.987271</ele>
        <time>2025-09-30T17:51:44.346Z</time>
      </trkpt>
      <trkpt lat="52.100625" lon="8.658285">
        <ele>78.986126</ele>
        <time>2025-09-30T17:51:46.578Z</time>
      </trkpt>
      <trkpt lat="52.100068" lon="8.659467">
        <ele>78.974037</ele>
        <time>2025-09-30T17:52:10.411Z</time>
      </trkpt>
      <trkpt lat="52.099771" lon="8.660096">
        <ele>78.967599</ele>
        <time>2025-09-30T17:52:23.005Z</time>
      </trkpt>
      <trkpt lat="52.099390" lon="8.662159">
        <ele>77.047808</ele>
        <time>2025-09-30T17:52:51.824Z</time>
      </trkpt>
      <trkpt lat="52.099372" lon="8.662259">
        <ele>76.942026</ele>
        <time>2025-09-30T17:52:53.113Z</time>
      </trkpt>
      <trkpt lat="52.099347" lon="8.662794">
        <ele>76.397361</ele>
        <time>2025-09-30T17:52:59.714Z</time>
      </trkpt>
      <trkpt lat="52.099306" lon="8.663678">
        <ele>76.271765</ele>
        <time>2025-09-30T17:53:11.116Z</time>
      </trkpt>
      <trkpt lat="52.099273" lon="8.663799">
        <ele>76.347298</ele>
        <time>2025-09-30T17:53:12.938Z</time>
      </trkpt>
      <trkpt lat="52.099075" lon="8.663797">
        <ele>76.531199</ele>
        <time>2025-09-30T17:53:17.650Z</time>
      </trkpt>
      <trkpt lat="52.098918" lon="8.663839">
        <ele>76.678972</ele>
        <time>2025-09-30T17:53:21.628Z</time>
      </trkpt>
      <trkpt lat="52.098786" lon="8.664058">
        <ele>76.854022</ele>
        <time>2025-09-30T17:53:26.608Z</time>
      </trkpt>
      <trkpt lat="52.098774" lon="8.664113">
        <ele>76.887322</ele>
        <time>2025-09-30T17:53:27.570Z</time>
      </trkpt>
      <trkpt lat="52.098711" lon="8.664414">
        <ele>77.068751</ele>
        <time>2025-09-30T17:53:32.902Z</time>
      </trkpt>
      <trkpt lat="52.098473" lon="8.665772">
        <ele>78.529332</ele>
        <time>2025-09-30T17:53:58.002Z</time>
      </trkpt>
      <trkpt lat="52.098413" lon="8.666525">
        <ele>80.308444</ele>
        <time>2025-09-30T17:54:12.124Z</time>
      </trkpt>
      <trkpt lat="52.098184" lon="8.669049">
        <ele>86.367053</ele>
        <time>2025-09-30T17:54:58.761Z</time>
      </trkpt>
      <trkpt lat="52.098059" lon="8.670430">
        <ele>89.787231</ele>
        <time>2025-09-30T17:55:24.829Z</time>
      </trkpt>
      <trkpt lat="52.098017" lon="8.671640">
        <ele>92.053580</ele>
        <time>2025-09-30T17:55:46.962Z</time>
      </trkpt>
      <trkpt lat="52.097984" lon="8.672510">
        <ele>92.771208</ele>
        <time>2025-09-30T17:56:02.039Z</time>
      </trkpt>
      <trkpt lat="52.097979" lon="8.673196">
        <ele>93.336026</ele>
        <time>2025-09-30T17:56:13.213Z</time>
      </trkpt>
      <trkpt lat="52.097976" lon="8.673501">
        <ele>93.587163</ele>
        <time>2025-09-30T17:56:17.857Z</time>
      </trkpt>
      <trkpt lat="52.097960" lon="8.674257">
        <ele>94.052183</ele>
        <time>2025-09-30T17:56:28.788Z</time>
      </trkpt>
      <trkpt lat="52.097944" lon="8.675470">
        <ele>93.500680</ele>
        <time>2025-09-30T17:56:45.432Z</time>
      </trkpt>
      <trkpt lat="52.097935" lon="8.676056">
        <ele>93.234226</ele>
        <time>2025-09-30T17:56:53.645Z</time>
      </trkpt>
      <trkpt lat="52.097923" lon="8.676948">
        <ele>92.828665</ele>
        <time>2025-09-30T17:57:07.096Z</time>
      </trkpt>
      <trkpt lat="52.097922" lon="8.677066">
        <ele>92.775338</ele>
        <time>2025-09-30T17:57:08.953Z</time>
      </trkpt>
      <trkpt lat="52.097915" lon="8.677646">
        <ele>92.546506</ele>
        <time>2025-09-30T17:57:18.154Z</time>
      </trkpt>
      <trkpt lat="52.097923" lon="8.677951">
        <ele>92.426085</ele>
        <time>2025-09-30T17:57:22.922Z</time>
      </trkpt>
      <trkpt lat="52.097975" lon="8.678406">
        <ele>92.243526</ele>
        <time>2025-09-30T17:57:30.017Z</time>
      </trkpt>
      <trkpt lat="52.098076" lon="8.678966">
        <ele>92.013304</ele>
        <time>2025-09-30T17:57:38.691Z</time>
      </trkpt>
      <trkpt lat="52.098273" lon="8.680066">
        <ele>91.480607</ele>
        <time>2025-09-30T17:57:54.484Z</time>
      </trkpt>
      <trkpt lat="52.098536" lon="8.681494">
        <ele>90.115999</ele>
        <time>2025-09-30T17:58:13.488Z</time>
      </trkpt>
      <trkpt lat="52.098543" lon="8.681738">
        <ele>89.892410</ele>
        <time>2025-09-30T17:58:16.749Z</time>
      </trkpt>
      <trkpt lat="52.098486" lon="8.681765">
        <ele>89.803954</ele>
        <time>2025-09-30T17:58:18.124Z</time>
      </trkpt>
      <trkpt lat="52.098451" lon="8.681843">
        <ele>89.715537</ele>
        <time>2025-09-30T17:58:19.498Z</time>
      </trkpt>
      <trkpt lat="52.098458" lon="8.681956">
        <ele>89.611578</ele>
        <time>2025-09-30T17:58:21.092Z</time>
      </trkpt>
      <trkpt lat="52.098512" lon="8.682027">
        <ele>89.508146</ele>
        <time>2025-09-30T17:58:22.758Z</time>
      </trkpt>
      <trkpt lat="52.097943" lon="8.682943">
        <ele>88.797203</ele>
        <time>2025-09-30T17:58:42.013Z</time>
      </trkpt>
      <trkpt lat="52.097541" lon="8.683543">
        <ele>88.608927</ele>
        <time>2025-09-30T17:58:56.202Z</time>
      </trkpt>
      <trkpt lat="52.097334" lon="8.683915">
        <ele>88.502486</ele>
        <time>2025-09-30T17:59:03.985Z</time>
      </trkpt>
      <trkpt lat="52.097189" lon="8.684260">
        <ele>88.413839</ele>
        <time>2025-09-30T17:59:10.212Z</time>
      </trkpt>
      <trkpt lat="52.097128" lon="8.684408">
        <ele>88.376043</ele>
        <time>2025-09-30T17:59:12.822Z</time>
      </trkpt>
      <trkpt lat="52.096933" lon="8.684887">
        <ele>87.989102</ele>
        <time>2025-09-30T17:59:21.050Z</time>
      </trkpt>
      <trkpt lat="52.096618" lon="8.685489">
        <ele>87.160844</ele>
        <time>2025-09-30T17:59:31.920Z</time>
      </trkpt>
      <trkpt lat="52.096516" lon="8.685683">
        <ele>86.893389</ele>
        <time>2025-09-30T17:59:35.334Z</time>
      </trkpt>
      <trkpt lat="52.096062" lon="8.686549">
        <ele>85.700949</ele>
        <time>2025-09-30T17:59:50.124Z</time>
      </trkpt>
      <trkpt lat="52.095754" lon="8.687135">
        <ele>84.586044</ele>
        <time>2025-09-30T17:59:59.896Z</time>
      </trkpt>
      <trkpt lat="52.095648" lon="8.687440">
        <ele>83.907331</ele>
        <time>2025-09-30T18:00:04.196Z</time>
      </trkpt>
      <trkpt lat="52.095608" lon="8.687573">
        <ele>83.620519</ele>
        <time>2025-09-30T18:00:05.987Z</time>
      </trkpt>
      <trkpt lat="52.095459" lon="8.688073">
        <ele>82.544176</ele>
        <time>2025-09-30T18:00:12.585Z</time>
      </trkpt>
      <trkpt lat="52.095336" lon="8.688475">
        <ele>81.674338</ele>
        <time>2025-09-30T18:00:17.851Z</time>
      </trkpt>
      <trkpt lat="52.095255" lon="8.688682">
        <ele>81.198987</ele>
        <time>2025-09-30T18:00:20.705Z</time>
      </trkpt>
      <trkpt lat="52.095151" lon="8.688849">
        <ele>80.738412</ele>
        <time>2025-09-30T18:00:23.472Z</time>
      </trkpt>
      <trkpt lat="52.094944" lon="8.689101">
        <ele>79.923469</ele>
        <time>2025-09-30T18:00:28.407Z</time>
      </trkpt>
      <trkpt lat="52.094812" lon="8.689210">
        <ele>79.544319</ele>
        <time>2025-09-30T18:00:31.296Z</time>
      </trkpt>
      <trkpt lat="52.094522" lon="8.689351">
        <ele>79.245078</ele>
        <time>2025-09-30T18:00:37.347Z</time>
      </trkpt>
      <trkpt lat="52.094202" lon="8.689383">
        <ele>78.928098</ele>
        <time>2025-09-30T18:00:43.915Z</time>
      </trkpt>
      <trkpt lat="52.093925" lon="8.689329">
        <ele>78.652271</ele>
        <time>2025-09-30T18:00:50.096Z</time>
      </trkpt>
      <trkpt lat="52.093704" lon="8.689285">
        <ele>78.432140</ele>
        <time>2025-09-30T18:00:55.506Z</time>
      </trkpt>
      <trkpt lat="52.093664" lon="8.689286">
        <ele>78.392587</ele>
        <time>2025-09-30T18:00:56.523Z</time>
      </trkpt>
      <trkpt lat="52.093506" lon="8.689363">
        <ele>78.229521</ele>
        <time>2025-09-30T18:01:00.763Z</time>
      </trkpt>
      <trkpt lat="52.093337" lon="8.689554">
        <ele>78.026101</ele>
        <time>2025-09-30T18:01:06.200Z</time>
      </trkpt>
      <trkpt lat="52.093145" lon="8.689840">
        <ele>77.856834</ele>
        <time>2025-09-30T18:01:13.213Z</time>
      </trkpt>
      <trkpt lat="52.093114" lon="8.689886">
        <ele>77.913532</ele>
        <time>2025-09-30T18:01:14.353Z</time>
      </trkpt>
      <trkpt lat="52.092953" lon="8.690121">
        <ele>78.205822</ele>
        <time>2025-09-30T18:01:20.236Z</time>
      </trkpt>
      <trkpt lat="52.092672" lon="8.690525">
        <ele>78.712571</ele>
        <time>2025-09-30T18:01:30.414Z</time>
      </trkpt>
      <trkpt lat="52.092414" lon="8.690895">
        <ele>79.177332</ele>
        <time>2025-09-30T18:01:39.780Z</time>
      </trkpt>
      <trkpt lat="52.092012" lon="8.691471">
        <ele>79.901215</ele>
        <time>2025-09-30T18:01:54.326Z</time>
      </trkpt>
      <trkpt lat="52.091724" lon="8.692120">
        <ele>80.229137</ele>
        <time>2025-09-30T18:02:07.360Z</time>
      </trkpt>
      <trkpt lat="52.091376" lon="8.693215">
        <ele>80.204617</ele>
        <time>2025-09-30T18:02:27.250Z</time>
      </trkpt>
      <trkpt lat="52.091212" lon="8.693585">
        <ele>80.195543</ele>
        <time>2025-09-30T18:02:34.379Z</time>
      </trkpt>
      <trkpt lat="52.091081" lon="8.693871">
        <ele>80.188447</ele>
        <time>2025-09-30T18:02:39.588Z</time>
      </trkpt>
      <trkpt lat="52.090931" lon="8.694048">
        <ele>80.182450</ele>
        <time>2025-09-30T18:02:43.747Z</time>
      </trkpt>
      <trkpt lat="52.090923" lon="8.694058">
        <ele>80.182123</ele>
        <time>2025-09-30T18:02:43.975Z</time>
      </trkpt>
      <trkpt lat="52.090759" lon="8.694150">
        <ele>79.960467</ele>
        <time>2025-09-30T18:02:47.704Z</time>
      </trkpt>
      <trkpt lat="52.090565" lon="8.694173">
        <ele>79.358497</ele>
        <time>2025-09-30T18:02:51.749Z</time>
      </trkpt>
      <trkpt lat="52.090560" lon="8.694358">
        <ele>79.006388</ele>
        <time>2025-09-30T18:02:54.088Z</time>
      </trkpt>
      <trkpt lat="52.090564" lon="8.694509">
        <ele>78.719002</ele>
        <time>2025-09-30T18:02:55.963Z</time>
      </trkpt>
      <trkpt lat="52.090613" lon="8.694688">
        <ele>78.346390</ele>
        <time>2025-09-30T18:02:58.416Z</time>
      </trkpt>
      <trkpt lat="52.090899" lon="8.695077">
        <ele>77.192920</ele>
        <time>2025-09-30T18:03:05.816Z</time>
      </trkpt>
      <trkpt lat="52.091141" lon="8.695368">
        <ele>76.261765</ele>
        <time>2025-09-30T18:03:11.569Z</time>
      </trkpt>
      <trkpt lat="52.091300" lon="8.695589">
        <ele>75.614689</ele>
        <time>2025-09-30T18:03:15.431Z</time>
      </trkpt>
      <trkpt lat="52.091381" lon="8.695702">
        <ele>75.284535</ele>
        <time>2025-09-30T18:03:17.356Z</time>
      </trkpt>
      <trkpt lat="52.091521" lon="8.695839">
        <ele>74.778991</ele>
        <time>2025-09-30T18:03:20.330Z</time>
      </trkpt>
      <trkpt lat="52.091596" lon="8.695925">
        <ele>74.516137</ele>
        <time>2025-09-30T18:03:22.006Z</time>
      </trkpt>
      <trkpt lat="52.091735" lon="8.696222">
        <ele>73.933640</ele>
        <time>2025-09-30T18:03:26.295Z</time>
      </trkpt>
      <trkpt lat="52.091948" lon="8.696678">
        <ele>73.039941</ele>
        <time>2025-09-30T18:03:33.182Z</time>
      </trkpt>
      <trkpt lat="52.092014" lon="8.696897">
        <ele>72.659374</ele>
        <time>2025-09-30T18:03:36.272Z</time>
      </trkpt>
      <trkpt lat="52.092031" lon="8.697066">
        <ele>72.392195</ele>
        <time>2025-09-30T18:03:38.468Z</time>
      </trkpt>
      <trkpt lat="52.092017" lon="8.697363">
        <ele>71.927464</ele>
        <time>2025-09-30T18:03:42.397Z</time>
      </trkpt>
      <trkpt lat="52.092013" lon="8.697442">
        <ele>71.803793</ele>
        <time>2025-09-30T18:03:43.440Z</time>
      </trkpt>
      <trkpt lat="52.091944" lon="8.697970">
        <ele>70.961597</ele>
        <time>2025-09-30T18:03:50.460Z</time>
      </trkpt>
      <trkpt lat="52.091670" lon="8.698716">
        <ele>69.861327</ele>
        <time>2025-09-30T18:04:01.986Z</time>
      </trkpt>
      <trkpt lat="52.091617" lon="8.699048">
        <ele>69.637567</ele>
        <time>2025-09-30T18:04:06.969Z</time>
      </trkpt>
      <trkpt lat="52.091346" lon="8.699875">
        <ele>69.026169</ele>
        <time>2025-09-30T18:04:25.607Z</time>
      </trkpt>
      <trkpt lat="52.090692" lon="8.701800">
        <ele>67.888825</ele>
        <time>2025-09-30T18:04:56.316Z</time>
      </trkpt>
      <trkpt lat="52.090475" lon="8.701986">
        <ele>67.770821</ele>
        <time>2025-09-30T18:05:02.199Z</time>
      </trkpt>
      <trkpt lat="52.090565" lon="8.702056">
        <ele>67.722827</ele>
        <time>2025-09-30T18:05:04.608Z</time>
      </trkpt>
      <trkpt lat="52.090889" lon="8.702346">
        <ele>67.544916</ele>
        <time>2025-09-30T18:05:13.694Z</time>
      </trkpt>
      <trkpt lat="52.090948" lon="8.702400">
        <ele>67.512347</ele>
        <time>2025-09-30T18:05:15.369Z</time>
      </trkpt>
      <trkpt lat="52.090572" lon="8.703963">
        <ele>67.372423</ele>
        <time>2025-09-30T18:05:44.262Z</time>
      </trkpt>
      <trkpt lat="52.090207" lon="8.705327">
        <ele>67.549813</ele>
        <time>2025-09-30T18:06:10.218Z</time>
      </trkpt>
      <trkpt lat="52.089985" lon="8.706013">
        <ele>67.619765</ele>
        <time>2025-09-30T18:06:23.612Z</time>
      </trkpt>
      <trkpt lat="52.089133" lon="8.708182">
        <ele>67.629007</ele>
        <time>2025-09-30T18:07:07.583Z</time>
      </trkpt>
      <trkpt lat="52.089102" lon="8.708326">
        <ele>67.629555</ele>
        <time>2025-09-30T18:07:10.169Z</time>
      </trkpt>
      <trkpt lat="52.089128" lon="8.708454">
        <ele>67.638689</ele>
        <time>2025-09-30T18:07:12.289Z</time>
      </trkpt>
      <trkpt lat="52.089084" lon="8.708772">
        <ele>67.661727</ele>
        <time>2025-09-30T18:07:17.335Z</time>
      </trkpt>
      <trkpt lat="52.088912" lon="8.709681">
        <ele>67.728951</ele>
        <time>2025-09-30T18:07:32.243Z</time>
      </trkpt>
      <trkpt lat="52.088759" lon="8.711638">
        <ele>67.828128</ele>
        <time>2025-09-30T18:08:03.138Z</time>
      </trkpt>
      <trkpt lat="52.088526" lon="8.712550">
        <ele>67.809877</ele>
        <time>2025-09-30T18:08:18.369Z</time>
      </trkpt>
      <trkpt lat="52.088310" lon="8.713025">
        <ele>67.798957</ele>
        <time>2025-09-30T18:08:27.402Z</time>
      </trkpt>
      <trkpt lat="52.087730" lon="8.714008">
        <ele>67.885852</ele>
        <time>2025-09-30T18:08:48.284Z</time>
      </trkpt>
      <trkpt lat="52.087348" lon="8.715563">
        <ele>68.257951</ele>
        <time>2025-09-30T18:09:14.749Z</time>
      </trkpt>
      <trkpt lat="52.086974" lon="8.716514">
        <ele>68.574707</ele>
        <time>2025-09-30T18:09:33.092Z</time>
      </trkpt>
      <trkpt lat="52.086836" lon="8.717134">
        <ele>68.848150</ele>
        <time>2025-09-30T18:09:43.834Z</time>
      </trkpt>
      <trkpt lat="52.086644" lon="8.717985">
        <ele>69.224072</ele>
        <time>2025-09-30T18:09:58.526Z</time>
      </trkpt>
      <trkpt lat="52.086529" lon="8.718450">
        <ele>69.431927</ele>
        <time>2025-09-30T18:10:06.630Z</time>
      </trkpt>
      <trkpt lat="52.086507" lon="8.718542">
        <ele>69.472865</ele>
        <time>2025-09-30T18:10:08.195Z</time>
      </trkpt>
      <trkpt lat="52.086377" lon="8.719063">
        <ele>69.672806</ele>
        <time>2025-09-30T18:10:17.124Z</time>
      </trkpt>
      <trkpt lat="52.086264" lon="8.719482">
        <ele>69.756470</ele>
        <time>2025-09-30T18:10:24.331Z</time>
      </trkpt>
      <trkpt lat="52.086098" lon="8.720035">
        <ele>69.869001</ele>
        <time>2025-09-30T18:10:33.976Z</time>
      </trkpt>
      <trkpt lat="52.085989" lon="8.720596">
        <ele>69.976581</ele>
        <time>2025-09-30T18:10:43.253Z</time>
      </trkpt>
      <trkpt lat="52.085749" lon="8.721686">
        <ele>70.188165</ele>
        <time>2025-09-30T18:11:01.620Z</time>
      </trkpt>
      <trkpt lat="52.085593" lon="8.722395">
        <ele>70.323275</ele>
        <time>2025-09-30T18:11:13.500Z</time>
      </trkpt>
      <trkpt lat="52.085304" lon="8.723590">
        <ele>70.553678</ele>
        <time>2025-09-30T18:11:33.742Z</time>
      </trkpt>
      <trkpt lat="52.085048" lon="8.724458">
        <ele>70.732495</ele>
        <time>2025-09-30T18:11:48.951Z</time>
      </trkpt>
      <trkpt lat="52.084791" lon="8.725415">
        <ele>70.978359</ele>
        <time>2025-09-30T18:12:05.604Z</time>
      </trkpt>
      <trkpt lat="52.084947" lon="8.725509">
        <ele>71.042088</ele>
        <time>2025-09-30T18:12:09.965Z</time>
      </trkpt>
      <trkpt lat="52.085031" lon="8.725644">
        <ele>71.087316</ele>
        <time>2025-09-30T18:12:13.048Z</time>
      </trkpt>
      <trkpt lat="52.085033" lon="8.725941">
        <ele>71.157238</ele>
        <time>2025-09-30T18:12:17.828Z</time>
      </trkpt>
      <trkpt lat="52.085091" lon="8.726582">
        <ele>71.309764</ele>
        <time>2025-09-30T18:12:28.112Z</time>
      </trkpt>
      <trkpt lat="52.085081" lon="8.726901">
        <ele>71.384958</ele>
        <time>2025-09-30T18:12:33.147Z</time>
      </trkpt>
      <trkpt lat="52.084881" lon="8.728150">
        <ele>71.441165</ele>
        <time>2025-09-30T18:12:53.427Z</time>
      </trkpt>
      <trkpt lat="52.084873" lon="8.728441">
        <ele>71.451742</ele>
        <time>2025-09-30T18:12:57.980Z</time>
      </trkpt>
      <trkpt lat="52.084950" lon="8.729299">
        <ele>71.483229</ele>
        <time>2025-09-30T18:13:11.185Z</time>
      </trkpt>
      <trkpt lat="52.084906" lon="8.730067">
        <ele>71.512414</ele>
        <time>2025-09-30T18:13:23.013Z</time>
      </trkpt>
      <trkpt lat="52.084864" lon="8.730451">
        <ele>71.528438</ele>
        <time>2025-09-30T18:13:29.018Z</time>
      </trkpt>
      <trkpt lat="52.084793" lon="8.730996">
        <ele>71.551327</ele>
        <time>2025-09-30T18:13:37.665Z</time>
      </trkpt>
      <trkpt lat="52.084733" lon="8.732022">
        <ele>71.593671</ele>
        <time>2025-09-30T18:13:53.836Z</time>
      </trkpt>
      <trkpt lat="52.084698" lon="8.732464">
        <ele>71.611980</ele>
        <time>2025-09-30T18:14:00.811Z</time>
      </trkpt>
      <trkpt lat="52.084632" lon="8.732553">
        <ele>71.617711</ele>
        <time>2025-09-30T18:14:02.976Z</time>
      </trkpt>
      <trkpt lat="52.084502" lon="8.732629">
        <ele>71.621642</ele>
        <time>2025-09-30T18:14:06.488Z</time>
      </trkpt>
      <trkpt lat="52.084478" lon="8.732882">
        <ele>71.619490</ele>
        <time>2025-09-30T18:14:10.459Z</time>
      </trkpt>
      <trkpt lat="52.084375" lon="8.733154">
        <ele>71.616804</ele>
        <time>2025-09-30T18:14:15.463Z</time>
      </trkpt>
      <trkpt lat="52.084374" lon="8.733410">
        <ele>71.614651</ele>
        <time>2025-09-30T18:14:19.457Z</time>
      </trkpt>
      <trkpt lat="52.084295" lon="8.733522">
        <ele>71.613218</ele>
        <time>2025-09-30T18:14:22.117Z</time>
      </trkpt>
      <trkpt lat="52.084020" lon="8.734144">
        <ele>71.606776</ele>
        <time>2025-09-30T18:14:33.987Z</time>
      </trkpt>
      <trkpt lat="52.082949" lon="8.736799">
        <ele>71.495153</ele>
        <time>2025-09-30T18:15:22.551Z</time>
      </trkpt>
      <trkpt lat="52.082636" lon="8.737549">
        <ele>71.481117</ele>
        <time>2025-09-30T18:15:36.515Z</time>
      </trkpt>
      <trkpt lat="52.081893" lon="8.739043">
        <ele>71.938973</ele>
        <time>2025-09-30T18:16:06.838Z</time>
      </trkpt>
      <trkpt lat="52.081060" lon="8.741120">
        <ele>72.813913</ele>
        <time>2025-09-30T18:16:47.125Z</time>
      </trkpt>
      <trkpt lat="52.081046" lon="8.741179">
        <ele>72.840356</ele>
        <time>2025-09-30T18:16:48.144Z</time>
      </trkpt>
      <trkpt lat="52.080990" lon="8.741414">
        <ele>72.945741</ele>
        <time>2025-09-30T18:16:52.238Z</time>
      </trkpt>
      <trkpt lat="52.080833" lon="8.741859">
        <ele>73.160282</ele>
        <time>2025-09-30T18:17:00.541Z</time>
      </trkpt>
      <trkpt lat="52.080658" lon="8.742355">
        <ele>73.368516</ele>
        <time>2025-09-30T18:17:09.750Z</time>
      </trkpt>
      <trkpt lat="52.079973" lon="8.741624">
        <ele>73.147142</ele>
        <time>2025-09-30T18:17:30.455Z</time>
      </trkpt>
      <trkpt lat="52.079534" lon="8.741118">
        <ele>73.001757</ele>
        <time>2025-09-30T18:17:43.274Z</time>
      </trkpt>
      <trkpt lat="52.079148" lon="8.741905">
        <ele>72.799701</ele>
        <time>2025-09-30T18:17:57.960Z</time>
      </trkpt>
      <trkpt lat="52.079067" lon="8.742071">
        <ele>72.742876</ele>
        <time>2025-09-30T18:18:01.044Z</time>
      </trkpt>
      <trkpt lat="52.079041" lon="8.742123">
        <ele>72.724905</ele>
        <time>2025-09-30T18:18:02.026Z</time>
      </trkpt>
      <trkpt lat="52.078920" lon="8.742383">
        <ele>72.637471</ele>
        <time>2025-09-30T18:18:06.808Z</time>
      </trkpt>
      <trkpt lat="52.078853" lon="8.742503">
        <ele>72.594006</ele>
        <time>2025-09-30T18:18:09.216Z</time>
      </trkpt>
      <trkpt lat="52.078711" lon="8.742610">
        <ele>72.525742</ele>
        <time>2025-09-30T18:18:12.986Z</time>
      </trkpt>
      <trkpt lat="52.078200" lon="8.743032">
        <ele>72.275764</ele>
        <time>2025-09-30T18:18:27.107Z</time>
      </trkpt>
      <trkpt lat="52.077663" lon="8.743476">
        <ele>72.004968</ele>
        <time>2025-09-30T18:18:42.238Z</time>
      </trkpt>
      <trkpt lat="52.077414" lon="8.743979">
        <ele>71.816949</ele>
        <time>2025-09-30T18:18:51.869Z</time>
      </trkpt>
      <trkpt lat="52.077302" lon="8.744205">
        <ele>71.732434</ele>
        <time>2025-09-30T18:18:56.140Z</time>
      </trkpt>
      <trkpt lat="52.077207" lon="8.744403">
        <ele>71.659310</ele>
        <time>2025-09-30T18:18:59.805Z</time>
      </trkpt>
      <trkpt lat="52.077068" lon="8.744517">
        <ele>71.585579</ele>
        <time>2025-09-30T18:19:03.515Z</time>
      </trkpt>
      <trkpt lat="52.076435" lon="8.744828">
        <ele>71.272381</ele>
        <time>2025-09-30T18:19:19.341Z</time>
      </trkpt>
      <trkpt lat="52.076302" lon="8.744941">
        <ele>71.255735</ele>
        <time>2025-09-30T18:19:22.994Z</time>
      </trkpt>
      <trkpt lat="52.076209" lon="8.745009">
        <ele>71.256696</ele>
        <time>2025-09-30T18:19:25.791Z</time>
      </trkpt>
      <trkpt lat="52.075790" lon="8.745316">
        <ele>71.261027</ele>
        <time>2025-09-30T18:19:38.528Z</time>
      </trkpt>
      <trkpt lat="52.075443" lon="8.746032">
        <ele>71.266310</ele>
        <time>2025-09-30T18:19:54.295Z</time>
      </trkpt>
      <trkpt lat="52.075251" lon="8.746512">
        <ele>71.269627</ele>
        <time>2025-09-30T18:20:04.266Z</time>
      </trkpt>
      <trkpt lat="52.075238" lon="8.746564">
        <ele>71.269952</ele>
        <time>2025-09-30T18:20:05.238Z</time>
      </trkpt>
      <trkpt lat="52.075117" lon="8.746937">
        <ele>71.313377</ele>
        <time>2025-09-30T18:20:12.568Z</time>
      </trkpt>
      <trkpt lat="52.074776" lon="8.747445">
        <ele>71.549808</ele>
        <time>2025-09-30T18:20:25.624Z</time>
      </trkpt>
      <trkpt lat="52.074598" lon="8.747806">
        <ele>71.695270</ele>
        <time>2025-09-30T18:20:33.636Z</time>
      </trkpt>
      <trkpt lat="52.074322" lon="8.748314">
        <ele>71.908374</ele>
        <time>2025-09-30T18:20:45.421Z</time>
      </trkpt>
      <trkpt lat="52.073949" lon="8.748819">
        <ele>72.156518</ele>
        <time>2025-09-30T18:20:59.441Z</time>
      </trkpt>
      <trkpt lat="52.073802" lon="8.749068">
        <ele>72.310668</ele>
        <time>2025-09-30T18:21:05.604Z</time>
      </trkpt>
      <trkpt lat="52.073482" lon="8.749656">
        <ele>72.710480</ele>
        <time>2025-09-30T18:21:19.602Z</time>
      </trkpt>
      <trkpt lat="52.073426" lon="8.749709">
        <ele>72.764138</ele>
        <time>2025-09-30T18:21:21.481Z</time>
      </trkpt>
      <trkpt lat="52.073324" lon="8.749805">
        <ele>72.861737</ele>
        <time>2025-09-30T18:21:24.883Z</time>
      </trkpt>
      <trkpt lat="52.073158" lon="8.749849">
        <ele>73.001039</ele>
        <time>2025-09-30T18:21:29.749Z</time>
      </trkpt>
      <trkpt lat="52.073129" lon="8.749896">
        <ele>73.034942</ele>
        <time>2025-09-30T18:21:30.850Z</time>
      </trkpt>
      <trkpt lat="52.072814" lon="8.750075">
        <ele>73.311296</ele>
        <time>2025-09-30T18:21:39.685Z</time>
      </trkpt>
      <trkpt lat="52.072395" lon="8.750309">
        <ele>73.678209</ele>
        <time>2025-09-30T18:21:51.330Z</time>
      </trkpt>
      <trkpt lat="52.072163" lon="8.750451">
        <ele>73.772348</ele>
        <time>2025-09-30T18:21:57.687Z</time>
      </trkpt>
      <trkpt lat="52.071414" lon="8.750837">
        <ele>74.065683</ele>
        <time>2025-09-30T18:22:17.455Z</time>
      </trkpt>
      <trkpt lat="52.070727" lon="8.751196">
        <ele>74.335083</ele>
        <time>2025-09-30T18:22:36.214Z</time>
      </trkpt>
      <trkpt lat="52.070672" lon="8.751222">
        <ele>74.360952</ele>
        <time>2025-09-30T18:22:37.733Z</time>
      </trkpt>
      <trkpt lat="52.070408" lon="8.751346">
        <ele>74.583744</ele>
        <time>2025-09-30T18:22:44.971Z</time>
      </trkpt>
      <trkpt lat="52.069701" lon="8.751668">
        <ele>75.179014</ele>
        <time>2025-09-30T18:23:04.489Z</time>
      </trkpt>
      <trkpt lat="52.069574" lon="8.751768">
        <ele>75.293412</ele>
        <time>2025-09-30T18:23:08.287Z</time>
      </trkpt>
      <trkpt lat="52.069640" lon="8.751857">
        <ele>75.362918</ele>
        <time>2025-09-30T18:23:10.594Z</time>
      </trkpt>
      <trkpt lat="52.069783" lon="8.752059">
        <ele>75.516471</ele>
        <time>2025-09-30T18:23:15.651Z</time>
      </trkpt>
      <trkpt lat="52.069927" lon="8.752325">
        <ele>75.693126</ele>
        <time>2025-09-30T18:23:21.409Z</time>
      </trkpt>
      <trkpt lat="52.070135" lon="8.753106">
        <ele>75.733868</ele>
        <time>2025-09-30T18:23:34.982Z</time>
      </trkpt>
      <trkpt lat="52.070151" lon="8.753174">
        <ele>75.724736</ele>
        <time>2025-09-30T18:23:36.120Z</time>
      </trkpt>
      <trkpt lat="52.070173" lon="8.753286">
        <ele>75.709990</ele>
        <time>2025-09-30T18:23:37.943Z</time>
      </trkpt>
      <trkpt lat="52.070235" lon="8.753812">
        <ele>75.642820</ele>
        <time>2025-09-30T18:23:46.112Z</time>
      </trkpt>
      <trkpt lat="52.070240" lon="8.753894">
        <ele>75.632486</ele>
        <time>2025-09-30T18:23:47.351Z</time>
      </trkpt>
      <trkpt lat="52.069482" lon="8.753958">
        <ele>75.477625</ele>
        <time>2025-09-30T18:24:06.517Z</time>
      </trkpt>
      <trkpt lat="52.069172" lon="8.753822">
        <ele>75.411712</ele>
        <time>2025-09-30T18:24:14.370Z</time>
      </trkpt>
      <trkpt lat="52.068657" lon="8.753912">
        <ele>75.304690</ele>
        <time>2025-09-30T18:24:27.342Z</time>
      </trkpt>
      <trkpt lat="52.068265" lon="8.753984">
        <ele>75.223180</ele>
        <time>2025-09-30T18:24:37.520Z</time>
      </trkpt>
      <trkpt lat="52.068164" lon="8.753993">
        <ele>75.202280</ele>
        <time>2025-09-30T18:24:40.189Z</time>
      </trkpt>
      <trkpt lat="52.067745" lon="8.754017">
        <ele>75.115652</ele>
        <time>2025-09-30T18:24:51.318Z</time>
      </trkpt>
      <trkpt lat="52.067240" lon="8.754046">
        <ele>75.138840</ele>
        <time>2025-09-30T18:25:04.776Z</time>
      </trkpt>
      <trkpt lat="52.067079" lon="8.754053">
        <ele>75.175045</ele>
        <time>2025-09-30T18:25:09.105Z</time>
      </trkpt>
      <trkpt lat="52.066820" lon="8.754069">
        <ele>75.233310</ele>
        <time>2025-09-30T18:25:16.099Z</time>
      </trkpt>
      <trkpt lat="52.066186" lon="8.754107">
        <ele>75.375930</ele>
        <time>2025-09-30T18:25:33.042Z</time>
      </trkpt>
      <trkpt lat="52.065584" lon="8.754144">
        <ele>75.394235</ele>
        <time>2025-09-30T18:25:48.965Z</time>
      </trkpt>
      <trkpt lat="52.065304" lon="8.754152">
        <ele>75.244514</ele>
        <time>2025-09-30T18:25:55.888Z</time>
      </trkpt>
      <trkpt lat="52.065092" lon="8.754158">
        <ele>75.131154</ele>
        <time>2025-09-30T18:26:01.033Z</time>
      </trkpt>
      <trkpt lat="52.065023" lon="8.754125">
        <ele>75.092703</ele>
        <time>2025-09-30T18:26:02.767Z</time>
      </trkpt>
      <trkpt lat="52.064944" lon="8.754185">
        <ele>75.046090</ele>
        <time>2025-09-30T18:26:06.391Z</time>
      </trkpt>
      <trkpt lat="52.064231" lon="8.754142">
        <ele>74.664633</ele>
        <time>2025-09-30T18:26:35.459Z</time>
      </trkpt>
      <trkpt lat="52.064107" lon="8.753996">
        <ele>74.582793</ele>
        <time>2025-09-30T18:26:41.702Z</time>
      </trkpt>
      <trkpt lat="52.064070" lon="8.753721">
        <ele>74.517552</ele>
        <time>2025-09-30T18:26:48.862Z</time>
      </trkpt>
      <trkpt lat="52.064081" lon="8.753408">
        <ele>74.527867</ele>
        <time>2025-09-30T18:26:56.865Z</time>
      </trkpt>
      <trkpt lat="52.064087" lon="8.753252">
        <ele>74.533009</ele>
        <time>2025-09-30T18:27:00.858Z</time>
      </trkpt>
      <trkpt lat="52.064064" lon="8.753142">
        <ele>74.536832</ele>
        <time>2025-09-30T18:27:03.809Z</time>
      </trkpt>
      <trkpt lat="52.063966" lon="8.752960">
        <ele>74.544792</ele>
        <time>2025-09-30T18:27:09.967Z</time>
      </trkpt>
      <trkpt lat="52.063900" lon="8.752900">
        <ele>74.548839</ele>
        <time>2025-09-30T18:27:13.084Z</time>
      </trkpt>
      <trkpt lat="52.063525" lon="8.752813">
        <ele>74.569111</ele>
        <time>2025-09-30T18:27:28.648Z</time>
      </trkpt>
      <trkpt lat="52.063286" lon="8.752678">
        <ele>74.582651</ele>
        <time>2025-09-30T18:27:39.001Z</time>
      </trkpt>
      <trkpt lat="52.063075" lon="8.752621">
        <ele>74.594098</ele>
        <time>2025-09-30T18:27:47.772Z</time>
      </trkpt>
      <trkpt lat="52.062778" lon="8.752749">
        <ele>74.610541</ele>
        <time>2025-09-30T18:28:00.320Z</time>
      </trkpt>
      <trkpt lat="52.062526" lon="8.752725">
        <ele>74.751023</ele>
        <time>2025-09-30T18:28:10.558Z</time>
      </trkpt>
      <trkpt lat="52.062465" lon="8.752802">
        <ele>74.796396</ele>
        <time>2025-09-30T18:28:13.708Z</time>
      </trkpt>
      <trkpt lat="52.062292" lon="8.753336">
        <ele>75.014462</ele>
        <time>2025-09-30T18:28:28.816Z</time>
      </trkpt>
      <trkpt lat="52.062191" lon="8.753478">
        <ele>75.092911</ele>
        <time>2025-09-30T18:28:34.261Z</time>
      </trkpt>
      <trkpt lat="52.061859" lon="8.753665">
        <ele>75.299370</ele>
        <time>2025-09-30T18:28:48.595Z</time>
      </trkpt>
      <trkpt lat="52.061608" lon="8.753693">
        <ele>75.447210</ele>
        <time>2025-09-30T18:28:58.875Z</time>
      </trkpt>
      <trkpt lat="52.060593" lon="8.753569">
        <ele>76.055670</ele>
        <time>2025-09-30T18:29:40.261Z</time>
      </trkpt>
      <trkpt lat="52.060506" lon="8.753495">
        <ele>76.114944</ele>
        <time>2025-09-30T18:29:44.234Z</time>
      </trkpt>
      <trkpt lat="52.060385" lon="8.753253">
        <ele>76.230729</ele>
        <time>2025-09-30T18:29:52.036Z</time>
      </trkpt>
      <trkpt lat="52.059467" lon="8.752973">
        <ele>76.861135</ele>
        <time>2025-09-30T18:30:30.161Z</time>
      </trkpt>
      <trkpt lat="52.059128" lon="8.752756">
        <ele>77.442714</ele>
        <time>2025-09-30T18:30:44.948Z</time>
      </trkpt>
      <trkpt lat="52.059066" lon="8.752666">
        <ele>77.575378</ele>
        <time>2025-09-30T18:30:48.297Z</time>
      </trkpt>
      <trkpt lat="52.058898" lon="8.752425">
        <ele>77.932985</ele>
        <time>2025-09-30T18:30:57.244Z</time>
      </trkpt>
      <trkpt lat="52.058832" lon="8.752226">
        <ele>78.154915</ele>
        <time>2025-09-30T18:31:02.767Z</time>
      </trkpt>
      <trkpt lat="52.058714" lon="8.752165">
        <ele>78.352574</ele>
        <time>2025-09-30T18:31:07.675Z</time>
      </trkpt>
      <trkpt lat="52.058517" lon="8.752262">
        <ele>78.681157</ele>
        <time>2025-09-30T18:31:13.361Z</time>
      </trkpt>
      <trkpt lat="52.058457" lon="8.752315">
        <ele>78.790156</ele>
        <time>2025-09-30T18:31:15.259Z</time>
      </trkpt>
      <trkpt lat="52.058432" lon="8.752364">
        <ele>78.852653</ele>
        <time>2025-09-30T18:31:16.343Z</time>
      </trkpt>
      <trkpt lat="52.058323" lon="8.752422">
        <ele>79.035735</ele>
        <time>2025-09-30T18:31:19.522Z</time>
      </trkpt>
      <trkpt lat="52.058043" lon="8.753025">
        <ele>79.808912</ele>
        <time>2025-09-30T18:31:32.482Z</time>
      </trkpt>
      <trkpt lat="52.057217" lon="8.755487">
        <ele>83.115340</ele>
        <time>2025-09-30T18:32:19.875Z</time>
      </trkpt>
      <trkpt lat="52.056455" lon="8.757760">
        <ele>84.904584</ele>
        <time>2025-09-30T18:33:02.564Z</time>
      </trkpt>
      <trkpt lat="52.056286" lon="8.758127">
        <ele>85.111657</ele>
        <time>2025-09-30T18:33:09.823Z</time>
      </trkpt>
      <trkpt lat="52.055915" lon="8.758750">
        <ele>85.102120</ele>
        <time>2025-09-30T18:33:23.437Z</time>
      </trkpt>
      <trkpt lat="52.055714" lon="8.759012">
        <ele>85.097513</ele>
        <time>2025-09-30T18:33:30.045Z</time>
      </trkpt>
      <trkpt lat="52.055561" lon="8.759329">
        <ele>85.093081</ele>
        <time>2025-09-30T18:33:36.284Z</time>
      </trkpt>
      <trkpt lat="52.055503" lon="8.759326">
        <ele>85.092043</ele>
        <time>2025-09-30T18:33:37.734Z</time>
      </trkpt>
      <trkpt lat="52.055375" lon="8.759429">
        <ele>85.089489</ele>
        <time>2025-09-30T18:33:41.275Z</time>
      </trkpt>
      <trkpt lat="52.055237" lon="8.759539">
        <ele>85.086741</ele>
        <time>2025-09-30T18:33:45.078Z</time>
      </trkpt>
      <trkpt lat="52.055148" lon="8.759534">
        <ele>85.085148</ele>
        <time>2025-09-30T18:33:47.251Z</time>
      </trkpt>
      <trkpt lat="52.054791" lon="8.759715">
        <ele>84.907886</ele>
        <time>2025-09-30T18:33:56.213Z</time>
      </trkpt>
      <trkpt lat="52.054586" lon="8.759782">
        <ele>84.672133</ele>
        <time>2025-09-30T18:34:01.108Z</time>
      </trkpt>
      <trkpt lat="52.054362" lon="8.759820">
        <ele>84.418208</ele>
        <time>2025-09-30T18:34:06.391Z</time>
      </trkpt>
      <trkpt lat="52.054111" lon="8.759828">
        <ele>84.135158</ele>
        <time>2025-09-30T18:34:12.196Z</time>
      </trkpt>
      <trkpt lat="52.053908" lon="8.759769">
        <ele>83.902654</ele>
        <time>2025-09-30T18:34:16.817Z</time>
      </trkpt>
      <trkpt lat="52.053462" lon="8.759716">
        <ele>83.398460</ele>
        <time>2025-09-30T18:34:26.536Z</time>
      </trkpt>
      <trkpt lat="52.053788" lon="8.762332">
        <ele>81.785939</ele>
        <time>2025-09-30T18:35:05.005Z</time>
      </trkpt>
      <trkpt lat="52.053982" lon="8.763889">
        <ele>81.472638</ele>
        <time>2025-09-30T18:35:30.387Z</time>
      </trkpt>
      <trkpt lat="52.053139" lon="8.764477">
        <ele>81.698812</ele>
        <time>2025-09-30T18:35:54.533Z</time>
      </trkpt>
      <trkpt lat="52.052647" lon="8.764820">
        <ele>81.637715</ele>
        <time>2025-09-30T18:36:08.407Z</time>
      </trkpt>
      <trkpt lat="52.052268" lon="8.765023">
        <ele>81.275763</ele>
        <time>2025-09-30T18:36:18.240Z</time>
      </trkpt>
      <trkpt lat="52.052491" lon="8.766835">
        <ele>80.244984</ele>
        <time>2025-09-30T18:36:43.597Z</time>
      </trkpt>
      <trkpt lat="52.052664" lon="8.768967">
        <ele>78.251440</ele>
        <time>2025-09-30T18:37:12.097Z</time>
      </trkpt>
      <trkpt lat="52.052704" lon="8.770102">
        <ele>77.310429</ele>
        <time>2025-09-30T18:37:27.397Z</time>
      </trkpt>
      <trkpt lat="52.052712" lon="8.770329">
        <ele>77.253499</ele>
        <time>2025-09-30T18:37:30.642Z</time>
      </trkpt>
      <trkpt lat="52.052703" lon="8.771451">
        <ele>76.972547</ele>
        <time>2025-09-30T18:37:47.267Z</time>
      </trkpt>
      <trkpt lat="52.052686" lon="8.771877">
        <ele>76.865659</ele>
        <time>2025-09-30T18:37:53.743Z</time>
      </trkpt>
      <trkpt lat="52.052646" lon="8.772529">
        <ele>76.701600</ele>
        <time>2025-09-30T18:38:03.988Z</time>
      </trkpt>
      <trkpt lat="52.052582" lon="8.772703">
        <ele>76.650834</ele>
        <time>2025-09-30T18:38:07.210Z</time>
      </trkpt>
      <trkpt lat="52.052382" lon="8.773496">
        <ele>76.862154</ele>
        <time>2025-09-30T18:38:20.987Z</time>
      </trkpt>
      <trkpt lat="52.052363" lon="8.773977">
        <ele>77.007035</ele>
        <time>2025-09-30T18:38:28.737Z</time>
      </trkpt>
      <trkpt lat="52.052201" lon="8.775162">
        <ele>77.371928</ele>
        <time>2025-09-30T18:38:48.226Z</time>
      </trkpt>
      <trkpt lat="52.052106" lon="8.775691">
        <ele>77.511489</ele>
        <time>2025-09-30T18:38:57.112Z</time>
      </trkpt>
      <trkpt lat="52.051879" lon="8.776755">
        <ele>77.541213</ele>
        <time>2025-09-30T18:39:14.866Z</time>
      </trkpt>
      <trkpt lat="52.051497" lon="8.778173">
        <ele>77.582073</ele>
        <time>2025-09-30T18:39:38.434Z</time>
      </trkpt>
      <trkpt lat="52.050985" lon="8.779696">
        <ele>77.661208</ele>
        <time>2025-09-30T18:40:04.993Z</time>
      </trkpt>
      <trkpt lat="52.050477" lon="8.781047">
        <ele>77.832736</ele>
        <time>2025-09-30T18:40:30.098Z</time>
      </trkpt>
      <trkpt lat="52.050107" lon="8.781951">
        <ele>78.321960</ele>
        <time>2025-09-30T18:40:47.726Z</time>
      </trkpt>
      <trkpt lat="52.049879" lon="8.782584">
        <ele>78.652455</ele>
        <time>2025-09-30T18:40:59.685Z</time>
      </trkpt>
      <trkpt lat="52.049731" lon="8.783099">
        <ele>78.908557</ele>
        <time>2025-09-30T18:41:08.926Z</time>
      </trkpt>
      <trkpt lat="52.049605" lon="8.783397">
        <ele>79.080723</ele>
        <time>2025-09-30T18:41:14.793Z</time>
      </trkpt>
      <trkpt lat="52.049538" lon="8.783454">
        <ele>79.153903</ele>
        <time>2025-09-30T18:41:16.782Z</time>
      </trkpt>
      <trkpt lat="52.049207" lon="8.783954">
        <ele>79.591135</ele>
        <time>2025-09-30T18:41:28.691Z</time>
      </trkpt>
      <trkpt lat="52.049163" lon="8.784177">
        <ele>79.730522</ele>
        <time>2025-09-30T18:41:32.458Z</time>
      </trkpt>
      <trkpt lat="52.049175" lon="8.784513">
        <ele>79.930836</ele>
        <time>2025-09-30T18:41:37.885Z</time>
      </trkpt>
      <trkpt lat="52.048554" lon="8.786054">
        <ele>81.117811</ele>
        <time>2025-09-30T18:42:08.238Z</time>
      </trkpt>
      <trkpt lat="52.048155" lon="8.787164">
        <ele>82.166712</ele>
        <time>2025-09-30T18:42:29.785Z</time>
      </trkpt>
      <trkpt lat="52.048097" lon="8.787287">
        <ele>82.293160</ele>
        <time>2025-09-30T18:42:32.364Z</time>
      </trkpt>
      <trkpt lat="52.048040" lon="8.787325">
        <ele>82.374882</ele>
        <time>2025-09-30T18:42:34.062Z</time>
      </trkpt>
      <trkpt lat="52.046881" lon="8.787610">
        <ele>83.275908</ele>
        <time>2025-09-30T18:43:05.255Z</time>
      </trkpt>
      <trkpt lat="52.046030" lon="8.787820">
        <ele>83.435851</ele>
        <time>2025-09-30T18:43:26.676Z</time>
      </trkpt>
      <trkpt lat="52.044744" lon="8.788080">
        <ele>83.042140</ele>
        <time>2025-09-30T18:43:58.236Z</time>
      </trkpt>
      <trkpt lat="52.043738" lon="8.788282">
        <ele>82.531791</ele>
        <time>2025-09-30T18:44:22.748Z</time>
      </trkpt>
      <trkpt lat="52.042944" lon="8.788467">
        <ele>82.090140</ele>
        <time>2025-09-30T18:44:41.696Z</time>
      </trkpt>
      <trkpt lat="52.042553" lon="8.788732">
        <ele>81.856895</ele>
        <time>2025-09-30T18:44:51.707Z</time>
      </trkpt>
      <trkpt lat="52.042166" lon="8.789250">
        <ele>81.654778</ele>
        <time>2025-09-30T18:45:03.889Z</time>
      </trkpt>
      <trkpt lat="52.041203" lon="8.791229">
        <ele>82.337174</ele>
        <time>2025-09-30T18:45:44.329Z</time>
      </trkpt>
      <trkpt lat="52.040531" lon="8.792656">
        <ele>83.202788</ele>
        <time>2025-09-30T18:46:13.695Z</time>
      </trkpt>
      <trkpt lat="52.039888" lon="8.794019">
        <ele>84.095771</ele>
        <time>2025-09-30T18:46:41.631Z</time>
      </trkpt>
      <trkpt lat="52.038922" lon="8.797990">
        <ele>86.983278</ele>
        <time>2025-09-30T18:47:51.120Z</time>
      </trkpt>
      <trkpt lat="52.038609" lon="8.799255">
        <ele>88.296319</ele>
        <time>2025-09-30T18:48:14.409Z</time>
      </trkpt>
      <trkpt lat="52.038250" lon="8.800438">
        <ele>90.179235</ele>
        <time>2025-09-30T18:48:37.318Z</time>
      </trkpt>
      <trkpt lat="52.037718" lon="8.801695">
        <ele>92.346702</ele>
        <time>2025-09-30T18:49:03.371Z</time>
      </trkpt>
      <trkpt lat="52.037314" lon="8.802443">
        <ele>93.186253</ele>
        <time>2025-09-30T18:49:20.021Z</time>
      </trkpt>
      <trkpt lat="52.035490" lon="8.805515">
        <ele>96.184997</ele>
        <time>2025-09-30T18:50:30.277Z</time>
      </trkpt>
      <trkpt lat="52.035187" lon="8.806030">
        <ele>96.492164</ele>
        <time>2025-09-30T18:50:41.824Z</time>
      </trkpt>
      <trkpt lat="52.034852" lon="8.806600">
        <ele>96.358443</ele>
        <time>2025-09-30T18:50:54.325Z</time>
      </trkpt>
      <trkpt lat="52.034257" lon="8.807611">
        <ele>96.121109</ele>
        <time>2025-09-30T18:51:14.632Z</time>
      </trkpt>
      <trkpt lat="52.033740" lon="8.808683">
        <ele>96.008504</ele>
        <time>2025-09-30T18:51:34.884Z</time>
      </trkpt>
      <trkpt lat="52.034042" lon="8.809348">
        <ele>95.994868</ele>
        <time>2025-09-30T18:51:47.494Z</time>
      </trkpt>
      <trkpt lat="52.034412" lon="8.809472">
        <ele>95.984737</ele>
        <time>2025-09-30T18:51:57.162Z</time>
      </trkpt>
      <trkpt lat="52.034574" lon="8.809565">
        <ele>95.980129</ele>
        <time>2025-09-30T18:52:01.686Z</time>
      </trkpt>
      <trkpt lat="52.034657" lon="8.809894">
        <ele>95.974263</ele>
        <time>2025-09-30T18:52:07.470Z</time>
      </trkpt>
      <trkpt lat="52.034729" lon="8.810185">
        <ele>95.989919</ele>
        <time>2025-09-30T18:52:12.534Z</time>
      </trkpt>
      <trkpt lat="52.034813" lon="8.810467">
        <ele>96.012055</ele>
        <time>2025-09-30T18:52:17.525Z</time>
      </trkpt>
      <trkpt lat="52.034833" lon="8.810502">
        <ele>96.015429</ele>
        <time>2025-09-30T18:52:18.280Z</time>
      </trkpt>
      <trkpt lat="52.035158" lon="8.810914">
        <ele>96.062762</ele>
        <time>2025-09-30T18:52:28.729Z</time>
      </trkpt>
      <trkpt lat="52.035697" lon="8.811599">
        <ele>96.141335</ele>
        <time>2025-09-30T18:52:45.884Z</time>
      </trkpt>
      <trkpt lat="52.036100" lon="8.812094">
        <ele>96.133838</ele>
        <time>2025-09-30T18:52:58.510Z</time>
      </trkpt>
      <trkpt lat="52.036147" lon="8.812284">
        <ele>96.100317</ele>
        <time>2025-09-30T18:53:01.618Z</time>
      </trkpt>
      <trkpt lat="52.035304" lon="8.815947">
        <ele>96.046776</ele>
        <time>2025-09-30T18:54:00.768Z</time>
      </trkpt>
      <trkpt lat="52.035298" lon="8.816038">
        <ele>96.068284</ele>
        <time>2025-09-30T18:54:02.249Z</time>
      </trkpt>
      <trkpt lat="52.035178" lon="8.817901">
        <ele>96.667978</ele>
        <time>2025-09-30T18:54:33.026Z</time>
      </trkpt>
      <trkpt lat="52.035134" lon="8.818549">
        <ele>97.024134</ele>
        <time>2025-09-30T18:54:43.780Z</time>
      </trkpt>
      <trkpt lat="52.035089" lon="8.819203">
        <ele>97.383646</ele>
        <time>2025-09-30T18:54:54.553Z</time>
      </trkpt>
      <trkpt lat="52.035070" lon="8.819475">
        <ele>97.533196</ele>
        <time>2025-09-30T18:54:58.996Z</time>
      </trkpt>
      <trkpt lat="52.035048" lon="8.819793">
        <ele>97.708017</ele>
        <time>2025-09-30T18:55:04.161Z</time>
      </trkpt>
      <trkpt lat="52.035028" lon="8.820079">
        <ele>97.865267</ele>
        <time>2025-09-30T18:55:08.796Z</time>
      </trkpt>
      <trkpt lat="52.034723" lon="8.820191">
        <ele>98.037966</ele>
        <time>2025-09-30T18:55:16.935Z</time>
      </trkpt>
      <trkpt lat="52.034438" lon="8.820426">
        <ele>98.132707</ele>
        <time>2025-09-30T18:55:25.197Z</time>
      </trkpt>
      <trkpt lat="52.034305" lon="8.820628">
        <ele>98.186669</ele>
        <time>2025-09-30T18:55:29.901Z</time>
      </trkpt>
      <trkpt lat="52.034263" lon="8.820720">
        <ele>98.207564</ele>
        <time>2025-09-30T18:55:31.736Z</time>
      </trkpt>
      <trkpt lat="52.034190" lon="8.820879">
        <ele>98.243748</ele>
        <time>2025-09-30T18:55:34.899Z</time>
      </trkpt>
      <trkpt lat="52.034109" lon="8.821247">
        <ele>98.315031</ele>
        <time>2025-09-30T18:55:41.102Z</time>
      </trkpt>
      <trkpt lat="52.034077" lon="8.821400">
        <ele>98.344504</ele>
        <time>2025-09-30T18:55:43.656Z</time>
      </trkpt>
      <trkpt lat="52.034079" lon="8.821936">
        <ele>98.442263</ele>
        <time>2025-09-30T18:55:52.111Z</time>
      </trkpt>
      <trkpt lat="52.034137" lon="8.822310">
        <ele>98.512608</ele>
        <time>2025-09-30T18:55:58.133Z</time>
      </trkpt>
      <trkpt lat="52.034197" lon="8.822502">
        <ele>98.467893</ele>
        <time>2025-09-30T18:56:01.437Z</time>
      </trkpt>
      <trkpt lat="52.034128" lon="8.822534">
        <ele>98.435504</ele>
        <time>2025-09-30T18:56:03.212Z</time>
      </trkpt>
      <trkpt lat="52.033762" lon="8.822396">
        <ele>98.265903</ele>
        <time>2025-09-30T18:56:12.452Z</time>
      </trkpt>
      <trkpt lat="52.033632" lon="8.822347">
        <ele>98.205663</ele>
        <time>2025-09-30T18:56:15.679Z</time>
      </trkpt>
      <trkpt lat="52.033407" lon="8.822284">
        <ele>98.102601</ele>
        <time>2025-09-30T18:56:21.842Z</time>
      </trkpt>
      <trkpt lat="52.033307" lon="8.822339">
        <ele>98.054946</ele>
        <time>2025-09-30T18:56:24.651Z</time>
      </trkpt>
      <trkpt lat="52.033204" lon="8.822451">
        <ele>97.999007</ele>
        <time>2025-09-30T18:56:27.924Z</time>
      </trkpt>
      <trkpt lat="52.033135" lon="8.822457">
        <ele>97.967815</ele>
        <time>2025-09-30T18:56:29.617Z</time>
      </trkpt>
      <trkpt lat="52.033083" lon="8.822507">
        <ele>97.940543</ele>
        <time>2025-09-30T18:56:31.108Z</time>
      </trkpt>
      <trkpt lat="52.033027" lon="8.822780">
        <ele>97.860625</ele>
        <time>2025-09-30T18:56:35.493Z</time>
      </trkpt>
      <trkpt lat="52.032878" lon="8.823541">
        <ele>97.738154</ele>
        <time>2025-09-30T18:56:47.799Z</time>
      </trkpt>
      <trkpt lat="52.032780" lon="8.824041">
        <ele>97.805797</ele>
        <time>2025-09-30T18:56:56.062Z</time>
      </trkpt>
      <trkpt lat="52.032443" lon="8.825796">
        <ele>98.042785</ele>
        <time>2025-09-30T18:57:26.467Z</time>
      </trkpt>
      <trkpt lat="52.032158" lon="8.827281">
        <ele>98.667732</ele>
        <time>2025-09-30T18:57:52.582Z</time>
      </trkpt>
      <trkpt lat="52.032072" lon="8.827756">
        <ele>98.901110</ele>
        <time>2025-09-30T18:58:00.878Z</time>
      </trkpt>
      <trkpt lat="52.032022" lon="8.828219">
        <ele>99.122674</ele>
        <time>2025-09-30T18:58:08.768Z</time>
      </trkpt>
      <trkpt lat="52.032009" lon="8.828834">
        <ele>99.412716</ele>
        <time>2025-09-30T18:58:19.086Z</time>
      </trkpt>
      <trkpt lat="52.032004" lon="8.830417">
        <ele>100.161537</ele>
        <time>2025-09-30T18:58:45.740Z</time>
      </trkpt>
      <trkpt lat="52.032004" lon="8.830648">
        <ele>100.270835</ele>
        <time>2025-09-30T18:58:49.619Z</time>
      </trkpt>
      <trkpt lat="52.032005" lon="8.831031">
        <ele>100.452054</ele>
        <time>2025-09-30T18:58:56.057Z</time>
      </trkpt>
      <trkpt lat="52.032002" lon="8.832211">
        <ele>101.021526</ele>
        <time>2025-09-30T18:59:15.786Z</time>
      </trkpt>
      <trkpt lat="52.032001" lon="8.832871">
        <ele>101.354834</ele>
        <time>2025-09-30T18:59:26.824Z</time>
      </trkpt>
      <trkpt lat="52.032018" lon="8.833046">
        <ele>101.444306</ele>
        <time>2025-09-30T18:59:29.781Z</time>
      </trkpt>
      <trkpt lat="52.032106" lon="8.833092">
        <ele>101.520185</ele>
        <time>2025-09-30T18:59:32.224Z</time>
      </trkpt>
      <trkpt lat="52.032688" lon="8.833203">
        <ele>102.001202</ele>
        <time>2025-09-30T18:59:47.740Z</time>
      </trkpt>
      <trkpt lat="52.032764" lon="8.833220">
        <ele>102.064176</ele>
        <time>2025-09-30T18:59:49.777Z</time>
      </trkpt>
      <trkpt lat="52.033050" lon="8.833276">
        <ele>102.300639</ele>
        <time>2025-09-30T18:59:57.487Z</time>
      </trkpt>
      <trkpt lat="52.034154" lon="8.833489">
        <ele>103.405251</ele>
        <time>2025-09-30T19:00:27.057Z</time>
      </trkpt>
      <trkpt lat="52.034033" lon="8.835424">
        <ele>104.600417</ele>
        <time>2025-09-30T19:00:58.874Z</time>
      </trkpt>
      <trkpt lat="52.033913" lon="8.837148">
        <ele>105.668583</ele>
        <time>2025-09-30T19:01:27.356Z</time>
      </trkpt>
      <trkpt lat="52.033890" lon="8.837485">
        <ele>105.877333</ele>
        <time>2025-09-30T19:01:32.923Z</time>
      </trkpt>
      <trkpt lat="52.033853" lon="8.837795">
        <ele>105.946472</ele>
        <time>2025-09-30T19:01:38.106Z</time>
      </trkpt>
      <trkpt lat="52.033777" lon="8.837903">
        <ele>105.966492</ele>
        <time>2025-09-30T19:01:40.787Z</time>
      </trkpt>
      <trkpt lat="52.033880" lon="8.838005">
        <ele>105.990411</ele>
        <time>2025-09-30T19:01:43.987Z</time>
      </trkpt>
      <trkpt lat="52.034219" lon="8.838079">
        <ele>106.058245</ele>
        <time>2025-09-30T19:01:52.995Z</time>
      </trkpt>
      <trkpt lat="52.035016" lon="8.838227">
        <ele>106.217333</ele>
        <time>2025-09-30T19:02:13.092Z</time>
      </trkpt>
      <trkpt lat="52.035085" lon="8.838241">
        <ele>106.231124</ele>
        <time>2025-09-30T19:02:14.785Z</time>
      </trkpt>
      <trkpt lat="52.035157" lon="8.838381">
        <ele>106.253386</ele>
        <time>2025-09-30T19:02:19.419Z</time>
      </trkpt>
      <trkpt lat="52.035273" lon="8.838464">
        <ele>106.226798</ele>
        <time>2025-09-30T19:02:24.708Z</time>
      </trkpt>
      <trkpt lat="52.035329" lon="8.838520">
        <ele>106.132863</ele>
        <time>2025-09-30T19:02:27.401Z</time>
      </trkpt>
      <trkpt lat="52.035256" lon="8.838726">
        <ele>105.923916</ele>
        <time>2025-09-30T19:02:30.933Z</time>
      </trkpt>
      <trkpt lat="52.035246" lon="8.838867">
        <ele>105.799169</ele>
        <time>2025-09-30T19:02:33.019Z</time>
      </trkpt>
      <trkpt lat="52.035120" lon="8.839194">
        <ele>105.460042</ele>
        <time>2025-09-30T19:02:38.530Z</time>
      </trkpt>
      <trkpt lat="52.034678" lon="8.840303">
        <ele>104.298638</ele>
        <time>2025-09-30T19:02:56.098Z</time>
      </trkpt>
      <trkpt lat="52.034047" lon="8.841682">
        <ele>102.308405</ele>
        <time>2025-09-30T19:03:18.241Z</time>
      </trkpt>
      <trkpt lat="52.033682" lon="8.842329">
        <ele>101.132070</ele>
        <time>2025-09-30T19:03:29.379Z</time>
      </trkpt>
      <trkpt lat="52.033413" lon="8.842708">
        <ele>100.356666</ele>
        <time>2025-09-30T19:03:36.740Z</time>
      </trkpt>
      <trkpt lat="52.033366" lon="8.842692">
        <ele>100.252070</ele>
        <time>2025-09-30T19:03:37.735Z</time>
      </trkpt>
      <trkpt lat="52.033318" lon="8.842618">
        <ele>100.107971</ele>
        <time>2025-09-30T19:03:39.108Z</time>
      </trkpt>
      <trkpt lat="52.033255" lon="8.842546">
        <ele>99.940221</ele>
        <time>2025-09-30T19:03:40.708Z</time>
      </trkpt>
      <trkpt lat="52.032769" lon="8.843346">
        <ele>98.687188</ele>
        <time>2025-09-30T19:03:55.271Z</time>
      </trkpt>
      <trkpt lat="52.032701" lon="8.843394">
        <ele>98.556016</ele>
        <time>2025-09-30T19:03:56.874Z</time>
      </trkpt>
      <trkpt lat="52.032314" lon="8.844020">
        <ele>97.589985</ele>
        <time>2025-09-30T19:04:08.672Z</time>
      </trkpt>
      <trkpt lat="52.031783" lon="8.844874">
        <ele>96.331504</ele>
        <time>2025-09-30T19:04:25.156Z</time>
      </trkpt>
      <trkpt lat="52.031616" lon="8.844987">
        <ele>96.072041</ele>
        <time>2025-09-30T19:04:29.207Z</time>
      </trkpt>
      <trkpt lat="52.031445" lon="8.845125">
        <ele>95.798201</ele>
        <time>2025-09-30T19:04:33.475Z</time>
      </trkpt>
      <trkpt lat="52.030923" lon="8.845841">
        <ele>94.818501</ele>
        <time>2025-09-30T19:04:48.521Z</time>
      </trkpt>
      <trkpt lat="52.030640" lon="8.846101">
        <ele>94.352224</ele>
        <time>2025-09-30T19:04:55.791Z</time>
      </trkpt>
      <trkpt lat="52.030560" lon="8.846385">
        <ele>94.076584</ele>
        <time>2025-09-30T19:05:00.099Z</time>
      </trkpt>
      <trkpt lat="52.030487" lon="8.846513">
        <ele>93.953653</ele>
        <time>2025-09-30T19:05:02.528Z</time>
      </trkpt>
      <trkpt lat="52.030501" lon="8.846627">
        <ele>93.883031</ele>
        <time>2025-09-30T19:05:04.099Z</time>
      </trkpt>
      <trkpt lat="52.030315" lon="8.846907">
        <ele>93.632702</ele>
        <time>2025-09-30T19:05:09.657Z</time>
      </trkpt>
      <trkpt lat="52.029999" lon="8.847607">
        <ele>93.105256</ele>
        <time>2025-09-30T19:05:21.080Z</time>
      </trkpt>
      <trkpt lat="52.029780" lon="8.848169">
        <ele>92.701117</ele>
        <time>2025-09-30T19:05:30.614Z</time>
      </trkpt>
      <trkpt lat="52.029627" lon="8.848816">
        <ele>92.280024</ele>
        <time>2025-09-30T19:05:41.191Z</time>
      </trkpt>
      <trkpt lat="52.029524" lon="8.849483">
        <ele>92.836616</ele>
        <time>2025-09-30T19:05:52.175Z</time>
      </trkpt>
      <trkpt lat="52.029502" lon="8.849989">
        <ele>93.310223</ele>
        <time>2025-09-30T19:06:00.486Z</time>
      </trkpt>
      <trkpt lat="52.029484" lon="8.850378">
        <ele>93.674440</ele>
        <time>2025-09-30T19:06:07.020Z</time>
      </trkpt>
      <trkpt lat="52.029458" lon="8.850827">
        <ele>94.095503</ele>
        <time>2025-09-30T19:06:14.731Z</time>
      </trkpt>
      <trkpt lat="52.029408" lon="8.850958">
        <ele>94.239435</ele>
        <time>2025-09-30T19:06:17.385Z</time>
      </trkpt>
      <trkpt lat="52.029426" lon="8.852824">
        <ele>96.306284</ele>
        <time>2025-09-30T19:06:49.557Z</time>
      </trkpt>
      <trkpt lat="52.029454" lon="8.853657">
        <ele>97.336353</ele>
        <time>2025-09-30T19:07:03.799Z</time>
      </trkpt>
      <trkpt lat="52.029414" lon="8.854358">
        <ele>98.205619</ele>
        <time>2025-09-30T19:07:15.579Z</time>
      </trkpt>
      <trkpt lat="52.029380" lon="8.854595">
        <ele>98.506101</ele>
        <time>2025-09-30T19:07:19.615Z</time>
      </trkpt>
      <trkpt lat="52.029392" lon="8.854747">
        <ele>98.621296</ele>
        <time>2025-09-30T19:07:22.146Z</time>
      </trkpt>
      <trkpt lat="52.029267" lon="8.855390">
        <ele>98.893114</ele>
        <time>2025-09-30T19:07:33.197Z</time>
      </trkpt>
      <trkpt lat="52.029095" lon="8.856048">
        <ele>99.181295</ele>
        <time>2025-09-30T19:07:44.593Z</time>
      </trkpt>
      <trkpt lat="52.028881" lon="8.856820">
        <ele>99.522609</ele>
        <time>2025-09-30T19:07:57.826Z</time>
      </trkpt>
      <trkpt lat="52.028715" lon="8.857609">
        <ele>99.828627</ele>
        <time>2025-09-30T19:08:11.256Z</time>
      </trkpt>
      <trkpt lat="52.028640" lon="8.858325">
        <ele>100.028540</ele>
        <time>2025-09-30T19:08:23.175Z</time>
      </trkpt>
      <trkpt lat="52.028628" lon="8.858938">
        <ele>100.197351</ele>
        <time>2025-09-30T19:08:33.149Z</time>
      </trkpt>
      <trkpt lat="52.028647" lon="8.859691">
        <ele>100.404786</ele>
        <time>2025-09-30T19:08:45.297Z</time>
      </trkpt>
      <trkpt lat="52.028928" lon="8.864083">
        <ele>100.026187</ele>
        <time>2025-09-30T19:09:51.476Z</time>
      </trkpt>
      <trkpt lat="52.028937" lon="8.864236">
        <ele>100.044218</ele>
        <time>2025-09-30T19:09:53.776Z</time>
      </trkpt>
      <trkpt lat="52.028955" lon="8.864560">
        <ele>100.082385</ele>
        <time>2025-09-30T19:09:58.668Z</time>
      </trkpt>
      <trkpt lat="52.029015" lon="8.865949">
        <ele>100.245742</ele>
        <time>2025-09-30T19:10:20.997Z</time>
      </trkpt>
      <trkpt lat="52.029026" lon="8.866095">
        <ele>100.262998</ele>
        <time>2025-09-30T19:10:23.423Z</time>
      </trkpt>
      <trkpt lat="52.029035" lon="8.866242">
        <ele>100.325291</ele>
        <time>2025-09-30T19:10:25.850Z</time>
      </trkpt>
      <trkpt lat="52.029044" lon="8.866404">
        <ele>100.396402</ele>
        <time>2025-09-30T19:10:28.536Z</time>
      </trkpt>
      <trkpt lat="52.029115" lon="8.866393">
        <ele>100.447079</ele>
        <time>2025-09-30T19:10:30.461Z</time>
      </trkpt>
      <trkpt lat="52.029183" lon="8.866383">
        <ele>100.495594</ele>
        <time>2025-09-30T19:10:32.305Z</time>
      </trkpt>
      <trkpt lat="52.029201" lon="8.866699">
        <ele>100.634331</ele>
        <time>2025-09-30T19:10:37.566Z</time>
      </trkpt>
      <trkpt lat="52.029268" lon="8.867525">
        <ele>100.998560</ele>
        <time>2025-09-30T19:10:51.421Z</time>
      </trkpt>
      <trkpt lat="52.029342" lon="8.868032">
        <ele>101.226357</ele>
        <time>2025-09-30T19:10:59.987Z</time>
      </trkpt>
      <trkpt lat="52.029568" lon="8.868860">
        <ele>101.411722</ele>
        <time>2025-09-30T19:11:13.872Z</time>
      </trkpt>
      <trkpt lat="52.029499" lon="8.868915">
        <ele>101.323436</ele>
        <time>2025-09-30T19:11:15.662Z</time>
      </trkpt>
      <trkpt lat="52.029441" lon="8.868963">
        <ele>101.248666</ele>
        <time>2025-09-30T19:11:17.146Z</time>
      </trkpt>
      <trkpt lat="52.029373" lon="8.868870">
        <ele>101.146572</ele>
        <time>2025-09-30T19:11:19.161Z</time>
      </trkpt>
      <trkpt lat="52.029338" lon="8.868866">
        <ele>101.106265</ele>
        <time>2025-09-30T19:11:19.943Z</time>
      </trkpt>
      <trkpt lat="52.029273" lon="8.868930">
        <ele>101.018960</ele>
        <time>2025-09-30T19:11:21.626Z</time>
      </trkpt>
      <trkpt lat="52.029116" lon="8.869251">
        <ele>100.729120</ele>
        <time>2025-09-30T19:11:27.199Z</time>
      </trkpt>
      <trkpt lat="52.029048" lon="8.869952">
        <ele>100.227526</ele>
        <time>2025-09-30T19:11:36.709Z</time>
      </trkpt>
      <trkpt lat="52.028958" lon="8.870282">
        <ele>99.972390</ele>
        <time>2025-09-30T19:11:41.461Z</time>
      </trkpt>
      <trkpt lat="52.028789" lon="8.872062">
        <ele>98.975574</ele>
        <time>2025-09-30T19:12:07.053Z</time>
      </trkpt>
      <trkpt lat="52.028749" lon="8.872654">
        <ele>98.704412</ele>
        <time>2025-09-30T19:12:15.691Z</time>
      </trkpt>
      <trkpt lat="52.028746" lon="8.872719">
        <ele>98.674734</ele>
        <time>2025-09-30T19:12:16.638Z</time>
      </trkpt>
      <trkpt lat="52.028739" lon="8.872895">
        <ele>98.594432</ele>
        <time>2025-09-30T19:12:19.235Z</time>
      </trkpt>
      <trkpt lat="52.028733" lon="8.873062">
        <ele>98.518267</ele>
        <time>2025-09-30T19:12:21.709Z</time>
      </trkpt>
      <trkpt lat="52.028722" lon="8.874250">
        <ele>98.225491</ele>
        <time>2025-09-30T19:12:39.647Z</time>
      </trkpt>
      <trkpt lat="52.028722" lon="8.874280">
        <ele>98.232100</ele>
        <time>2025-09-30T19:12:40.117Z</time>
      </trkpt>
      <trkpt lat="52.028720" lon="8.874860">
        <ele>98.359878</ele>
        <time>2025-09-30T19:12:49.068Z</time>
      </trkpt>
      <trkpt lat="52.028719" lon="8.874970">
        <ele>98.384114</ele>
        <time>2025-09-30T19:12:50.731Z</time>
      </trkpt>
      <trkpt lat="52.028718" lon="8.875450">
        <ele>98.489860</ele>
        <time>2025-09-30T19:12:58.242Z</time>
      </trkpt>
      <trkpt lat="52.028719" lon="8.875559">
        <ele>98.513876</ele>
        <time>2025-09-30T19:12:59.976Z</time>
      </trkpt>
      <trkpt lat="52.028724" lon="8.876492">
        <ele>98.719427</ele>
        <time>2025-09-30T19:13:15.175Z</time>
      </trkpt>
      <trkpt lat="52.028720" lon="8.877401">
        <ele>99.079808</ele>
        <time>2025-09-30T19:13:30.117Z</time>
      </trkpt>
      <trkpt lat="52.028687" lon="8.878115">
        <ele>99.430202</ele>
        <time>2025-09-30T19:13:41.852Z</time>
      </trkpt>
      <trkpt lat="52.028684" lon="8.878163">
        <ele>99.453813</ele>
        <time>2025-09-30T19:13:42.654Z</time>
      </trkpt>
      <trkpt lat="52.028671" lon="8.878427">
        <ele>99.583420</ele>
        <time>2025-09-30T19:13:46.985Z</time>
      </trkpt>
      <trkpt lat="52.028655" lon="8.878726">
        <ele>99.730294</ele>
        <time>2025-09-30T19:13:51.878Z</time>
      </trkpt>
      <trkpt lat="52.028650" lon="8.878825">
        <ele>99.778904</ele>
        <time>2025-09-30T19:13:53.493Z</time>
      </trkpt>
      <trkpt lat="52.028644" lon="8.878921">
        <ele>99.826126</ele>
        <time>2025-09-30T19:13:55.047Z</time>
      </trkpt>
      <trkpt lat="52.028641" lon="8.878979">
        <ele>99.854609</ele>
        <time>2025-09-30T19:13:56.005Z</time>
      </trkpt>
      <trkpt lat="52.028602" lon="8.879638">
        <ele>100.178593</ele>
        <time>2025-09-30T19:14:06.642Z</time>
      </trkpt>
      <trkpt lat="52.028560" lon="8.880258">
        <ele>100.136719</ele>
        <time>2025-09-30T19:14:16.569Z</time>
      </trkpt>
      <trkpt lat="52.028552" lon="8.880583">
        <ele>100.087118</ele>
        <time>2025-09-30T19:14:21.568Z</time>
      </trkpt>
      <trkpt lat="52.028557" lon="8.881693">
        <ele>99.917843</ele>
        <time>2025-09-30T19:14:37.988Z</time>
      </trkpt>
      <trkpt lat="52.028619" lon="8.882518">
        <ele>99.791099</ele>
        <time>2025-09-30T19:14:50.156Z</time>
      </trkpt>
      <trkpt lat="52.028635" lon="8.882711">
        <ele>99.794099</ele>
        <time>2025-09-30T19:14:53.071Z</time>
      </trkpt>
      <trkpt lat="52.028641" lon="8.882830">
        <ele>99.825554</ele>
        <time>2025-09-30T19:14:54.873Z</time>
      </trkpt>
      <trkpt lat="52.028647" lon="8.882928">
        <ele>99.851498</ele>
        <time>2025-09-30T19:14:56.362Z</time>
      </trkpt>
      <trkpt lat="52.028666" lon="8.883259">
        <ele>99.939075</ele>
        <time>2025-09-30T19:15:01.473Z</time>
      </trkpt>
      <trkpt lat="52.028678" lon="8.883422">
        <ele>99.982322</ele>
        <time>2025-09-30T19:15:04.131Z</time>
      </trkpt>
      <trkpt lat="52.028730" lon="8.884044">
        <ele>100.147688</ele>
        <time>2025-09-30T19:15:14.089Z</time>
      </trkpt>
      <trkpt lat="52.028840" lon="8.885360">
        <ele>100.497558</ele>
        <time>2025-09-30T19:15:35.762Z</time>
      </trkpt>
      <trkpt lat="52.028900" lon="8.885897">
        <ele>100.686493</ele>
        <time>2025-09-30T19:15:44.748Z</time>
      </trkpt>
      <trkpt lat="52.029052" lon="8.886811">
        <ele>101.051051</ele>
        <time>2025-09-30T19:16:00.196Z</time>
      </trkpt>
      <trkpt lat="52.029288" lon="8.888022">
        <ele>101.540167</ele>
        <time>2025-09-30T19:16:20.319Z</time>
      </trkpt>
      <trkpt lat="52.029366" lon="8.888415">
        <ele>101.686251</ele>
        <time>2025-09-30T19:16:26.891Z</time>
      </trkpt>
      <trkpt lat="52.029386" lon="8.888633">
        <ele>101.734611</ele>
        <time>2025-09-30T19:16:30.379Z</time>
      </trkpt>
      <trkpt lat="52.029381" lon="8.888948">
        <ele>101.803748</ele>
        <time>2025-09-30T19:16:35.395Z</time>
      </trkpt>
      <trkpt lat="52.029359" lon="8.889126">
        <ele>101.843584</ele>
        <time>2025-09-30T19:16:38.285Z</time>
      </trkpt>
      <trkpt lat="52.029607" lon="8.889407">
        <ele>101.951394</ele>
        <time>2025-09-30T19:16:46.206Z</time>
      </trkpt>
      <trkpt lat="52.029818" lon="8.889553">
        <ele>102.033175</ele>
        <time>2025-09-30T19:16:52.215Z</time>
      </trkpt>
      <trkpt lat="52.029785" lon="8.889816">
        <ele>102.092068</ele>
        <time>2025-09-30T19:16:56.521Z</time>
      </trkpt>
      <trkpt lat="52.029842" lon="8.890063">
        <ele>102.149948</ele>
        <time>2025-09-30T19:17:00.737Z</time>
      </trkpt>
      <trkpt lat="52.029891" lon="8.890270">
        <ele>102.198612</ele>
        <time>2025-09-30T19:17:04.276Z</time>
      </trkpt>
      <trkpt lat="52.029955" lon="8.890548">
        <ele>102.263737</ele>
        <time>2025-09-30T19:17:08.952Z</time>
      </trkpt>
      <trkpt lat="52.030019" lon="8.890825">
        <ele>102.285652</ele>
        <time>2025-09-30T19:17:13.555Z</time>
      </trkpt>
      <trkpt lat="52.030059" lon="8.890998">
        <ele>102.229805</ele>
        <time>2025-09-30T19:17:16.439Z</time>
      </trkpt>
      <trkpt lat="52.030205" lon="8.891734">
        <ele>101.996127</ele>
        <time>2025-09-30T19:17:28.164Z</time>
      </trkpt>
      <trkpt lat="52.030206" lon="8.891766">
        <ele>101.986445</ele>
        <time>2025-09-30T19:17:28.647Z</time>
      </trkpt>
      <trkpt lat="52.030225" lon="8.892339">
        <ele>101.813046</ele>
        <time>2025-09-30T19:17:37.111Z</time>
      </trkpt>
      <trkpt lat="52.030205" lon="8.892870">
        <ele>101.652289</ele>
        <time>2025-09-30T19:17:44.724Z</time>
      </trkpt>
      <trkpt lat="52.030183" lon="8.893227">
        <ele>101.543872</ele>
        <time>2025-09-30T19:17:49.875Z</time>
      </trkpt>
      <trkpt lat="52.030207" lon="8.893527">
        <ele>101.452456</ele>
        <time>2025-09-30T19:17:54.204Z</time>
      </trkpt>
      <trkpt lat="52.030110" lon="8.893732">
        <ele>101.387381</ele>
        <time>2025-09-30T19:17:57.934Z</time>
      </trkpt>
      <trkpt lat="52.029891" lon="8.894449">
        <ele>101.205315</ele>
        <time>2025-09-30T19:18:09.857Z</time>
      </trkpt>
      <trkpt lat="52.029669" lon="8.894729">
        <ele>101.101437</ele>
        <time>2025-09-30T19:18:17.070Z</time>
      </trkpt>
      <trkpt lat="52.029766" lon="8.895070">
        <ele>101.015990</ele>
        <time>2025-09-30T19:18:22.795Z</time>
      </trkpt>
      <trkpt lat="52.029938" lon="8.895541">
        <ele>100.891416</ele>
        <time>2025-09-30T19:18:31.127Z</time>
      </trkpt>
      <trkpt lat="52.030151" lon="8.896031">
        <ele>100.766080</ele>
        <time>2025-09-30T19:18:40.265Z</time>
      </trkpt>
      <trkpt lat="52.030217" lon="8.896223">
        <ele>100.792333</ele>
        <time>2025-09-30T19:18:43.623Z</time>
      </trkpt>
      <trkpt lat="52.030249" lon="8.896319">
        <ele>100.805366</ele>
        <time>2025-09-30T19:18:45.295Z</time>
      </trkpt>
      <trkpt lat="52.030302" lon="8.896595">
        <ele>100.839878</ele>
        <time>2025-09-30T19:18:49.754Z</time>
      </trkpt>
      <trkpt lat="52.030300" lon="8.897246">
        <ele>100.917585</ele>
        <time>2025-09-30T19:18:59.906Z</time>
      </trkpt>
      <trkpt lat="52.030298" lon="8.897334">
        <ele>100.928097</ele>
        <time>2025-09-30T19:19:01.302Z</time>
      </trkpt>
      <trkpt lat="52.030250" lon="8.899045">
        <ele>101.147262</ele>
        <time>2025-09-30T19:19:28.602Z</time>
      </trkpt>
      <trkpt lat="52.030086" lon="8.900443">
        <ele>101.434365</ele>
        <time>2025-09-30T19:19:51.562Z</time>
      </trkpt>
      <trkpt lat="52.030007" lon="8.900931">
        <ele>101.536162</ele>
        <time>2025-09-30T19:19:59.501Z</time>
      </trkpt>
      <trkpt lat="52.029721" lon="8.902362">
        <ele>101.671337</ele>
        <time>2025-09-30T19:20:22.658Z</time>
      </trkpt>
      <trkpt lat="52.029681" lon="8.902592">
        <ele>101.661039</ele>
        <time>2025-09-30T19:20:26.256Z</time>
      </trkpt>
      <trkpt lat="52.029518" lon="8.903578">
        <ele>101.617045</ele>
        <time>2025-09-30T19:20:41.668Z</time>
      </trkpt>
      <trkpt lat="52.029432" lon="8.904405">
        <ele>101.580905</ele>
        <time>2025-09-30T19:20:54.762Z</time>
      </trkpt>
      <trkpt lat="52.029354" lon="8.905418">
        <ele>101.689283</ele>
        <time>2025-09-30T19:21:11.022Z</time>
      </trkpt>
      <trkpt lat="52.029338" lon="8.905883">
        <ele>101.749501</ele>
        <time>2025-09-30T19:21:18.477Z</time>
      </trkpt>
      <trkpt lat="52.029351" lon="8.906151">
        <ele>101.784261</ele>
        <time>2025-09-30T19:21:22.759Z</time>
      </trkpt>
      <trkpt lat="52.029384" lon="8.906277">
        <ele>101.801967</ele>
        <time>2025-09-30T19:21:24.941Z</time>
      </trkpt>
      <trkpt lat="52.029168" lon="8.906557">
        <ele>101.860030</ele>
        <time>2025-09-30T19:21:32.014Z</time>
      </trkpt>
      <trkpt lat="52.029305" lon="8.906906">
        <ele>101.913558</ele>
        <time>2025-09-30T19:21:38.468Z</time>
      </trkpt>
      <trkpt lat="52.029366" lon="8.906996">
        <ele>101.930871</ele>
        <time>2025-09-30T19:21:40.540Z</time>
      </trkpt>
      <trkpt lat="52.029450" lon="8.907348">
        <ele>101.937118</ele>
        <time>2025-09-30T19:21:46.339Z</time>
      </trkpt>
      <trkpt lat="52.029486" lon="8.908718">
        <ele>101.831679</ele>
        <time>2025-09-30T19:22:07.158Z</time>
      </trkpt>
      <trkpt lat="52.029515" lon="8.909155">
        <ele>101.797883</ele>
        <time>2025-09-30T19:22:13.721Z</time>
      </trkpt>
      <trkpt lat="52.029599" lon="8.909792">
        <ele>101.747790</ele>
        <time>2025-09-30T19:22:23.646Z</time>
      </trkpt>
      <trkpt lat="52.029515" lon="8.909155">
        <ele>101.740741</ele>
        <time>2025-09-30T19:22:33.900Z</time>
      </trkpt>
      <trkpt lat="52.029486" lon="8.908718">
        <ele>101.754628</ele>
        <time>2025-09-30T19:22:40.928Z</time>
      </trkpt>
      <trkpt lat="52.029450" lon="8.907348">
        <ele>101.797952</ele>
        <time>2025-09-30T19:23:02.489Z</time>
      </trkpt>
      <trkpt lat="52.029366" lon="8.906996">
        <ele>101.809880</ele>
        <time>2025-09-30T19:23:08.287Z</time>
      </trkpt>
      <trkpt lat="52.029305" lon="8.906906">
        <ele>101.814110</ele>
        <time>2025-09-30T19:23:10.364Z</time>
      </trkpt>
      <trkpt lat="52.029168" lon="8.906557">
        <ele>101.761103</ele>
        <time>2025-09-30T19:23:16.627Z</time>
      </trkpt>
      <trkpt lat="52.029069" lon="8.906541">
        <ele>101.715223</ele>
        <time>2025-09-30T19:23:19.038Z</time>
      </trkpt>
      <trkpt lat="52.028924" lon="8.906683">
        <ele>101.637156</ele>
        <time>2025-09-30T19:23:23.103Z</time>
      </trkpt>
      <trkpt lat="52.028443" lon="8.907157">
        <ele>101.377754</ele>
        <time>2025-09-30T19:23:36.776Z</time>
      </trkpt>
      <trkpt lat="52.028209" lon="8.907286">
        <ele>101.263805</ele>
        <time>2025-09-30T19:23:42.779Z</time>
      </trkpt>
      <trkpt lat="52.028044" lon="8.907319">
        <ele>101.187140</ele>
        <time>2025-09-30T19:23:46.848Z</time>
      </trkpt>
      <trkpt lat="52.027933" lon="8.907311">
        <ele>101.135902</ele>
        <time>2025-09-30T19:23:49.556Z</time>
      </trkpt>
      <trkpt lat="52.027882" lon="8.907279">
        <ele>101.110691</ele>
        <time>2025-09-30T19:23:50.876Z</time>
      </trkpt>
      <trkpt lat="52.027834" lon="8.907258">
        <ele>101.087768</ele>
        <time>2025-09-30T19:23:52.104Z</time>
      </trkpt>
      <trkpt lat="52.027780" lon="8.907224">
        <ele>101.061062</ele>
        <time>2025-09-30T19:23:53.486Z</time>
      </trkpt>
      <trkpt lat="52.027743" lon="8.907323">
        <ele>101.028196</ele>
        <time>2025-09-30T19:23:55.215Z</time>
      </trkpt>
      <trkpt lat="52.027650" lon="8.907516">
        <ele>100.899376</ele>
        <time>2025-09-30T19:24:00.062Z</time>
      </trkpt>
      <trkpt lat="52.027564" lon="8.907495">
        <ele>100.786090</ele>
        <time>2025-09-30T19:24:02.818Z</time>
      </trkpt>
      <trkpt lat="52.027507" lon="8.907483">
        <ele>100.711218</ele>
        <time>2025-09-30T19:24:04.657Z</time>
      </trkpt>
      <trkpt lat="52.027239" lon="8.907425">
        <ele>100.359023</ele>
        <time>2025-09-30T19:24:13.280Z</time>
      </trkpt>
      <trkpt lat="52.027007" lon="8.907368">
        <ele>100.053372</ele>
        <time>2025-09-30T19:24:20.644Z</time>
      </trkpt>
      <trkpt lat="52.026827" lon="8.907323">
        <ele>99.816135</ele>
        <time>2025-09-30T19:24:26.222Z</time>
      </trkpt>
      <trkpt lat="52.026500" lon="8.907242">
        <ele>99.385245</ele>
        <time>2025-09-30T19:24:35.934Z</time>
      </trkpt>
      <trkpt lat="52.026216" lon="8.907306">
        <ele>99.011749</ele>
        <time>2025-09-30T19:24:44.248Z</time>
      </trkpt>
      <trkpt lat="52.026131" lon="8.907287">
        <ele>98.899981</ele>
        <time>2025-09-30T19:24:46.741Z</time>
      </trkpt>
      <trkpt lat="52.025662" lon="8.907155">
        <ele>98.648091</ele>
        <time>2025-09-30T19:25:00.813Z</time>
      </trkpt>
      <trkpt lat="52.025432" lon="8.907109">
        <ele>98.648091</ele>
        <time>2025-09-30T19:25:07.837Z</time>
      </trkpt>
      <trkpt lat="52.025302" lon="8.907075">
        <ele>98.648091</ele>
        <time>2025-09-30T19:25:11.943Z</time>
      </trkpt>
      <trkpt lat="52.025188" lon="8.907045">
        <ele>98.648091</ele>
        <time>2025-09-30T19:25:15.573Z</time>
      </trkpt>
      <trkpt lat="52.025203" lon="8.907453">
        <ele>98.648091</ele>
        <time>2025-09-30T19:25:21.798Z</time>
      </trkpt>
      <trkpt lat="52.025148" lon="8.907466">
        <ele>98.648091</ele>
        <time>2025-09-30T19:25:23.611Z</time>
      </trkpt>
      <trkpt lat="52.025134" lon="8.907465">
        <ele>98.648091</ele>
        <time>2025-09-30T19:25:24.070Z</time>
      </trkpt>
      <trkpt lat="52.025044" lon="8.907447">
        <ele>98.648091</ele>
        <time>2025-09-30T19:25:26.268Z</time>
      </trkpt>
      <trkpt lat="52.024891" lon="8.907415">
        <ele>98.648091</ele>
        <time>2025-09-30T19:25:30.111Z</time>
      </trkpt>
      <trkpt lat="52.024761" lon="8.907326">
        <ele>98.648091</ele>
        <time>2025-09-30T19:25:33.687Z</time>
      </trkpt>
      <trkpt lat="52.024630" lon="8.907230">
        <ele>98.648091</ele>
        <time>2025-09-30T19:25:37.336Z</time>
      </trkpt>
      <trkpt lat="52.024501" lon="8.907135">
        <ele>98.648091</ele>
        <time>2025-09-30T19:25:40.942Z</time>
      </trkpt>
      <trkpt lat="52.024459" lon="8.907294">
        <ele>98.648091</ele>
        <time>2025-09-30T19:25:43.669Z</time>
      </trkpt>
    </trkseg>
  </trk>
</gpx>